Provisional Data: Chemung River at West Elmira, NY


Please select a monitoring station.
Please select start date.
Please select start date.

Toggle Unit: C/F Toggle Unit: C/F
Sample Time Temperature (C) Temperature (F) Specific Conductivity (mS/cm) pH   Turbidity (NTU+) DO (mg/L)
3/23/2021 12:00:00 AM 5.95 42.71 0.162 7.53 153.3 12.4
3/23/2021 12:15:00 AM 5.96 42.728 0.162 7.54 158.32 12.48
3/23/2021 12:30:00 AM 5.96 42.728 0.161 7.53 165.03 11.9
3/23/2021 12:45:00 AM 5.97 42.746 0.161 7.53 150.83 12.35
3/23/2021 1:00:00 AM 5.97 42.746 0.161 7.53 170.11 12.09
3/23/2021 1:15:00 AM 5.97 42.746 0.161 7.53 166.28 12.09
3/23/2021 1:30:00 AM 5.97 42.746 0.159 7.52 165.43 12.16
3/23/2021 1:45:00 AM 5.98 42.764 0.159 7.52 157.45 11.81
3/23/2021 2:00:00 AM 5.97 42.746 0.159 7.52 172.62 11.99
3/23/2021 2:15:00 AM 5.97 42.746 0.16 7.52 160.19 12.17
3/23/2021 2:30:00 AM 5.97 42.746 0.16 7.52 183.54 11.75
3/23/2021 2:45:00 AM 5.96 42.728 0.161 7.52 156.07 12.28
3/23/2021 3:00:00 AM 5.94 42.692 0.161 7.52 167.86 11.93
3/23/2021 3:15:00 AM 5.93 42.674 0.162 7.52 159.61 11.83
3/23/2021 3:30:00 AM 5.92 42.656 0.161 7.52 153.16 11.92
3/23/2021 3:45:00 AM 5.9 42.62 0.162 7.52 145.95 12.04
3/23/2021 4:00:00 AM 5.87 42.566 0.161 7.52 142.56 11.91
3/23/2021 4:15:00 AM 5.85 42.53 0.161 7.52 146.76 12.23
3/23/2021 4:30:00 AM 5.82 42.476 0.16 7.52 148.26 11.64
3/23/2021 4:45:00 AM 5.79 42.422 0.162 7.52 160.27 11.73
3/23/2021 5:00:00 AM 5.76 42.368 0.163 7.51 146.34 11.66
3/23/2021 5:15:00 AM 5.73 42.314 0.163 7.51 141.97 11.45
3/23/2021 5:30:00 AM 5.7 42.26 0.162 7.51 149.64 11.26
3/23/2021 5:45:00 AM 5.67 42.206 0.162 7.51 173.49 11.32
3/23/2021 6:00:00 AM 5.63 42.134 0.162 7.51 149 11.37
3/23/2021 6:15:00 AM 5.59 42.062 0.162 7.51 148.88 11.83
3/23/2021 6:30:00 AM 5.56 42.008 0.162 7.5 163.44 11.94
3/23/2021 6:45:00 AM 5.53 41.954 0.164 7.5 156.91 11.97
3/23/2021 7:00:00 AM 5.5 41.9 0.164 7.5 161.92 11.61
3/23/2021 7:15:00 AM 5.47 41.846 0.164 7.51 235.04 11.98
3/23/2021 7:30:00 AM 5.44 41.792 0.164 7.5 162.79 11.79
3/23/2021 7:45:00 AM 5.41 41.738 0.163 7.5 152.77 10.83
3/23/2021 8:00:00 AM 5.39 41.702 0.165 7.5 158.08 11.31
3/23/2021 8:15:00 AM 5.38 41.684 0.165 7.5 190.61 11.63
3/23/2021 8:30:00 AM 5.37 41.666 0.165 7.5 154.36 11.92
3/23/2021 8:45:00 AM 5.38 41.684 0.165 7.5 157.97 11.44
3/23/2021 9:00:00 AM 5.39 41.702 0.164 7.51 158.29 11.38
3/23/2021 9:15:00 AM 5.42 41.756 0.166 7.51 154.07 11.89
3/23/2021 9:30:00 AM 5.45 41.81 0.166 7.51 166.88 12.09
3/23/2021 9:45:00 AM 5.48 41.864 0.166 7.52 151.65 11.84
3/23/2021 10:00:00 AM 5.53 41.954 0.167 7.52 161.44 12.18
3/23/2021 10:15:00 AM 5.58 42.044 0.167 7.53 156.54 11.95
3/23/2021 10:30:00 AM 5.64 42.152 0.168 7.53 158.42 11.85
3/23/2021 10:45:00 AM 5.71 42.278 0.168 7.54 147.06 11.91
3/23/2021 11:00:00 AM 5.79 42.422 0.167 7.54 158.72 12.03
3/23/2021 11:15:00 AM 5.87 42.566 0.167 7.55 159.28 11.81
3/23/2021 11:30:00 AM 5.96 42.728 0.167 7.55 160.03 12.29
3/23/2021 11:45:00 AM 6.05 42.89 0.167 7.55 157.83 11.76
3/23/2021 12:00:00 PM 6.14 43.052 0.167 7.55 151.8 12.15
3/23/2021 12:15:00 PM 6.22 43.196 0.168 7.56 160.01 12.14
3/23/2021 12:30:00 PM 6.3 43.34 0.168 7.56 155.19 12.22
3/23/2021 12:45:00 PM 6.38 43.484 0.168 7.56 158.71 12.29
3/23/2021 1:00:00 PM 6.46 43.628 0.169 7.57 167.98 12.36
3/23/2021 1:15:00 PM 6.53 43.754 0.169 7.57 176.58 12.33
3/23/2021 1:30:00 PM 6.59 43.862 0.168 7.58 161.27 11.52
3/23/2021 1:45:00 PM 6.66 43.988 0.168 7.58 148.46 12.24
3/23/2021 2:00:00 PM 6.72 44.096 0.17 7.59 164 12.06
3/23/2021 2:15:00 PM 6.76 44.168 0.17 7.59 158.12 12.1
3/23/2021 2:30:00 PM 6.8 44.24 0.171 7.6 154.3 12.25
3/23/2021 2:45:00 PM 6.84 44.312 0.172 7.6 152.09 11.84
3/23/2021 3:00:00 PM 6.86 44.348 0.173 7.6 156.39 11.99
3/23/2021 3:15:00 PM 6.9 44.42 0.174 7.61 158.33 11.84
3/23/2021 3:30:00 PM 6.91 44.438 0.174 7.61 149.21 12.45
3/23/2021 3:45:00 PM 6.93 44.474 0.174 7.61 148.69 12.24
3/23/2021 4:00:00 PM 6.94 44.492 0.174 7.62 154.65 11.37
3/23/2021 4:15:00 PM 6.95 44.51 0.173 7.62 156.68 11.58
3/23/2021 4:30:00 PM 6.95 44.51 0.173 7.62 156.56 10.67
3/23/2021 4:45:00 PM 6.94 44.492 0.174 7.62 160.25 11.73
3/23/2021 5:00:00 PM 6.93 44.474 0.174 7.62 174.57 11.79
3/23/2021 5:15:00 PM 6.91 44.438 0.174 7.63 162.06 11.62
3/23/2021 5:30:00 PM 6.89 44.402 0.174 7.63 161.62 11.86
3/23/2021 5:45:00 PM 6.87 44.366 0.174 7.63 153.72 11.36
3/23/2021 6:00:00 PM 6.84 44.312 0.173 7.63 161.56 11.58
3/23/2021 6:15:00 PM 6.82 44.276 0.174 7.63 166.37 12.04
3/23/2021 6:30:00 PM 6.79 44.222 0.173 7.63 166.17 12.21
3/23/2021 6:45:00 PM 6.75 44.15 0.174 7.63 160.92 11.22
3/23/2021 7:00:00 PM 6.72 44.096 0.174 7.62 169.83 12.13
3/23/2021 7:15:00 PM 6.68 44.024 0.174 7.62 162.37 12.08
3/23/2021 7:30:00 PM 6.64 43.952 0.173 7.61 168.96 11.76
3/23/2021 7:45:00 PM 6.6 43.88 0.174 7.61 174.58 11.45
3/23/2021 8:00:00 PM 6.57 43.826 0.173 7.6 162.2 11.17
3/23/2021 8:15:00 PM 6.53 43.754 0.174 7.6 172.68 11.79
3/23/2021 8:30:00 PM 6.5 43.7 0.172 7.6 172.52 11.62
3/23/2021 8:45:00 PM 6.48 43.664 0.172 7.59 159.92 12.1
3/23/2021 9:00:00 PM 6.45 43.61 0.173 7.58 174.74 12.02
3/23/2021 9:15:00 PM 6.43 43.574 0.173 7.58 169.57 11.86
3/23/2021 9:30:00 PM 6.41 43.538 0.173 7.58 172.68 11.94
3/23/2021 9:45:00 PM 6.39 43.502 0.173 7.57 169.18 12.16
3/23/2021 10:00:00 PM 6.37 43.466 0.173 7.57 173.3 12.17
3/23/2021 10:15:00 PM 6.36 43.448 0.174 7.57 170.33 11.96
3/23/2021 10:30:00 PM 6.35 43.43 0.176 7.56 171.39 11.67
3/23/2021 10:45:00 PM 6.35 43.43 0.176 7.56 169.01 10.88
3/23/2021 11:00:00 PM 6.34 43.412 0.176 7.56 172.1 11.67
3/23/2021 11:15:00 PM 6.34 43.412 0.176 7.56 175.97 11.07
3/23/2021 11:30:00 PM 6.34 43.412 0.176 7.56 170.72 11.19
3/23/2021 11:45:00 PM 6.34 43.412 0.175 7.55 176.5 11.64
3/24/2021 12:00:00 AM 6.34 43.412 0.175 7.55 175.74 11.5
3/24/2021 12:15:00 AM 6.34 43.412 0.175 7.55 178.07 11.27
3/24/2021 12:30:00 AM 6.35 43.43 0.175 7.55 174.27 11.55
3/24/2021 12:45:00 AM 6.35 43.43 0.176 7.54 174.42 11.74
3/24/2021 1:00:00 AM 6.36 43.448 0.175 7.55 177.07 11.41
3/24/2021 1:15:00 AM 6.37 43.466 0.176 7.54 177.77 11.16
3/24/2021 1:30:00 AM 6.38 43.484 0.176 7.54 179.23 10.98
3/24/2021 1:45:00 AM 6.39 43.502 0.176 7.54 176.7 10.85
3/24/2021 2:00:00 AM 6.4 43.52 0.175 7.54 177.99 9.93
3/24/2021 2:15:00 AM 6.41 43.538 0.177 7.54 178.18 9.77
3/24/2021 2:30:00 AM 6.42 43.556 0.176 7.54 197.07 10.17
3/24/2021 2:45:00 AM 6.44 43.592 0.176 7.53 178.96 10.63
3/24/2021 3:00:00 AM 6.45 43.61 0.176 7.53 185.62 11.37
3/24/2021 3:15:00 AM 6.46 43.628 0.177 7.53 187.32 11.09
3/24/2021 3:30:00 AM 6.47 43.646 0.177 7.53 178.77 11.21
3/24/2021 3:45:00 AM 6.47 43.646 0.177 7.53 184.13 11.4
3/24/2021 4:00:00 AM 6.48 43.664 0.177 7.53 181.92 10.86
3/24/2021 4:15:00 AM 6.49 43.682 0.178 7.52 195.28 10.76
3/24/2021 4:30:00 AM 6.5 43.7 0.176 7.52 178.39 11.11
3/24/2021 4:45:00 AM 6.5 43.7 0.177 7.52 184.16 10.94
3/24/2021 5:00:00 AM 6.51 43.718 0.178 7.52 184.32 10.41
3/24/2021 5:15:00 AM 6.52 43.736 0.178 7.52 188.2 10.5
3/24/2021 5:30:00 AM 6.52 43.736 0.177 7.52 197.88 10.4
3/24/2021 5:45:00 AM 6.52 43.736 0.176 7.52 185.46 10.34
3/24/2021 6:00:00 AM 6.53 43.754 0.176 7.52 180.45 10.51
3/24/2021 6:15:00 AM 6.53 43.754 0.176 7.52 191.44 9.69
3/24/2021 6:30:00 AM 6.53 43.754 0.176 7.51 182.35 10.34
3/24/2021 6:45:00 AM 6.53 43.754 0.176 7.51 186.01 10.65
3/24/2021 7:00:00 AM 6.53 43.754 0.177 7.51 187.59 10.49
3/24/2021 7:15:00 AM 6.53 43.754 0.176 7.51 187.49 10.7
3/24/2021 7:30:00 AM 6.54 43.772 0.177 7.51 185.47 9.83
3/24/2021 7:45:00 AM 6.54 43.772 0.178 7.51 188.97 10.59
3/24/2021 8:00:00 AM 6.54 43.772 0.177 7.51 185.34 10.47
3/24/2021 8:15:00 AM 6.55 43.79 0.177 7.51 178.7 10.59
3/24/2021 8:30:00 AM 6.55 43.79 0.176 7.51 188.16 10.23
3/24/2021 8:45:00 AM 6.56 43.808 0.176 7.51 191.3 10.28
3/24/2021 9:00:00 AM 6.57 43.826 0.176 7.51 188.56 10.62
3/24/2021 9:15:00 AM 6.58 43.844 0.177 7.51 190.11 10.81
3/24/2021 9:30:00 AM 6.59 43.862 0.177 7.51 195.47 10.33
3/24/2021 9:45:00 AM 6.6 43.88 0.178 7.51 183.86 10.55
3/24/2021 10:00:00 AM 6.61 43.898 0.178 7.52 191.67 10.65
3/24/2021 10:15:00 AM 6.63 43.934 0.178 7.52 198.66 10.51
3/24/2021 10:30:00 AM 6.64 43.952 0.177 7.52 190.98 10.47
3/24/2021 10:45:00 AM 6.65 43.97 0.178 7.53 193.99 10.21
3/24/2021 11:00:00 AM 6.67 44.006 0.179 7.52 186.01 9.47
3/24/2021 11:15:00 AM 6.68 44.024 0.178 7.53 226.48 10.57
3/24/2021 11:30:00 AM 6.69 44.042 0.178 7.54 184.98 10.87
3/24/2021 11:45:00 AM 6.71 44.078 0.179 7.54 202.76 10.27
3/24/2021 12:00:00 PM 6.72 44.096 0.179 7.54 211.33 10.58
3/24/2021 12:15:00 PM 6.73 44.114 0.179 7.54 205.97 10.52
3/24/2021 12:30:00 PM 6.74 44.132 0.179 7.54 285.84 9.89
3/24/2021 12:45:00 PM 6.75 44.15 0.179 7.55 130.73 10.99
3/24/2021 1:00:00 PM 6.78 44.204 0.181 7.55 132.38 10.94
3/24/2021 1:15:00 PM 6.79 44.222 0.18 7.56 146.69 10.57
3/24/2021 1:30:00 PM 6.81 44.258 0.18 7.56 127.64 11.38
3/24/2021 1:45:00 PM 6.84 44.312 0.18 7.57 131.61 10.16
3/24/2021 2:00:00 PM 6.86 44.348 0.179 7.57 135.71 10.8
3/24/2021 2:15:00 PM 6.87 44.366 0.179 7.57 126.77 10.59
3/24/2021 2:30:00 PM 6.9 44.42 0.18 7.58 143.23 11.02
3/24/2021 2:45:00 PM 6.92 44.456 0.181 7.58 126.67 11.14
3/24/2021 3:00:00 PM 6.95 44.51 0.182 7.59 133.52 10.97
3/24/2021 3:15:00 PM 6.97 44.546 0.182 7.59 140.24 10.88
3/24/2021 3:30:00 PM 6.97 44.546 0.182 7.59 146.81 11.3
3/24/2021 3:45:00 PM 6.97 44.546 0.182 7.6 167.37 11.12
3/24/2021 4:00:00 PM 6.99 44.582 0.183 7.6 127.7 11.41
3/24/2021 4:15:00 PM 7.01 44.618 0.184 7.6 131.8 9.96
3/24/2021 4:30:00 PM 7.02 44.636 0.184 7.61 135.42 10.32
3/24/2021 4:45:00 PM 7.02 44.636 0.183 7.61 135.72 10.58
3/24/2021 5:00:00 PM 7.01 44.618 0.185 7.61 139.2 10.36
3/24/2021 5:15:00 PM 7.01 44.618 0.185 7.61 138.66 11.51
3/24/2021 5:30:00 PM 7 44.6 0.185 7.61 132.46 11.48
3/24/2021 5:45:00 PM 6.99 44.582 0.186 7.61 140.78 10.8
3/24/2021 6:00:00 PM 6.98 44.564 0.186 7.61 130.3 9.93
3/24/2021 6:15:00 PM 6.97 44.546 0.185 7.61 134.66 11.35
3/24/2021 6:30:00 PM 6.95 44.51 0.185 7.61 137.37 10.32
3/24/2021 6:45:00 PM 6.94 44.492 0.186 7.61 140.27 11.5
3/24/2021 7:00:00 PM 6.93 44.474 0.185 7.6 121.57 10.45
3/24/2021 7:15:00 PM 6.92 44.456 0.185 7.6 138.84 10.25
3/24/2021 7:30:00 PM 6.92 44.456 0.185 7.6 138.8 11.08
3/24/2021 7:45:00 PM 6.91 44.438 0.187 7.59 145.38 11.21
3/24/2021 8:00:00 PM 6.9 44.42 0.186 7.59 137.1 10.97
3/24/2021 8:15:00 PM 6.89 44.402 0.185 7.59 144.49 11.14
3/24/2021 8:30:00 PM 6.88 44.384 0.186 7.58 138.17 11.24
3/24/2021 8:45:00 PM 6.87 44.366 0.186 7.58 139.04 11.13
3/24/2021 9:00:00 PM 6.86 44.348 0.187 7.58 139.87 9.93
3/24/2021 9:15:00 PM 6.85 44.33 0.187 7.57 154.98 11.03
3/24/2021 9:30:00 PM 6.84 44.312 0.187 7.57 136.58 11.22
3/24/2021 9:45:00 PM 6.83 44.294 0.188 7.57 138.44 11.51
3/24/2021 10:00:00 PM 6.82 44.276 0.189 7.57 141.78 11.73
3/24/2021 10:15:00 PM 6.81 44.258 0.19 7.57 138.31 11.27
3/24/2021 10:30:00 PM 6.8 44.24 0.189 7.56 142.5 11.23
3/24/2021 10:45:00 PM 6.79 44.222 0.188 7.56 138.05 11.38
3/24/2021 11:00:00 PM 6.79 44.222 0.188 7.56 136.57 10.63
3/24/2021 11:15:00 PM 6.79 44.222 0.186 7.56 138.76 11.47
3/24/2021 11:30:00 PM 6.79 44.222 0.187 7.55 135.67 11.21
3/24/2021 11:45:00 PM 6.79 44.222 0.188 7.54 135.45 11.48
3/25/2021 12:00:00 AM 6.8 44.24 0.189 7.55 134.29 11.79
3/25/2021 12:15:00 AM 6.81 44.258 0.19 7.55 140.3 11.63
3/25/2021 12:30:00 AM 6.83 44.294 0.19 7.55 129.42 11.34
3/25/2021 12:45:00 AM 6.85 44.33 0.191 7.56 133.6 11.43
3/25/2021 1:00:00 AM 6.87 44.366 0.191 7.55 132.9 11.64
3/25/2021 1:15:00 AM 6.89 44.402 0.192 7.55 132.82 11.68
3/25/2021 1:30:00 AM 6.91 44.438 0.191 7.55 138.96 11.76
3/25/2021 1:45:00 AM 6.93 44.474 0.191 7.55 133.97 11.89
3/25/2021 2:00:00 AM 6.95 44.51 0.19 7.55 133.87 11.87
3/25/2021 2:15:00 AM 6.97 44.546 0.19 7.55 144.68 11.78
3/25/2021 2:30:00 AM 6.99 44.582 0.19 7.55 131.54 11.83
3/25/2021 2:45:00 AM 7.01 44.618 0.19 7.55 136.53 11.88
3/25/2021 3:00:00 AM 7.02 44.636 0.19 7.55 124.45 11.99
3/25/2021 3:15:00 AM 7.04 44.672 0.191 7.55 130.24 12
3/25/2021 3:30:00 AM 7.04 44.672 0.19 7.54 133.52 11.77
3/25/2021 3:45:00 AM 7.05 44.69 0.192 7.54 138.92 11.87
3/25/2021 4:00:00 AM 7.05 44.69 0.191 7.54 142.22 11.79
3/25/2021 4:15:00 AM 7.06 44.708 0.19 7.54 128.8 11.76
3/25/2021 4:30:00 AM 7.06 44.708 0.19 7.53 137.13 11.86
3/25/2021 4:45:00 AM 7.06 44.708 0.19 7.54 129.21 11.71
3/25/2021 5:00:00 AM 7.06 44.708 0.19 7.54 151.48 11.71
3/25/2021 5:15:00 AM 7.06 44.708 0.19 7.53 138.36 11.6
3/25/2021 5:30:00 AM 7.05 44.69 0.19 7.53 120.98 11.82
3/25/2021 5:45:00 AM 7.04 44.672 0.19 7.53 134.46 11.73
3/25/2021 6:00:00 AM 7.03 44.654 0.19 7.53 134.19 11.81
3/25/2021 6:15:00 AM 7.02 44.636 0.189 7.53 138.53 11.87
3/25/2021 6:30:00 AM 7.01 44.618 0.188 7.52 125.85 11.71
3/25/2021 6:45:00 AM 7 44.6 0.188 7.52 148.56 11.8
3/25/2021 7:00:00 AM 6.99 44.582 0.188 7.52 135.84 11.55
3/25/2021 7:15:00 AM 6.98 44.564 0.187 7.51 130.74 11.75
3/25/2021 7:30:00 AM 6.96 44.528 0.187 7.51 127.57 11.81
3/25/2021 7:45:00 AM 6.96 44.528 0.185 7.51 140.14 11.74
3/25/2021 8:00:00 AM 6.95 44.51 0.186 7.51 137.86 11.81
3/25/2021 8:15:00 AM 6.95 44.51 0.184 7.51 230.09 11.81
3/25/2021 8:30:00 AM 6.96 44.528 0.182 7.51 145.68 11.88
3/25/2021 8:45:00 AM 6.97 44.546 0.182 7.51 162.35 11.83
3/25/2021 9:00:00 AM 6.99 44.582 0.184 7.51 204.94 11.87
3/25/2021 9:15:00 AM 7.02 44.636 0.183 7.52 150.62 11.91
3/25/2021 9:30:00 AM 7.06 44.708 0.182 7.52 196.69 11.89
3/25/2021 9:45:00 AM 7.11 44.798 0.182 7.53 165.61 11.92
3/25/2021 10:00:00 AM 7.18 44.924 0.182 7.53 180.08 11.95
3/25/2021 10:15:00 AM 7.24 45.032 0.181 7.54 165.5 11.93
3/25/2021 10:30:00 AM 7.32 45.176 0.181 7.54 138.26 11.99
3/25/2021 10:45:00 AM 7.4 45.32 0.181 7.55 138.78 11.95
3/25/2021 11:00:00 AM 7.48 45.464 0.181 7.55 143.62 11.95
3/25/2021 11:15:00 AM 7.56 45.608 0.181 7.56 140.39 12.02
3/25/2021 11:30:00 AM 7.63 45.734 0.179 7.57 141.13 11.95
3/25/2021 11:45:00 AM 7.71 45.878 0.178 7.58 139.74 12.09
3/25/2021 12:00:00 PM 7.81 46.058 0.179 7.58 144.51 11.95
3/25/2021 12:15:00 PM 7.91 46.238 0.178 7.59 140.9 12.09
3/25/2021 12:30:00 PM 8.02 46.436 0.179 7.6 138.45 12.12
3/25/2021 12:45:00 PM 8.13 46.634 0.18 7.6 140.34 11.96
3/25/2021 1:00:00 PM 8.25 46.85 0.179 7.61 136.21 12.12
3/25/2021 1:15:00 PM 8.34 47.012 0.181 7.62 139.34 12.1
3/25/2021 1:30:00 PM 8.44 47.192 0.18 7.62 142.74 12
3/25/2021 1:45:00 PM 8.53 47.354 0.181 7.63 137.33 12.05
3/25/2021 2:00:00 PM 8.62 47.516 0.181 7.64 153.64 12.12
3/25/2021 2:15:00 PM 8.7 47.66 0.182 7.64 120.95 12.17
3/25/2021 2:30:00 PM 8.78 47.804 0.183 7.65 145.93 12.13
3/25/2021 2:45:00 PM 8.86 47.948 0.185 7.66 143.61 12.13
3/25/2021 3:00:00 PM 8.93 48.074 0.185 7.66 160.5 12.1
3/25/2021 3:15:00 PM 8.98 48.164 0.184 7.66 138.28 12.17
3/25/2021 3:30:00 PM 9.04 48.272 0.183 7.66 149.06 12.03
3/25/2021 3:45:00 PM 9.09 48.362 0.183 7.67 130.61 12.09
3/25/2021 4:00:00 PM 9.13 48.434 0.185 7.68 150.35 12.17
3/25/2021 4:15:00 PM 9.16 48.488 0.185 7.68 131.75 12.09
3/25/2021 4:30:00 PM 9.2 48.56 0.185 7.69 135.97 12.23
3/25/2021 4:45:00 PM 9.22 48.596 0.185 7.69 129.93 12.15
3/25/2021 5:00:00 PM 9.25 48.65 0.185 7.69 166.13 12.15
3/25/2021 5:15:00 PM 9.26 48.668 0.185 7.69 152.81 12.15
3/25/2021 5:30:00 PM 9.27 48.686 0.183 7.69 137.17 12.13
3/25/2021 5:45:00 PM 9.26 48.668 0.185 7.69 161.01 12.14
3/25/2021 6:00:00 PM 9.26 48.668 0.186 7.69 144.51 12.13
3/25/2021 6:15:00 PM 9.26 48.668 0.185 7.69 168.38 12.15
3/25/2021 6:30:00 PM 9.25 48.65 0.186 7.69 139.53 12.09
3/25/2021 6:45:00 PM 9.25 48.65 0.185 7.69 164.13 12.01
3/25/2021 7:00:00 PM 9.25 48.65 0.185 7.68 161.54 12.03
3/25/2021 7:15:00 PM 9.24 48.632 0.184 7.68 152.41 12.01
3/25/2021 7:30:00 PM 9.24 48.632 0.185 7.67 143.44 11.89
3/25/2021 7:45:00 PM 9.25 48.65 0.183 7.66 153.22 11.87
3/25/2021 8:00:00 PM 9.25 48.65 0.185 7.66 124.59 11.78
3/25/2021 8:15:00 PM 9.26 48.668 0.186 7.66 148.9 11.79
3/25/2021 8:30:00 PM 9.27 48.686 0.184 7.65 158.24 11.86
3/25/2021 8:45:00 PM 9.27 48.686 0.184 7.65 156.53 11.84
3/25/2021 9:00:00 PM 9.29 48.722 0.185 7.64 154.97 11.65
3/25/2021 9:15:00 PM 9.3 48.74 0.184 7.63 156.32 11.76
3/25/2021 9:30:00 PM 9.32 48.776 0.183 7.64 167.23 11.77
3/25/2021 9:45:00 PM 9.33 48.794 0.184 7.63 157.33 11.8
3/25/2021 10:00:00 PM 9.34 48.812 0.183 7.63 153.93 11.68
3/25/2021 10:15:00 PM 9.36 48.848 0.183 7.62 167.3 11.7
3/25/2021 10:30:00 PM 9.37 48.866 0.183 7.62 157.61 11.58
3/25/2021 10:45:00 PM 9.37 48.866 0.182 7.61 137.18 11.68
3/25/2021 11:00:00 PM 9.37 48.866 0.181 7.61 159.65 11.57
3/25/2021 11:15:00 PM 9.37 48.866 0.18 7.6 145.3 11.66
3/25/2021 11:30:00 PM 9.36 48.848 0.181 7.59 168.59 11.53
3/25/2021 11:45:00 PM 9.36 48.848 0.181 7.59 145.04 11.36
3/26/2021 12:00:00 AM 9.35 48.83 0.181 7.59 162.63 11.3
3/26/2021 12:15:00 AM 9.35 48.83 0.178 7.58 160.27 11.49
3/26/2021 12:30:00 AM 9.34 48.812 0.176 7.58 152.58 11.57
3/26/2021 12:45:00 AM 9.33 48.794 0.176 7.57 163.02 11.18
3/26/2021 1:00:00 AM 9.32 48.776 0.176 7.57 157.65 11.3
3/26/2021 1:15:00 AM 9.32 48.776 0.176 7.56 169.18 11.27
3/26/2021 1:30:00 AM 9.31 48.758 0.174 7.56 156.33 11.28
3/26/2021 1:45:00 AM 9.31 48.758 0.173 7.55 180.13 11.39
3/26/2021 2:00:00 AM 9.31 48.758 0.172 7.55 161.04 11.42
3/26/2021 2:15:00 AM 9.3 48.74 0.17 7.55 150.29 11.4
3/26/2021 2:30:00 AM 9.3 48.74 0.172 7.54 161.46 11.12
3/26/2021 2:45:00 AM 9.3 48.74 0.172 7.54 130.24 11.33
3/26/2021 3:00:00 AM 9.29 48.722 0.173 7.53 132.11 11.29
3/26/2021 3:15:00 AM 9.3 48.74 0.173 7.53 168.71 11.21
3/26/2021 3:30:00 AM 9.3 48.74 0.173 7.52 168.05 10.99
3/26/2021 3:45:00 AM 9.3 48.74 0.174 7.52 148.88 11.14
3/26/2021 4:00:00 AM 9.3 48.74 0.174 7.52 158.74 10.91
3/26/2021 4:15:00 AM 9.3 48.74 0.175 7.51 173.31 11.27
3/26/2021 4:30:00 AM 9.31 48.758 0.175 7.51 125.75 10.97
3/26/2021 4:45:00 AM 9.31 48.758 0.174 7.5 153.01 11.14
3/26/2021 5:00:00 AM 9.31 48.758 0.174 7.5 172.07 10.79
3/26/2021 5:15:00 AM 9.31 48.758 0.175 7.49 157.21 10.84
3/26/2021 5:30:00 AM 9.31 48.758 0.176 7.49 154.97 10.92
3/26/2021 5:45:00 AM 9.31 48.758 0.175 7.49 157.57 10.59
3/26/2021 6:00:00 AM 9.3 48.74 0.176 7.48 110.34 10.62
3/26/2021 6:15:00 AM 9.3 48.74 0.174 7.48 157.03 10.83
3/26/2021 6:30:00 AM 9.29 48.722 0.175 7.48 136.37 10.83
3/26/2021 6:45:00 AM 9.28 48.704 0.176 7.47 156.49 10.66
3/26/2021 7:00:00 AM 9.27 48.686 0.178 7.47 168.03 10.77
3/26/2021 7:15:00 AM 9.27 48.686 0.18 7.47 125.17 10.35
3/26/2021 7:30:00 AM 9.27 48.686 0.18 7.47 162.94 10.53
3/26/2021 7:45:00 AM 9.28 48.704 0.184 7.47 165.56 10.22
3/26/2021 8:00:00 AM 9.28 48.704 0.182 7.47 156.53 10.5
3/26/2021 8:15:00 AM 9.3 48.74 0.182 7.46 133.94 11.09
3/26/2021 8:30:00 AM 9.33 48.794 0.181 7.47 87.67 11.14
3/26/2021 8:45:00 AM 9.35 48.83 0.18 7.47 87.44 11.07
3/26/2021 9:00:00 AM 9.37 48.866 0.18 7.48 89.2 11.1
3/26/2021 9:15:00 AM 9.41 48.938 0.181 7.48 76.27 11.04
3/26/2021 9:30:00 AM 9.47 49.046 0.182 7.49 71.64 10.8
3/26/2021 9:45:00 AM 9.52 49.136 0.183 7.5 77.13 11.03
3/26/2021 10:00:00 AM 9.57 49.226 0.185 7.51 77.97 11.2
3/26/2021 10:15:00 AM 9.62 49.316 0.183 7.51 75.72 10.07
3/26/2021 10:30:00 AM 9.69 49.442 0.183 7.52 73.61 10.92
3/26/2021 10:45:00 AM 9.73 49.514 0.183 7.53 77.18 11.26
3/26/2021 11:00:00 AM 9.77 49.586 0.184 7.53 73.64 10.85
3/26/2021 11:15:00 AM 9.77 49.586 0.183 7.54 82.37 11.08
3/26/2021 11:30:00 AM 9.79 49.622 0.183 7.55 82.22 11.16
3/26/2021 11:45:00 AM 9.8 49.64 0.183 7.55 81.49 10.95
3/26/2021 12:00:00 PM 9.82 49.676 0.182 7.56 73.36 10.33
3/26/2021 12:15:00 PM 9.83 49.694 0.182 7.56 82.03 10.92
3/26/2021 12:30:00 PM 9.82 49.676 0.18 7.57 71.08 10.75
3/26/2021 12:45:00 PM 9.82 49.676 0.181 7.57 79.89 10.99
3/26/2021 1:00:00 PM 9.83 49.694 0.182 7.57 80.14 11.21
3/26/2021 1:15:00 PM 9.88 49.784 0.182 7.58 77.83 10.84
3/26/2021 1:30:00 PM 9.93 49.874 0.182 7.59 85.58 10.91
3/26/2021 1:45:00 PM 9.99 49.982 0.182 7.6 77.76 11.38
3/26/2021 2:00:00 PM 10.03 50.054 0.183 7.6 78.17 11.35
3/26/2021 2:15:00 PM 10.05 50.09 0.183 7.61 74.15 11.07
3/26/2021 2:30:00 PM 10.07 50.126 0.181 7.61 53.94 11.17
3/26/2021 2:45:00 PM 10.09 50.162 0.182 7.62 79.53 11.43
3/26/2021 3:00:00 PM 10.14 50.252 0.184 7.63 79.69 11.47
3/26/2021 3:15:00 PM 10.18 50.324 0.185 7.63 80.37 11.13
3/26/2021 3:30:00 PM 10.2 50.36 0.186 7.64 84.28 11.36
3/26/2021 3:45:00 PM 10.19 50.342 0.187 7.64 90.72 11.5
3/26/2021 4:00:00 PM 10.16 50.288 0.187 7.64 85.24 11.49
3/26/2021 4:15:00 PM 10.13 50.234 0.188 7.64 84.27 11.3
3/26/2021 4:30:00 PM 10.11 50.198 0.188 7.64 76.49 11.19
3/26/2021 4:45:00 PM 10.08 50.144 0.188 7.65 64.29 11.21
3/26/2021 5:00:00 PM 10.04 50.072 0.188 7.65 88.44 11.36
3/26/2021 5:15:00 PM 10 50 0.189 7.65 73.07 11.2
3/26/2021 5:30:00 PM 9.95 49.91 0.19 7.64 78.64 11.42
3/26/2021 5:45:00 PM 9.91 49.838 0.19 7.64 83.36 11.29
3/26/2021 6:00:00 PM 9.87 49.766 0.192 7.63 77.12 11.41
3/26/2021 6:15:00 PM 9.83 49.694 0.191 7.63 79.37 11.42
3/26/2021 6:30:00 PM 9.8 49.64 0.19 7.63 93.5 11.46
3/26/2021 6:45:00 PM 9.76 49.568 0.191 7.62 75.87 11.39
3/26/2021 7:00:00 PM 9.73 49.514 0.192 7.62 82.03 11.21
3/26/2021 7:15:00 PM 9.7 49.46 0.194 7.62 79.04 11.42
3/26/2021 7:30:00 PM 9.67 49.406 0.193 7.61 82.31 11.31
3/26/2021 7:45:00 PM 9.63 49.334 0.194 7.61 81.83 11.19
3/26/2021 8:00:00 PM 9.6 49.28 0.195 7.61 80.26 11.25
3/26/2021 8:15:00 PM 9.58 49.244 0.195 7.6 80.38 11.29
3/26/2021 8:30:00 PM 9.55 49.19 0.195 7.6 91.26 11.28
3/26/2021 8:45:00 PM 9.53 49.154 0.194 7.6 81.38 11.23
3/26/2021 9:00:00 PM 9.51 49.118 0.194 7.59 73.83 11.22
3/26/2021 9:15:00 PM 9.49 49.082 0.195 7.59 56.81 11.17
3/26/2021 9:30:00 PM 9.48 49.064 0.195 7.59 59.35 11.29
3/26/2021 9:45:00 PM 9.47 49.046 0.196 7.59 61.34 10.94
3/26/2021 10:00:00 PM 9.45 49.01 0.197 7.59 54.55 11.17
3/26/2021 10:15:00 PM 9.44 48.992 0.197 7.59 59.23 11.19
3/26/2021 10:30:00 PM 9.42 48.956 0.197 7.58 70.76 10.88
3/26/2021 10:45:00 PM 9.4 48.92 0.198 7.58 63.66 10.99
3/26/2021 11:00:00 PM 9.37 48.866 0.198 7.58 53.92 10.94
3/26/2021 11:15:00 PM 9.35 48.83 0.197 7.58 60.13 11.08
3/26/2021 11:30:00 PM 9.32 48.776 0.198 7.57 73.99 11
3/26/2021 11:45:00 PM 9.29 48.722 0.199 7.57 65.04 11.12
3/27/2021 12:00:00 AM 9.27 48.686 0.2 7.57 56.84 10.84
3/27/2021 12:15:00 AM 9.24 48.632 0.198 7.57 65.19 10.58
3/27/2021 12:30:00 AM 9.21 48.578 0.198 7.57 71.13 10.6
3/27/2021 12:45:00 AM 9.18 48.524 0.197 7.56 53.07 11.08
3/27/2021 1:00:00 AM 9.14 48.452 0.199 7.56 70.52 11.13
3/27/2021 1:15:00 AM 9.11 48.398 0.196 7.56 62.59 10.93
3/27/2021 1:30:00 AM 9.08 48.344 0.196 7.56 62.57 11
3/27/2021 1:45:00 AM 9.05 48.29 0.197 7.56 47.75 10.31
3/27/2021 2:00:00 AM 9.02 48.236 0.196 7.56 54.41 10.81
3/27/2021 2:15:00 AM 8.99 48.182 0.195 7.55 65.11 11.18
3/27/2021 2:30:00 AM 8.97 48.146 0.196 7.55 63.51 10.93
3/27/2021 2:45:00 AM 8.94 48.092 0.196 7.55 73.47 10.64
3/27/2021 3:00:00 AM 8.93 48.074 0.196 7.55 44.31 10.72
3/27/2021 3:15:00 AM 8.91 48.038 0.197 7.55 52.37 11.11
3/27/2021 3:30:00 AM 8.9 48.02 0.197 7.54 60.17 10.58
3/27/2021 3:45:00 AM 8.89 48.002 0.197 7.54 62.64 10.87
3/27/2021 4:00:00 AM 8.89 48.002 0.198 7.54 55.42 10.67
3/27/2021 4:15:00 AM 8.89 48.002 0.197 7.54 59.08 10.56
3/27/2021 4:30:00 AM 8.89 48.002 0.197 7.54 63.72 10.66
3/27/2021 4:45:00 AM 8.88 47.984 0.198 7.53 64.75 10.98
3/27/2021 5:00:00 AM 8.88 47.984 0.198 7.53 64.37 11.07
3/27/2021 5:15:00 AM 8.88 47.984 0.198 7.53 47.63 11.04
3/27/2021 5:30:00 AM 8.87 47.966 0.199 7.52 62.14 11.14
3/27/2021 5:45:00 AM 8.86 47.948 0.199 7.52 66.89 11.11
3/27/2021 6:00:00 AM 8.85 47.93 0.2 7.52 64.74 10.98
3/27/2021 6:15:00 AM 8.84 47.912 0.201 7.51 63.39 11.08
3/27/2021 6:30:00 AM 8.83 47.894 0.2 7.51 65.05 11.01
3/27/2021 6:45:00 AM 8.82 47.876 0.2 7.51 63.37 10.9
3/27/2021 7:00:00 AM 8.81 47.858 0.2 7.51 46.43 10.43
3/27/2021 7:15:00 AM 8.79 47.822 0.201 7.51 65.1 10.05
3/27/2021 7:30:00 AM 8.78 47.804 0.202 7.51 68.01 10.77
3/27/2021 7:45:00 AM 8.77 47.786 0.2 7.51 66.33 10.41
3/27/2021 8:00:00 AM 8.75 47.75 0.2 7.51 66.63 10.7
3/27/2021 8:15:00 AM 8.74 47.732 0.2 7.51 66.01 10.7
3/27/2021 8:30:00 AM 8.73 47.714 0.2 7.51 63.82 9.93
3/27/2021 8:45:00 AM 8.72 47.696 0.2 7.51 64.94 11.12
3/27/2021 9:00:00 AM 8.72 47.696 0.199 7.51 68.12 10.93
3/27/2021 9:15:00 AM 8.71 47.678 0.198 7.52 69.88 10.65
3/27/2021 9:30:00 AM 8.71 47.678 0.198 7.53 84.99 10.96
3/27/2021 9:45:00 AM 8.72 47.696 0.198 7.53 67.31 11.13
3/27/2021 10:00:00 AM 8.74 47.732 0.198 7.54 68.27 11.08
3/27/2021 10:15:00 AM 8.76 47.768 0.199 7.55 62.51 11.18
3/27/2021 10:30:00 AM 8.79 47.822 0.2 7.56 71.75 11.23
3/27/2021 10:45:00 AM 8.84 47.912 0.199 7.57 59.82 11.01
3/27/2021 11:00:00 AM 8.91 48.038 0.198 7.57 65.74 11.2
3/27/2021 11:15:00 AM 8.98 48.164 0.198 7.58 68.58 11.35
3/27/2021 11:30:00 AM 9.02 48.236 0.2 7.59 64.62 11.11
3/27/2021 11:45:00 AM 9.07 48.326 0.2 7.6 66.35 11.53
3/27/2021 12:00:00 PM 9.1 48.38 0.201 7.61 64.21 11.42
3/27/2021 12:15:00 PM 9.13 48.434 0.2 7.62 66.91 11.17
3/27/2021 12:30:00 PM 9.17 48.506 0.201 7.62 63.5 11.51
3/27/2021 12:45:00 PM 9.23 48.614 0.202 7.63 49.39 11.5
3/27/2021 1:00:00 PM 9.31 48.758 0.203 7.64 64.96 11.42
3/27/2021 1:15:00 PM 9.36 48.848 0.203 7.65 63.1 11.18
3/27/2021 1:30:00 PM 9.42 48.956 0.204 7.66 63.71 11.73
3/27/2021 1:45:00 PM 9.44 48.992 0.205 7.67 65.94 11.33
3/27/2021 2:00:00 PM 9.49 49.082 0.205 7.67 67.55 11.74
3/27/2021 2:15:00 PM 9.55 49.19 0.205 7.68 64.6 11.56
3/27/2021 2:30:00 PM 9.6 49.28 0.205 7.68 68.56 11.11
3/27/2021 2:45:00 PM 9.64 49.352 0.206 7.69 68.69 11.16
3/27/2021 3:00:00 PM 9.67 49.406 0.206 7.69 59.63 11.73
3/27/2021 3:15:00 PM 9.71 49.478 0.207 7.7 67.59 11.64
3/27/2021 3:30:00 PM 9.76 49.568 0.206 7.71 56.3 11.49
3/27/2021 3:45:00 PM 9.8 49.64 0.207 7.72 68.15 11.51
3/27/2021 4:00:00 PM 9.83 49.694 0.206 7.72 67.47 11.78
3/27/2021 4:15:00 PM 9.85 49.73 0.207 7.73 76.23 11.75
3/27/2021 4:30:00 PM 9.86 49.748 0.205 7.73 69.44 10.87
3/27/2021 4:45:00 PM 9.87 49.766 0.206 7.73 67.12 11.58
3/27/2021 5:00:00 PM 9.88 49.784 0.205 7.74 70.12 11.71
3/27/2021 5:15:00 PM 9.89 49.802 0.202 7.74 70.36 11.61
3/27/2021 5:30:00 PM 9.9 49.82 0.203 7.74 69.79 11.07
3/27/2021 5:45:00 PM 9.9 49.82 0.203 7.75 69.64 11.31
3/27/2021 6:00:00 PM 9.89 49.802 0.204 7.74 72.48 11.48
3/27/2021 6:15:00 PM 9.87 49.766 0.203 7.74 70.54 11.09
3/27/2021 6:30:00 PM 9.85 49.73 0.204 7.73 73.87 11.03
3/27/2021 6:45:00 PM 9.83 49.694 0.204 7.73 71.81 10.87
3/27/2021 7:00:00 PM 9.82 49.676 0.203 7.72 75.37 8.95
3/27/2021 7:15:00 PM 9.81 49.658 0.203 7.72 77.59 9.31
3/27/2021 7:30:00 PM 9.8 49.64 0.203 7.71 70.63 10
3/27/2021 7:45:00 PM 9.77 49.586 0.203 7.7 70.09 9.99
3/27/2021 8:00:00 PM 9.75 49.55 0.203 7.69 69.74 10.25
3/27/2021 8:15:00 PM 9.73 49.514 0.204 7.69 71.05 9.07
3/27/2021 8:30:00 PM 9.7 49.46 0.205 7.68 70.19 9.92
3/27/2021 8:45:00 PM 9.67 49.406 0.202 7.67 68.88 10.55
3/27/2021 9:00:00 PM 9.65 49.37 0.202 7.66 61.22 9.51
3/27/2021 9:15:00 PM 9.63 49.334 0.185 7.66 73.05 10.65
3/27/2021 9:30:00 PM 9.62 49.316 0.18 7.65 71.31 10.54
3/27/2021 9:45:00 PM 9.6 49.28 0.178 7.64 71.43 10.49
3/27/2021 10:00:00 PM 9.59 49.262 0.195 7.63 69.6 9.31
3/27/2021 10:15:00 PM 9.58 49.244 0.197 7.63 71.07 10.48
3/27/2021 10:30:00 PM 9.58 49.244 0.199 7.62 69.38 10.58
3/27/2021 10:45:00 PM 9.57 49.226 0.2 7.62 67.89 9.87
3/27/2021 11:00:00 PM 9.57 49.226 0.201 7.61 68.85 10.46
3/27/2021 11:15:00 PM 9.57 49.226 0.201 7.61 71.34 10.6
3/27/2021 11:30:00 PM 9.58 49.244 0.202 7.61 75.44 10.4
3/27/2021 11:45:00 PM 9.58 49.244 0.201 7.61 70.32 10.48
3/28/2021 12:00:00 AM 9.59 49.262 0.201 7.6 76.31 10.45
3/28/2021 12:15:00 AM 9.6 49.28 0.202 7.6 67.64 10.43
3/28/2021 12:30:00 AM 9.61 49.298 0.203 7.6 70.11 10.49
3/28/2021 12:45:00 AM 9.62 49.316 0.202 7.6 72.35 9.89
3/28/2021 1:00:00 AM 9.62 49.316 0.202 7.6 73.18 10.34
3/28/2021 1:15:00 AM 9.63 49.334 0.202 7.6 77.54 10.03
3/28/2021 1:30:00 AM 9.63 49.334 0.203 7.59 74.21 9.98
3/28/2021 1:45:00 AM 9.63 49.334 0.202 7.59 74.45 9.78
3/28/2021 2:00:00 AM 9.62 49.316 0.202 7.59 74.87 10.28
3/28/2021 2:15:00 AM 9.61 49.298 0.201 7.57 78.46 8.99
3/28/2021 2:30:00 AM 9.6 49.28 0.2 7.58 76.03 10.27
3/28/2021 2:45:00 AM 9.59 49.262 0.2 7.58 77.2 10.51
3/28/2021 3:00:00 AM 9.57 49.226 0.2 7.58 80.68 10.38
3/28/2021 3:15:00 AM 9.55 49.19 0.199 7.58 76.13 10.52
3/28/2021 3:30:00 AM 9.53 49.154 0.2 7.58 55.46 10.28
3/28/2021 3:45:00 AM 9.51 49.118 0.201 7.57 78.5 10.65
3/28/2021 4:00:00 AM 9.49 49.082 0.202 7.57 70.25 10.08
3/28/2021 4:15:00 AM 9.46 49.028 0.202 7.57 71.41 10.43
3/28/2021 4:30:00 AM 9.44 48.992 0.202 7.56 80.12 10.19
3/28/2021 4:45:00 AM 9.41 48.938 0.203 7.56 68.39 9.62
3/28/2021 5:00:00 AM 9.39 48.902 0.204 7.56 78 10.33
3/28/2021 5:15:00 AM 9.36 48.848 0.204 7.56 82.49 10.15
3/28/2021 5:30:00 AM 9.34 48.812 0.205 7.56 78.94 8.73
3/28/2021 5:45:00 AM 9.32 48.776 0.205 7.56 79.63 10.01
3/28/2021 6:00:00 AM 9.31 48.758 0.203 7.55 77.51 10.41
3/28/2021 6:15:00 AM 9.29 48.722 0.203 7.55 80.97 10.36
3/28/2021 6:30:00 AM 9.28 48.704 0.203 7.54 80.77 8.77
3/28/2021 6:45:00 AM 9.27 48.686 0.202 7.55 84.85 8.94
3/28/2021 7:00:00 AM 9.26 48.668 0.202 7.55 75.07 9.37
3/28/2021 7:15:00 AM 9.25 48.65 0.203 7.54 80.22 10.4
3/28/2021 7:30:00 AM 9.25 48.65 0.202 7.54 75.24 10.29
3/28/2021 7:45:00 AM 9.24 48.632 0.202 7.54 86.19 8.54
3/28/2021 8:00:00 AM 9.24 48.632 0.203 7.54 77.41 9.63
3/28/2021 8:15:00 AM 9.24 48.632 0.203 7.54 79.53 8.58
3/28/2021 8:30:00 AM 9.24 48.632 0.203 7.54 79.51 9
3/28/2021 8:45:00 AM 9.25 48.65 0.203 7.54 83.26 9.66
3/28/2021 9:00:00 AM 9.25 48.65 0.203 7.54 77.42 10.26
3/28/2021 9:15:00 AM 9.25 48.65 0.203 7.54 66.32 9.19
3/28/2021 9:30:00 AM 9.24 48.632 0.204 7.54 82.71 10.28
3/28/2021 9:45:00 AM 9.24 48.632 0.204 7.55 81.9 9.09
3/28/2021 10:00:00 AM 9.24 48.632 0.204 7.54 84.73 10.25
3/28/2021 10:15:00 AM 9.24 48.632 0.204 7.55 84.34 9.59
3/28/2021 10:30:00 AM 9.24 48.632 0.203 7.55 82.06 9.4
3/28/2021 10:45:00 AM 9.25 48.65 0.204 7.55 82.83 10.03
3/28/2021 11:00:00 AM 9.25 48.65 0.203 7.55 93.18 9.75
3/28/2021 11:15:00 AM 9.25 48.65 0.203 7.56 96.93 10.34
3/28/2021 11:30:00 AM 9.25 48.65 0.202 7.56 79.11 9.9
3/28/2021 11:45:00 AM 9.25 48.65 0.201 7.56 85.91 9.76
3/28/2021 12:00:00 PM 9.25 48.65 0.2 7.57 83.52 10.16
3/28/2021 12:15:00 PM 9.25 48.65 0.199 7.57 78.48 9.92
3/28/2021 12:30:00 PM 9.27 48.686 0.2 7.58 189.89 9.69
3/28/2021 12:45:00 PM 9.28 48.704 0.199 7.58 92.73 9.51
3/28/2021 1:00:00 PM 9.29 48.722 0.199 7.59 91.53 9.38
3/28/2021 1:15:00 PM 9.3 48.74 0.2 7.6 100.83 9.29
3/28/2021 1:30:00 PM 9.31 48.758 0.2 7.61 198.39 9.47
3/28/2021 1:45:00 PM 9.32 48.776 0.199 7.61 114.06 10.19
3/28/2021 2:00:00 PM 9.33 48.794 0.2 7.62 114.81 10.26
3/28/2021 2:15:00 PM 9.33 48.794 0.199 7.63 90.9 9.18
3/28/2021 2:30:00 PM 9.35 48.83 0.197 7.64 71.87 8.78
3/28/2021 2:45:00 PM 9.38 48.884 0.199 7.65 72.22 10.19
3/28/2021 3:00:00 PM 9.4 48.92 0.197 7.65 74.39 10.3
3/28/2021 3:15:00 PM 9.41 48.938 0.197 7.66 71.62 10.07
3/28/2021 3:30:00 PM 9.42 48.956 0.196 7.67 78.69 9.61
3/28/2021 3:45:00 PM 9.41 48.938 0.195 7.67 69.34 9.82
3/28/2021 4:00:00 PM 9.4 48.92 0.197 7.68 57.46 9.59
3/28/2021 4:15:00 PM 9.38 48.884 0.198 7.67 70.92 10.98
3/28/2021 4:30:00 PM 9.37 48.866 0.197 7.67 72.12 11
3/28/2021 4:45:00 PM 9.35 48.83 0.196 7.67 73.95 11.07
3/28/2021 5:00:00 PM 9.32 48.776 0.196 7.67 72.94 10.91
3/28/2021 5:15:00 PM 9.3 48.74 0.194 7.66 79.37 10.21
3/28/2021 5:30:00 PM 9.28 48.704 0.194 7.66 76.73 10.55
3/28/2021 5:45:00 PM 9.25 48.65 0.193 7.67 73.88 10.32
3/28/2021 6:00:00 PM 9.22 48.596 0.194 7.67 75.31 10.89
3/28/2021 6:15:00 PM 9.18 48.524 0.194 7.67 75.99 10.32
3/28/2021 6:30:00 PM 9.15 48.47 0.195 7.67 77.55 10.55
3/28/2021 6:45:00 PM 9.12 48.416 0.196 7.67 72.47 11.22
3/28/2021 7:00:00 PM 9.1 48.38 0.197 7.66 79.03 10.26
3/28/2021 7:15:00 PM 9.07 48.326 0.198 7.66 83.52 10.74
3/28/2021 7:30:00 PM 9.04 48.272 0.198 7.66 65.15 10.51
3/28/2021 7:45:00 PM 9.01 48.218 0.198 7.66 78.58 9.81
3/28/2021 8:00:00 PM 8.97 48.146 0.198 7.66 78.09 10.46
3/28/2021 8:15:00 PM 8.93 48.074 0.197 7.65 76.79 10.63
3/28/2021 8:30:00 PM 8.88 47.984 0.198 7.64 89.49 10.76
3/28/2021 8:45:00 PM 8.84 47.912 0.198 7.64 79.5 10.35
3/28/2021 9:00:00 PM 8.8 47.84 0.198 7.63 74.59 10.47
3/28/2021 9:15:00 PM 8.77 47.786 0.198 7.63 75.01 10.36
3/28/2021 9:30:00 PM 8.73 47.714 0.2 7.63 79.63 10.32
3/28/2021 9:45:00 PM 8.69 47.642 0.199 7.62 82.22 10.08
3/28/2021 10:00:00 PM 8.66 47.588 0.199 7.61 79.26 10.43
3/28/2021 10:15:00 PM 8.63 47.534 0.199 7.62 79.38 10
3/28/2021 10:30:00 PM 8.61 47.498 0.199 7.61 81.35 10.13
3/28/2021 10:45:00 PM 8.58 47.444 0.198 7.61 76.63 10.01
3/28/2021 11:00:00 PM 8.55 47.39 0.198 7.61 83.14 10.05
3/28/2021 11:15:00 PM 8.54 47.372 0.2 7.61 79.55 10
3/28/2021 11:30:00 PM 8.52 47.336 0.199 7.61 77.74 10.3
3/28/2021 11:45:00 PM 8.5 47.3 0.2 7.61 92.08 10
3/29/2021 12:00:00 AM 8.47 47.246 0.199 7.61 81.27 10.33
3/29/2021 12:15:00 AM 8.44 47.192 0.199 7.6 85.15 9.57
3/29/2021 12:30:00 AM 8.4 47.12 0.199 7.6 83.86 9.9
3/29/2021 12:45:00 AM 8.38 47.084 0.199 7.6 85.33 9.78
3/29/2021 1:00:00 AM 8.35 47.03 0.2 7.6 95.49 9.42
3/29/2021 1:15:00 AM 8.33 46.994 0.2 7.6 88.36 8.01
3/29/2021 1:30:00 AM 8.29 46.922 0.2 7.6 84.2 9.42
3/29/2021 1:45:00 AM 8.26 46.868 0.201 7.6 80.02 9.36
3/29/2021 2:00:00 AM 8.24 46.832 0.202 7.6 84.54 9.98
3/29/2021 2:15:00 AM 8.21 46.778 0.202 7.6 84.49 9.81
3/29/2021 2:30:00 AM 8.19 46.742 0.203 7.6 84.4 9.92
3/29/2021 2:45:00 AM 8.16 46.688 0.202 7.6 86.92 9.71
3/29/2021 3:00:00 AM 8.14 46.652 0.202 7.6 81.43 9.61
3/29/2021 3:15:00 AM 8.11 46.598 0.202 7.59 87.08 10.1
3/29/2021 3:30:00 AM 8.09 46.562 0.202 7.6 85.54 9.76
3/29/2021 3:45:00 AM 8.07 46.526 0.202 7.59 87.15 10.12
3/29/2021 4:00:00 AM 8.05 46.49 0.203 7.59 92.39 10.17
3/29/2021 4:15:00 AM 8.02 46.436 0.203 7.6 82.72 9.92
3/29/2021 4:30:00 AM 7.98 46.364 0.203 7.6 86.09 9.96
3/29/2021 4:45:00 AM 7.96 46.328 0.203 7.59 75.84 9.64
3/29/2021 5:00:00 AM 7.91 46.238 0.203 7.59 88.45 9.67
3/29/2021 5:15:00 AM 7.87 46.166 0.203 7.59 85.78 9.78
3/29/2021 5:30:00 AM 7.84 46.112 0.203 7.59 87.74 10.09
3/29/2021 5:45:00 AM 7.8 46.04 0.203 7.59 79.67 10.06
3/29/2021 6:00:00 AM 7.75 45.95 0.202 7.59 60.4 10.05
3/29/2021 6:15:00 AM 7.71 45.878 0.202 7.59 86.01 9.76
3/29/2021 6:30:00 AM 7.67 45.806 0.202 7.59 424.43 9.44
3/29/2021 6:45:00 AM 7.62 45.716 0.202 7.6 1333.98 9.78
3/29/2021 7:00:00 AM 7.57 45.626 0.202 7.59 87.37 9.97
3/29/2021 7:15:00 AM 7.53 45.554 0.202 7.59 87.31 10.19
3/29/2021 7:30:00 AM 7.48 45.464 0.201 7.59 87.45 9.71
3/29/2021 7:45:00 AM 7.45 45.41 0.202 7.59 80.12 9.69
3/29/2021 8:00:00 AM 7.4 45.32 0.201 7.59 91.47 10.11
3/29/2021 8:15:00 AM 7.36 45.248 0.201 7.58 87.14 10.22
3/29/2021 8:30:00 AM 7.33 45.194 0.201 7.58 89.73 9.7
3/29/2021 8:45:00 AM 7.29 45.122 0.202 7.6 92.36 9.95
3/29/2021 9:00:00 AM 7.26 45.068 0.202 7.6 93.39 9.29
3/29/2021 9:15:00 AM 7.23 45.014 0.201 7.61 89.93 9.95
3/29/2021 9:30:00 AM 7.21 44.978 0.201 7.62 92.06 10.06
3/29/2021 9:45:00 AM 7.19 44.942 0.201 7.62 90.19 9.58
3/29/2021 10:00:00 AM 7.18 44.924 0.202 7.64 84.06 9.79
3/29/2021 10:15:00 AM 7.16 44.888 0.201 7.64 82.5 10.2
3/29/2021 10:30:00 AM 7.16 44.888 0.201 7.65 90.15 8.9
3/29/2021 10:45:00 AM 7.15 44.87 0.202 7.66 89.41 10.6
3/29/2021 11:00:00 AM 7.14 44.852 0.202 7.67 87.95 10.63
3/29/2021 11:15:00 AM 7.14 44.852 0.203 7.68 76.96 10.68
3/29/2021 11:30:00 AM 7.16 44.888 0.204 7.68 101.06 10.92
3/29/2021 11:45:00 AM 0 32 0 0 0 0
3/29/2021 12:00:00 PM 7.31 45.158 0.229 7.93 12.55 11.59
3/29/2021 12:15:00 PM 7.36 45.248 0.229 7.96 11.81 11.63
3/29/2021 12:30:00 PM 7.47 45.446 0.229 7.96 11.68 11.67
3/29/2021 12:45:00 PM 7.58 45.644 0.229 7.96 10.75 11.69
3/29/2021 1:00:00 PM 7.7 45.86 0.229 7.98 11.37 11.72
3/29/2021 1:15:00 PM 7.82 46.076 0.229 7.99 11.14 11.76
3/29/2021 1:30:00 PM 7.93 46.274 0.229 8 20.77 11.79
3/29/2021 1:45:00 PM 8.01 46.418 0.228 8.01 12.15 11.81
3/29/2021 2:00:00 PM 8.07 46.526 0.228 8.02 11.59 11.84
3/29/2021 2:15:00 PM 8.13 46.634 0.228 8.03 11.07 11.87
3/29/2021 2:30:00 PM 8.2 46.76 0.229 8.04 11.49 11.89
3/29/2021 2:45:00 PM 8.26 46.868 0.229 8.05 10.87 11.91
3/29/2021 3:00:00 PM 8.3 46.94 0.229 8.06 11.08 11.94
3/29/2021 3:15:00 PM 8.35 47.03 0.229 8.07 11.64 11.96
3/29/2021 3:30:00 PM 8.36 47.048 0.23 8.08 10.9 11.98
3/29/2021 3:45:00 PM 8.39 47.102 0.23 8.09 10.33 12
3/29/2021 4:00:00 PM 8.41 47.138 0.231 8.09 10.66 12.02
3/29/2021 4:15:00 PM 8.43 47.174 0.231 8.1 10.85 12.02
3/29/2021 4:30:00 PM 8.43 47.174 0.231 8.1 10.32 12.03
3/29/2021 4:45:00 PM 8.43 47.174 0.232 8.11 10.11 12.04
3/29/2021 5:00:00 PM 8.43 47.174 0.232 8.11 10.37 12.05
3/29/2021 5:15:00 PM 8.42 47.156 0.232 8.11 10.64 12.05
3/29/2021 5:30:00 PM 8.4 47.12 0.232 8.12 11.22 12.05
3/29/2021 5:45:00 PM 8.38 47.084 0.232 8.12 11.12 12.05
3/29/2021 6:00:00 PM 8.36 47.048 0.233 8.12 11.11 12.05
3/29/2021 6:15:00 PM 8.33 46.994 0.233 8.12 11.72 12.03
3/29/2021 6:30:00 PM 8.29 46.922 0.233 8.12 12.17 12.03
3/29/2021 6:45:00 PM 8.25 46.85 0.233 8.11 10.57 12.02
3/29/2021 7:00:00 PM 8.2 46.76 0.233 8.11 11.43 12.01
3/29/2021 7:15:00 PM 8.15 46.67 0.233 8.1 12.04 12
3/29/2021 7:30:00 PM 8.09 46.562 0.233 8.1 11.34 11.99
3/29/2021 7:45:00 PM 8.03 46.454 0.233 8.09 11.33 11.96
3/29/2021 8:00:00 PM 7.97 46.346 0.234 8.08 12.85 11.94
3/29/2021 8:15:00 PM 7.91 46.238 0.234 8.07 11.59 11.92
3/29/2021 8:30:00 PM 7.85 46.13 0.234 8.06 11.11 11.9
3/29/2021 8:45:00 PM 7.8 46.04 0.235 8.05 12.67 11.87
3/29/2021 9:00:00 PM 7.76 45.968 0.235 8.05 11.2 11.85
3/29/2021 9:15:00 PM 7.72 45.896 0.235 8.04 11.19 11.84
3/29/2021 9:30:00 PM 7.69 45.842 0.235 8.04 11.22 11.82
3/29/2021 9:45:00 PM 7.67 45.806 0.235 8.03 11.31 11.8
3/29/2021 10:00:00 PM 7.64 45.752 0.235 8.03 12.14 11.79
3/29/2021 10:15:00 PM 7.63 45.734 0.235 8.03 12.78 11.79
3/29/2021 10:30:00 PM 7.61 45.698 0.235 8.03 11.11 11.78
3/29/2021 10:45:00 PM 7.59 45.662 0.234 8.02 11.32 11.77
3/29/2021 11:00:00 PM 7.58 45.644 0.234 8.02 11.47 11.76
3/29/2021 11:15:00 PM 7.56 45.608 0.234 8.02 10.77 11.76
3/29/2021 11:30:00 PM 7.55 45.59 0.234 8.02 12.05 11.75
3/29/2021 11:45:00 PM 7.53 45.554 0.233 8.02 11.37 11.73
3/30/2021 12:00:00 AM 7.52 45.536 0.233 8.01 10.79 11.72
3/30/2021 12:15:00 AM 7.5 45.5 0.233 8.01 11.68 11.71
3/30/2021 12:30:00 AM 7.49 45.482 0.233 8.01 11.83 11.7
3/30/2021 12:45:00 AM 7.48 45.464 0.233 8.01 10.88 11.69
3/30/2021 1:00:00 AM 7.47 45.446 0.233 8.01 11.31 11.67
3/30/2021 1:15:00 AM 7.46 45.428 0.233 8 11.02 11.66
3/30/2021 1:30:00 AM 7.46 45.428 0.233 8 11.45 11.64
3/30/2021 1:45:00 AM 7.45 45.41 0.233 8 11.6 11.63
3/30/2021 2:00:00 AM 7.44 45.392 0.232 8 11.1 11.62
3/30/2021 2:15:00 AM 7.44 45.392 0.232 7.99 11.22 11.6
3/30/2021 2:30:00 AM 7.45 45.41 0.232 7.99 11.14 11.59
3/30/2021 2:45:00 AM 7.44 45.392 0.232 7.99 12.89 11.58
3/30/2021 3:00:00 AM 7.43 45.374 0.231 7.99 11.04 11.57
3/30/2021 3:15:00 AM 7.41 45.338 0.231 7.99 11.76 11.57
3/30/2021 3:30:00 AM 7.4 45.32 0.231 7.99 11.47 11.56
3/30/2021 3:45:00 AM 7.37 45.266 0.231 7.99 11.47 11.55
3/30/2021 4:00:00 AM 7.35 45.23 0.231 7.99 11.79 11.55
3/30/2021 4:15:00 AM 7.31 45.158 0.23 7.99 11.08 11.54
3/30/2021 4:30:00 AM 7.28 45.104 0.23 7.99 10.74 11.54
3/30/2021 4:45:00 AM 7.24 45.032 0.23 7.98 11.23 11.53
3/30/2021 5:00:00 AM 7.2 44.96 0.23 7.98 11.49 11.53
3/30/2021 5:15:00 AM 7.16 44.888 0.23 7.98 12.07 11.53
3/30/2021 5:30:00 AM 7.11 44.798 0.23 7.97 12.17 11.52
3/30/2021 5:45:00 AM 7.07 44.726 0.23 7.96 11.91 11.51
3/30/2021 6:00:00 AM 7.03 44.654 0.23 7.97 9.96 11.51
3/30/2021 6:15:00 AM 6.99 44.582 0.23 7.96 12.38 11.51
3/30/2021 6:30:00 AM 6.94 44.492 0.229 7.96 12.01 11.5
3/30/2021 6:45:00 AM 6.9 44.42 0.229 7.95 11.86 11.5
3/30/2021 7:00:00 AM 6.86 44.348 0.229 7.95 12.01 11.5
3/30/2021 7:15:00 AM 6.82 44.276 0.228 7.95 13.46 11.5
3/30/2021 7:30:00 AM 6.8 44.24 0.228 7.94 11.38 11.5
3/30/2021 7:45:00 AM 6.77 44.186 0.228 7.94 11.95 11.51
3/30/2021 8:00:00 AM 6.75 44.15 0.227 7.94 11.76 11.53
3/30/2021 8:15:00 AM 6.74 44.132 0.227 7.94 12.61 11.55
3/30/2021 8:30:00 AM 6.74 44.132 0.226 7.95 11.47 11.58
3/30/2021 8:45:00 AM 6.76 44.168 0.226 7.96 11.75 11.62
3/30/2021 9:00:00 AM 6.78 44.204 0.226 7.96 11.3 11.65
3/30/2021 9:15:00 AM 6.81 44.258 0.226 7.97 11.03 11.69
3/30/2021 9:30:00 AM 6.85 44.33 0.225 7.98 12.14 11.73
3/30/2021 9:45:00 AM 6.91 44.438 0.225 7.99 10.97 11.76
3/30/2021 10:00:00 AM 6.98 44.564 0.225 7.99 10.76 11.8
3/30/2021 10:15:00 AM 7.06 44.708 0.225 8 12.03 11.83
3/30/2021 10:30:00 AM 7.15 44.87 0.225 8.01 10.99 11.87
3/30/2021 10:45:00 AM 7.24 45.032 0.225 8.01 11.84 11.9
3/30/2021 11:00:00 AM 7.33 45.194 0.225 8.02 11.52 11.92
3/30/2021 11:15:00 AM 7.43 45.374 0.225 8.03 11.64 11.95
3/30/2021 11:30:00 AM 7.52 45.536 0.224 8.04 11.26 11.97
3/30/2021 11:45:00 AM 7.61 45.698 0.224 8.04 11.66 12
3/30/2021 12:00:00 PM 7.71 45.878 0.223 8.05 11.37 12.02
3/30/2021 12:15:00 PM 7.8 46.04 0.223 8.06 12 12.05
3/30/2021 12:30:00 PM 7.9 46.22 0.223 8.07 11.81 12.07
3/30/2021 12:45:00 PM 7.99 46.382 0.222 8.07 12.29 12.09
3/30/2021 1:00:00 PM 8.09 46.562 0.222 8.08 11.91 12.11
3/30/2021 1:15:00 PM 8.18 46.724 0.221 8.09 12.13 12.13
3/30/2021 1:30:00 PM 8.27 46.886 0.221 8.1 12.24 12.14
3/30/2021 1:45:00 PM 8.35 47.03 0.22 8.1 12.37 12.16
3/30/2021 2:00:00 PM 8.43 47.174 0.22 8.1 11.85 12.18
3/30/2021 2:15:00 PM 8.51 47.318 0.22 8.11 12.28 12.19
3/30/2021 2:30:00 PM 8.57 47.426 0.22 8.11 12.3 12.2
3/30/2021 2:45:00 PM 8.64 47.552 0.22 8.12 12.42 12.2
3/30/2021 3:00:00 PM 8.69 47.642 0.22 8.12 13.33 12.2
3/30/2021 3:15:00 PM 8.75 47.75 0.22 8.12 12.18 12.21
3/30/2021 3:30:00 PM 8.8 47.84 0.22 8.13 13.34 12.23
3/30/2021 3:45:00 PM 8.83 47.894 0.22 8.13 12.75 12.23
3/30/2021 4:00:00 PM 8.87 47.966 0.22 8.13 13.38 12.24
3/30/2021 4:15:00 PM 8.89 48.002 0.22 8.14 13.22 12.25
3/30/2021 4:30:00 PM 8.91 48.038 0.22 8.14 12.74 12.25
3/30/2021 4:45:00 PM 8.93 48.074 0.22 8.14 13.18 12.25
3/30/2021 5:00:00 PM 8.93 48.074 0.22 8.15 12.81 12.25
3/30/2021 5:15:00 PM 8.94 48.092 0.22 8.15 12.91 12.25
3/30/2021 5:30:00 PM 8.94 48.092 0.22 8.15 13.23 12.24
3/30/2021 5:45:00 PM 8.94 48.092 0.22 8.15 13.04 12.23
3/30/2021 6:00:00 PM 8.92 48.056 0.22 8.15 13.43 12.22
3/30/2021 6:15:00 PM 8.9 48.02 0.22 8.14 21.16 12.19
3/30/2021 6:30:00 PM 8.88 47.984 0.22 8.14 13.64 12.18
3/30/2021 6:45:00 PM 8.86 47.948 0.22 8.13 12.66 12.16
3/30/2021 7:00:00 PM 8.84 47.912 0.22 8.12 13.55 12.14
3/30/2021 7:15:00 PM 8.82 47.876 0.221 8.12 12.78 12.12
3/30/2021 7:30:00 PM 8.8 47.84 0.221 8.11 12.56 12.09
3/30/2021 7:45:00 PM 8.77 47.786 0.221 8.1 12.67 12.06
3/30/2021 8:00:00 PM 8.74 47.732 0.221 8.09 13.56 12.02
3/30/2021 8:15:00 PM 8.71 47.678 0.222 8.08 12.17 11.98
3/30/2021 8:30:00 PM 8.68 47.624 0.222 8.07 12.49 11.95
3/30/2021 8:45:00 PM 8.66 47.588 0.222 8.06 12.58 11.91
3/30/2021 9:00:00 PM 8.65 47.57 0.222 8.05 11.72 11.88
3/30/2021 9:15:00 PM 8.64 47.552 0.222 8.04 13.51 11.85
3/30/2021 9:30:00 PM 8.65 47.57 0.222 8.04 13.07 11.83
3/30/2021 9:45:00 PM 8.65 47.57 0.222 8.03 12.1 11.79
3/30/2021 10:00:00 PM 8.67 47.606 0.222 8.03 12.92 11.77
3/30/2021 10:15:00 PM 8.68 47.624 0.222 8.02 12.49 11.75
3/30/2021 10:30:00 PM 8.69 47.642 0.222 8.02 12.27 11.73
3/30/2021 10:45:00 PM 8.7 47.66 0.222 8.01 12.96 11.7
3/30/2021 11:00:00 PM 8.72 47.696 0.222 8.01 12.68 11.67
3/30/2021 11:15:00 PM 8.74 47.732 0.222 8.01 12.24 11.64
3/30/2021 11:30:00 PM 8.76 47.768 0.222 8 12.94 11.62
3/30/2021 11:45:00 PM 8.77 47.786 0.222 7.99 11.21 11.58
3/31/2021 12:00:00 AM 8.79 47.822 0.222 7.99 12.49 11.56
3/31/2021 12:15:00 AM 8.81 47.858 0.223 7.99 11.84 11.53
3/31/2021 12:30:00 AM 8.82 47.876 0.223 7.98 12.12 11.5
3/31/2021 12:45:00 AM 8.84 47.912 0.223 7.98 11.99 11.47
3/31/2021 1:00:00 AM 8.85 47.93 0.224 7.97 13.06 11.44
3/31/2021 1:15:00 AM 8.87 47.966 0.224 7.97 14.25 11.41
3/31/2021 1:30:00 AM 8.89 48.002 0.224 7.97 13.65 11.38
3/31/2021 1:45:00 AM 8.9 48.02 0.224 7.96 12.22 11.36
3/31/2021 2:00:00 AM 8.92 48.056 0.224 7.96 11.44 11.33
3/31/2021 2:15:00 AM 8.93 48.074 0.224 7.96 12.17 11.31
3/31/2021 2:30:00 AM 8.94 48.092 0.224 7.95 12.25 11.28
3/31/2021 2:45:00 AM 8.95 48.11 0.224 7.95 12.65 11.25
3/31/2021 3:00:00 AM 8.97 48.146 0.224 7.94 12.69 11.24
3/31/2021 3:15:00 AM 8.97 48.146 0.224 7.94 12.38 11.22
3/31/2021 3:30:00 AM 8.97 48.146 0.224 7.94 12.73 11.19
3/31/2021 3:45:00 AM 8.96 48.128 0.224 7.93 12.52 11.18
3/31/2021 4:00:00 AM 8.96 48.128 0.224 7.94 12.84 11.16
3/31/2021 4:15:00 AM 8.96 48.128 0.224 7.93 12.63 11.14
3/31/2021 4:30:00 AM 8.96 48.128 0.224 7.93 12.02 11.13
3/31/2021 4:45:00 AM 8.96 48.128 0.224 7.93 13.05 11.11
3/31/2021 5:00:00 AM 8.96 48.128 0.224 7.92 12.61 11.09
3/31/2021 5:15:00 AM 8.96 48.128 0.224 7.92 12.36 11.08
3/31/2021 5:30:00 AM 8.95 48.11 0.224 7.92 12.86 11.06
3/31/2021 5:45:00 AM 8.95 48.11 0.225 7.91 11.96 11.04
3/31/2021 6:00:00 AM 8.95 48.11 0.225 7.92 12.42 11.03
3/31/2021 6:15:00 AM 8.94 48.092 0.225 7.91 12.15 11.02
3/31/2021 6:30:00 AM 8.94 48.092 0.226 7.91 13.03 11
3/31/2021 6:45:00 AM 8.94 48.092 0.226 7.9 11.84 10.99
3/31/2021 7:00:00 AM 8.93 48.074 0.226 7.9 12.73 10.97
3/31/2021 7:15:00 AM 8.93 48.074 0.226 7.9 12.44 10.95
3/31/2021 7:30:00 AM 8.92 48.056 0.227 7.9 12.15 10.94
3/31/2021 7:45:00 AM 8.92 48.056 0.227 7.89 12.66 10.94
3/31/2021 8:00:00 AM 8.93 48.074 0.227 7.9 11.9 10.94
3/31/2021 8:15:00 AM 8.93 48.074 0.227 7.9 12.11 10.95
3/31/2021 8:30:00 AM 8.93 48.074 0.227 7.9 12.58 10.96
3/31/2021 8:45:00 AM 8.94 48.092 0.227 7.9 11.81 10.96
3/31/2021 9:00:00 AM 8.95 48.11 0.227 7.91 11.6 10.97
3/31/2021 9:15:00 AM 8.95 48.11 0.227 7.91 11.84 10.97
3/31/2021 9:30:00 AM 8.97 48.146 0.227 7.92 13.26 10.99
3/31/2021 9:45:00 AM 8.98 48.164 0.227 7.92 12.22 11
3/31/2021 10:00:00 AM 8.99 48.182 0.228 7.92 15.48 11.03
3/31/2021 10:15:00 AM 9.01 48.218 0.228 7.93 11.26 11.04
3/31/2021 10:30:00 AM 9.02 48.236 0.228 7.93 12.03 11.06
3/31/2021 10:45:00 AM 9.03 48.254 0.228 7.94 12.04 11.07
3/31/2021 11:00:00 AM 9.04 48.272 0.228 7.94 10.65 11.08
3/31/2021 11:15:00 AM 9.06 48.308 0.229 7.94 11.82 11.09
3/31/2021 11:30:00 AM 9.07 48.326 0.229 7.94 11.03 11.1
3/31/2021 11:45:00 AM 9.08 48.344 0.229 7.95 11.22 11.11
3/31/2021 12:00:00 PM 9.09 48.362 0.229 7.96 11.52 11.13
3/31/2021 12:15:00 PM 9.1 48.38 0.229 7.96 10.88 11.14
3/31/2021 12:30:00 PM 9.12 48.416 0.23 7.96 12.95 11.15
3/31/2021 12:45:00 PM 9.13 48.434 0.229 7.97 11.96 11.17
3/31/2021 1:00:00 PM 9.14 48.452 0.23 7.97 10.8 11.19
3/31/2021 1:15:00 PM 9.15 48.47 0.229 7.98 10.86 11.22
3/31/2021 1:30:00 PM 9.16 48.488 0.229 7.99 10.73 11.23
3/31/2021 1:45:00 PM 9.2 48.56 0.229 8 11.07 11.26
3/31/2021 2:00:00 PM 9.21 48.578 0.229 8 11.32 11.28
3/31/2021 2:15:00 PM 9.23 48.614 0.229 8.01 11.14 11.32
3/31/2021 2:30:00 PM 9.24 48.632 0.229 8.02 11.17 11.34
3/31/2021 2:45:00 PM 9.25 48.65 0.229 8.02 12.25 11.36
3/31/2021 3:00:00 PM 9.26 48.668 0.229 8.03 10.48 11.38
3/31/2021 3:15:00 PM 9.28 48.704 0.229 8.04 10.85 11.41
3/31/2021 3:30:00 PM 9.28 48.704 0.229 8.04 11.17 11.42
3/31/2021 3:45:00 PM 9.28 48.704 0.23 8.05 11.87 11.43
3/31/2021 4:00:00 PM 9.28 48.704 0.23 8.05 11.25 11.42
3/31/2021 4:15:00 PM 9.26 48.668 0.23 8.04 11 11.41
3/31/2021 4:30:00 PM 9.25 48.65 0.23 8.04 10.63 11.4
3/31/2021 4:45:00 PM 9.24 48.632 0.23 8.04 10.51 11.39
3/31/2021 5:00:00 PM 9.23 48.614 0.23 8.03 10.92 11.39
3/31/2021 5:15:00 PM 9.21 48.578 0.231 8.03 11.16 11.38
3/31/2021 5:30:00 PM 9.19 48.542 0.231 8.03 11.04 11.37
3/31/2021 5:45:00 PM 9.17 48.506 0.231 8.02 11.65 11.35
3/31/2021 6:00:00 PM 9.14 48.452 0.231 8.01 10.79 11.33
3/31/2021 6:15:00 PM 9.12 48.416 0.231 8 10.33 11.31
3/31/2021 6:30:00 PM 9.09 48.362 0.231 8 10.98 11.29
3/31/2021 6:45:00 PM 9.06 48.308 0.231 7.99 10.45 11.28
3/31/2021 7:00:00 PM 9.04 48.272 0.231 7.99 10.95 11.27
3/31/2021 7:15:00 PM 9.01 48.218 0.231 7.98 11.21 11.26
3/31/2021 7:30:00 PM 8.99 48.182 0.23 7.98 11.15 11.26
3/31/2021 7:45:00 PM 8.96 48.128 0.231 7.97 10.75 11.25
3/31/2021 8:00:00 PM 8.92 48.056 0.231 7.96 12.62 11.24
3/31/2021 8:15:00 PM 8.89 48.002 0.231 7.96 11.22 11.23
3/31/2021 8:30:00 PM 8.85 47.93 0.231 7.95 11.24 11.22
3/31/2021 8:45:00 PM 8.81 47.858 0.231 7.95 13.33 11.21
3/31/2021 9:00:00 PM 8.78 47.804 0.231 7.95 11.23 11.21
3/31/2021 9:15:00 PM 8.74 47.732 0.232 7.94 11.08 11.19
3/31/2021 9:30:00 PM 8.71 47.678 0.232 7.94 10.97 11.18
3/31/2021 9:45:00 PM 8.68 47.624 0.232 7.94 12.18 11.18
3/31/2021 10:00:00 PM 8.64 47.552 0.233 7.93 11.45 11.17
3/31/2021 10:15:00 PM 8.61 47.498 0.233 7.93 11.4 11.16
3/31/2021 10:30:00 PM 8.58 47.444 0.233 7.92 11.35 11.16
3/31/2021 10:45:00 PM 8.56 47.408 0.233 7.92 11.29 11.16
3/31/2021 11:00:00 PM 8.53 47.354 0.232 7.92 11.21 11.16
3/31/2021 11:15:00 PM 8.51 47.318 0.232 7.92 11.13 11.15
3/31/2021 11:30:00 PM 8.5 47.3 0.232 7.91 11.87 11.15
3/31/2021 11:45:00 PM 8.48 47.264 0.232 7.92 11.69 11.15
4/1/2021 12:00:00 AM 8.47 47.246 0.232 7.91 12.64 11.15
4/1/2021 12:15:00 AM 8.47 47.246 0.232 7.91 11.2 11.15
4/1/2021 12:30:00 AM 8.46 47.228 0.232 7.91 10.99 11.15
4/1/2021 12:45:00 AM 8.44 47.192 0.232 7.91 11.4 11.15
4/1/2021 1:00:00 AM 8.43 47.174 0.232 7.91 11.69 11.14
4/1/2021 1:15:00 AM 8.42 47.156 0.232 7.91 11.57 11.14
4/1/2021 1:30:00 AM 8.39 47.102 0.232 7.91 11.63 11.14
4/1/2021 1:45:00 AM 8.37 47.066 0.232 7.91 11.69 11.14
4/1/2021 2:00:00 AM 8.33 46.994 0.232 7.91 10.87 11.14
4/1/2021 2:15:00 AM 8.27 46.886 0.232 7.91 11.59 11.13
4/1/2021 2:30:00 AM 8.22 46.796 0.232 7.91 12.55 11.13
4/1/2021 2:45:00 AM 8.16 46.688 0.232 7.91 13.6 11.13
4/1/2021 3:00:00 AM 8.08 46.544 0.232 7.9 11.18 11.12
4/1/2021 3:15:00 AM 8 46.4 0.232 7.9 14.52 11.12
4/1/2021 3:30:00 AM 7.93 46.274 0.232 7.9 11.35 11.12
4/1/2021 3:45:00 AM 7.88 46.184 0.232 7.9 10.92 11.12
4/1/2021 4:00:00 AM 7.84 46.112 0.231 7.9 13.88 11.11
4/1/2021 4:15:00 AM 7.82 46.076 0.231 7.9 11.46 11.11
4/1/2021 4:30:00 AM 7.81 46.058 0.231 7.9 10.98 11.11
4/1/2021 4:45:00 AM 7.8 46.04 0.231 7.9 12.73 11.11
4/1/2021 5:00:00 AM 7.78 46.004 0.231 7.9 11.06 11.11
4/1/2021 5:15:00 AM 7.75 45.95 0.231 7.89 11.35 11.11
4/1/2021 5:30:00 AM 7.71 45.878 0.231 7.89 10.64 11.11
4/1/2021 5:45:00 AM 7.69 45.842 0.231 7.89 10.98 11.11
4/1/2021 6:00:00 AM 7.67 45.806 0.231 7.89 11.21 11.11
4/1/2021 6:15:00 AM 7.66 45.788 0.232 7.88 11.18 11.11
4/1/2021 6:30:00 AM 7.64 45.752 0.232 7.89 11.39 11.1
4/1/2021 6:45:00 AM 7.63 45.734 0.232 7.88 11.98 11.1
4/1/2021 7:00:00 AM 7.62 45.716 0.232 7.88 11.99 11.1
4/1/2021 7:15:00 AM 7.6 45.68 0.232 7.88 11.53 11.1
4/1/2021 7:30:00 AM 7.59 45.662 0.232 7.88 11.74 11.1
4/1/2021 7:45:00 AM 7.56 45.608 0.232 7.88 11.31 11.12
4/1/2021 8:00:00 AM 7.55 45.59 0.232 7.88 11.02 11.14
4/1/2021 8:15:00 AM 7.53 45.554 0.232 7.89 10.97 11.17
4/1/2021 8:30:00 AM 7.52 45.536 0.232 7.9 11.77 11.22
4/1/2021 8:45:00 AM 7.52 45.536 0.232 7.9 11.83 11.26
4/1/2021 9:00:00 AM 7.51 45.518 0.232 7.91 11.25 11.31
4/1/2021 9:15:00 AM 7.51 45.518 0.231 7.92 11.09 11.37
4/1/2021 9:30:00 AM 7.55 45.59 0.231 7.94 10.77 11.43
4/1/2021 9:45:00 AM 7.6 45.68 0.231 7.95 10.92 11.49
4/1/2021 10:00:00 AM 7.66 45.788 0.231 7.96 10.91 11.53
4/1/2021 10:15:00 AM 7.75 45.95 0.231 7.98 10.25 11.58
4/1/2021 10:30:00 AM 7.81 46.058 0.231 7.99 11.19 11.62
4/1/2021 10:45:00 AM 7.89 46.202 0.231 8 10.87 11.67
4/1/2021 11:00:00 AM 7.96 46.328 0.231 8.01 11.2 11.7
4/1/2021 11:15:00 AM 8 46.4 0.231 8.02 10.57 11.73
4/1/2021 11:30:00 AM 8.05 46.49 0.231 8.03 11.13 11.76
4/1/2021 11:45:00 AM 8.1 46.58 0.232 8.04 10.8 11.79
4/1/2021 12:00:00 PM 8.1 46.58 0.232 8.05 10.7 11.81
4/1/2021 12:15:00 PM 8.15 46.67 0.232 8.06 10.88 11.84
4/1/2021 12:30:00 PM 8.2 46.76 0.232 8.07 10.75 11.87
4/1/2021 12:45:00 PM 8.21 46.778 0.232 8.08 10.55 11.9
4/1/2021 1:00:00 PM 8.3 46.94 0.232 8.09 11.67 11.92
4/1/2021 1:15:00 PM 8.36 47.048 0.232 8.1 11.68 11.95
4/1/2021 1:30:00 PM 8.42 47.156 0.233 8.1 10.68 11.98
4/1/2021 1:45:00 PM 8.41 47.138 0.233 8.12 10.79 12
4/1/2021 2:00:00 PM 8.47 47.246 0.233 8.13 10.37 12.03
4/1/2021 2:15:00 PM 8.48 47.264 0.233 8.14 11.03 12.05
4/1/2021 2:30:00 PM 8.46 47.228 0.233 8.15 10.98 12.07
4/1/2021 2:45:00 PM 8.43 47.174 0.233 8.15 10.48 12.09
4/1/2021 3:00:00 PM 8.4 47.12 0.233 8.16 10.39 12.11
4/1/2021 3:15:00 PM 8.33 46.994 0.233 8.17 10.25 12.12
4/1/2021 3:30:00 PM 8.28 46.904 0.233 8.17 11.22 12.13
4/1/2021 3:45:00 PM 8.2 46.76 0.233 8.17 11.07 12.14
4/1/2021 4:00:00 PM 8.15 46.67 0.233 8.18 10.61 12.15
4/1/2021 4:15:00 PM 8.1 46.58 0.234 8.18 10.55 12.17
4/1/2021 4:30:00 PM 8.07 46.526 0.234 8.19 10.68 12.2
4/1/2021 4:45:00 PM 8.04 46.472 0.234 8.19 11.14 12.22
4/1/2021 5:00:00 PM 8.01 46.418 0.234 8.2 10.36 12.25
4/1/2021 5:15:00 PM 7.97 46.346 0.234 8.21 10.53 12.26
4/1/2021 5:30:00 PM 7.97 46.346 0.234 8.22 10.65 12.28
4/1/2021 5:45:00 PM 7.97 46.346 0.234 8.22 10.96 12.29
4/1/2021 6:00:00 PM 7.95 46.31 0.234 8.22 10.49 12.28
4/1/2021 6:15:00 PM 7.92 46.256 0.234 8.22 11.33 12.28
4/1/2021 6:30:00 PM 7.87 46.166 0.234 8.22 10.89 12.26
4/1/2021 6:45:00 PM 7.76 45.968 0.233 8.21 10.23 12.23
4/1/2021 7:00:00 PM 7.7 45.86 0.233 8.21 10.8 12.21
4/1/2021 7:15:00 PM 7.61 45.698 0.234 8.19 10.1 12.17
4/1/2021 7:30:00 PM 7.56 45.608 0.234 8.18 10.11 12.15
4/1/2021 7:45:00 PM 7.51 45.518 0.234 8.17 10.49 12.13
4/1/2021 8:00:00 PM 7.46 45.428 0.234 8.15 10.48 12.1
4/1/2021 8:15:00 PM 7.41 45.338 0.234 8.14 10.56 12.08
4/1/2021 8:30:00 PM 7.36 45.248 0.234 8.13 10.39 12.05
4/1/2021 8:45:00 PM 7.33 45.194 0.235 8.12 10.56 12.03
4/1/2021 9:00:00 PM 7.29 45.122 0.235 8.11 10.71 12.01
4/1/2021 9:15:00 PM 7.26 45.068 0.235 8.11 10.71 12
4/1/2021 9:30:00 PM 7.23 45.014 0.236 8.1 10.11 11.98
4/1/2021 9:45:00 PM 7.21 44.978 0.236 8.09 10.55 11.98
4/1/2021 10:00:00 PM 7.17 44.906 0.236 8.09 11.59 11.96
4/1/2021 10:15:00 PM 7.14 44.852 0.236 8.08 10.74 11.95
4/1/2021 10:30:00 PM 7.11 44.798 0.236 8.08 10.26 11.94
4/1/2021 10:45:00 PM 7.07 44.726 0.236 8.07 10.71 11.93
4/1/2021 11:00:00 PM 7.03 44.654 0.236 8.07 10.36 11.92
4/1/2021 11:15:00 PM 6.98 44.564 0.236 8.06 10.52 11.91
4/1/2021 11:30:00 PM 6.94 44.492 0.236 8.06 10.45 11.9
4/1/2021 11:45:00 PM 6.9 44.42 0.236 8.06 10.3 11.89
4/2/2021 12:00:00 AM 6.84 44.312 0.236 8.06 10.88 11.89
4/2/2021 12:15:00 AM 6.8 44.24 0.236 8.05 10.42 11.88
4/2/2021 12:30:00 AM 6.75 44.15 0.235 8.05 10.08 11.87
4/2/2021 12:45:00 AM 6.71 44.078 0.236 8.05 10.95 11.86
4/2/2021 1:00:00 AM 6.65 43.97 0.236 8.04 11.4 11.86
4/2/2021 1:15:00 AM 6.6 43.88 0.236 8.04 10.88 11.85
4/2/2021 1:30:00 AM 6.55 43.79 0.236 8.03 9.92 11.84
4/2/2021 1:45:00 AM 6.51 43.718 0.237 8.03 10.05 11.84
4/2/2021 2:00:00 AM 6.47 43.646 0.237 8.03 10.43 11.83
4/2/2021 2:15:00 AM 6.43 43.574 0.237 8.02 10.1 11.82
4/2/2021 2:30:00 AM 6.39 43.502 0.237 8.02 10.51 11.82
4/2/2021 2:45:00 AM 6.35 43.43 0.237 8.02 10.22 11.81
4/2/2021 3:00:00 AM 6.31 43.358 0.236 8.01 9.85 11.81
4/2/2021 3:15:00 AM 6.27 43.286 0.236 8.01 11.65 11.81
4/2/2021 3:30:00 AM 6.22 43.196 0.236 8.01 9.85 11.81
4/2/2021 3:45:00 AM 6.17 43.106 0.236 8 10.36 11.8
4/2/2021 4:00:00 AM 6.12 43.016 0.236 8 7.97 11.81
4/2/2021 4:15:00 AM 6.08 42.944 0.236 8 10.95 11.81
4/2/2021 4:30:00 AM 6.02 42.836 0.236 8 11.31 11.81
4/2/2021 4:45:00 AM 5.98 42.764 0.236 8 10.32 11.81
4/2/2021 5:00:00 AM 5.93 42.674 0.236 7.99 10.39 11.81
4/2/2021 5:15:00 AM 5.89 42.602 0.235 7.99 10.01 11.82
4/2/2021 5:30:00 AM 5.84 42.512 0.235 7.99 13.04 11.82
4/2/2021 5:45:00 AM 5.79 42.422 0.235 7.99 9.76 11.82
4/2/2021 6:00:00 AM 5.74 42.332 0.235 7.98 10.41 11.82
4/2/2021 6:15:00 AM 5.69 42.242 0.236 7.98 10.68 11.83
4/2/2021 6:30:00 AM 5.64 42.152 0.236 7.98 10.13 11.82
4/2/2021 6:45:00 AM 5.6 42.08 0.236 7.97 10.26 11.83
4/2/2021 7:00:00 AM 5.56 42.008 0.236 7.97 10.75 11.83
4/2/2021 7:15:00 AM 5.52 41.936 0.236 7.97 10.56 11.83
4/2/2021 7:30:00 AM 5.47 41.846 0.236 7.97 10.41 11.84
4/2/2021 7:45:00 AM 5.43 41.774 0.236 7.97 10.3 11.87
4/2/2021 8:00:00 AM 5.39 41.702 0.236 7.97 10.01 11.89
4/2/2021 8:15:00 AM 5.37 41.666 0.236 7.98 9.9 11.93
4/2/2021 8:30:00 AM 5.35 41.63 0.236 7.98 10.94 11.97
4/2/2021 8:45:00 AM 5.34 41.612 0.236 7.99 10.21 12.02
4/2/2021 9:00:00 AM 5.35 41.63 0.236 8 9.84 12.07
4/2/2021 9:15:00 AM 5.36 41.648 0.236 8.01 9.62 12.12
4/2/2021 9:30:00 AM 5.39 41.702 0.236 8.02 10.02 12.17
4/2/2021 9:45:00 AM 5.42 41.756 0.236 8.03 9.79 12.21
4/2/2021 10:00:00 AM 5.47 41.846 0.236 8.04 10.23 12.26
4/2/2021 10:15:00 AM 5.52 41.936 0.236 8.05 10.25 12.3
4/2/2021 10:30:00 AM 5.59 42.062 0.236 8.06 10.13 12.33
4/2/2021 10:45:00 AM 5.65 42.17 0.236 8.07 9.68 12.37
4/2/2021 11:00:00 AM 5.74 42.332 0.236 8.07 10.25 12.4
4/2/2021 11:15:00 AM 5.81 42.458 0.236 8.08 9.79 12.43
4/2/2021 11:30:00 AM 5.85 42.53 0.236 8.09 10.3 12.45
4/2/2021 11:45:00 AM 5.93 42.674 0.237 8.1 9.92 12.48
4/2/2021 12:00:00 PM 6.01 42.818 0.237 8.1 9.87 12.51
4/2/2021 12:15:00 PM 6.11 42.998 0.237 8.11 9.71 12.53
4/2/2021 12:30:00 PM 6.2 43.16 0.237 8.11 9.31 12.56
4/2/2021 12:45:00 PM 6.27 43.286 0.236 8.12 11.08 12.59
4/2/2021 1:00:00 PM 6.34 43.412 0.236 8.13 10.05 12.61
4/2/2021 1:15:00 PM 6.41 43.538 0.236 8.13 9.69 12.63
4/2/2021 1:30:00 PM 6.47 43.646 0.236 8.14 10.03 12.65
4/2/2021 1:45:00 PM 6.53 43.754 0.236 8.15 10.23 12.67
4/2/2021 2:00:00 PM 6.59 43.862 0.236 8.15 9.61 12.69
4/2/2021 2:15:00 PM 6.64 43.952 0.236 8.16 9.66 12.71
4/2/2021 2:30:00 PM 6.7 44.06 0.235 8.16 9.58 12.72
4/2/2021 2:45:00 PM 6.74 44.132 0.235 8.17 10.02 12.73
4/2/2021 3:00:00 PM 6.79 44.222 0.235 8.18 10.73 12.74
4/2/2021 3:15:00 PM 6.83 44.294 0.235 8.18 10.25 12.76
4/2/2021 3:30:00 PM 6.87 44.366 0.235 8.19 9.91 12.77
4/2/2021 3:45:00 PM 6.88 44.384 0.235 8.19 11.57 12.78
4/2/2021 4:00:00 PM 6.9 44.42 0.235 8.19 8.99 12.79
4/2/2021 4:15:00 PM 6.89 44.402 0.236 8.2 9.48 12.79
4/2/2021 4:30:00 PM 6.9 44.42 0.236 8.2 8.72 12.81
4/2/2021 4:45:00 PM 6.91 44.438 0.236 8.21 9.04 12.82
4/2/2021 5:00:00 PM 6.89 44.402 0.236 8.21 9.17 12.81
4/2/2021 5:15:00 PM 6.88 44.384 0.236 8.21 9.91 12.82
4/2/2021 5:30:00 PM 6.85 44.33 0.236 8.21 9.51 12.83
4/2/2021 5:45:00 PM 6.81 44.258 0.236 8.21 9.71 12.82
4/2/2021 6:00:00 PM 6.76 44.168 0.236 8.21 9.26 12.81
4/2/2021 6:15:00 PM 6.72 44.096 0.237 8.21 9.33 12.8
4/2/2021 6:30:00 PM 6.66 43.988 0.237 8.2 9.05 12.79
4/2/2021 6:45:00 PM 6.61 43.898 0.237 8.19 9.95 12.78
4/2/2021 7:00:00 PM 6.56 43.808 0.237 8.19 9.42 12.76
4/2/2021 7:15:00 PM 6.51 43.718 0.237 8.18 9.18 12.75
4/2/2021 7:30:00 PM 6.45 43.61 0.237 8.18 9.34 12.73
4/2/2021 7:45:00 PM 6.39 43.502 0.237 8.16 9.74 12.71
4/2/2021 8:00:00 PM 6.34 43.412 0.237 8.16 9.56 12.69
4/2/2021 8:15:00 PM 6.28 43.304 0.237 8.14 9.95 12.66
4/2/2021 8:30:00 PM 6.22 43.196 0.238 8.13 9.76 12.63
4/2/2021 8:45:00 PM 6.16 43.088 0.238 8.12 9.82 12.6
4/2/2021 9:00:00 PM 6.1 42.98 0.238 8.11 9.91 12.58
4/2/2021 9:15:00 PM 6.05 42.89 0.239 8.1 10.24 12.55
4/2/2021 9:30:00 PM 6 42.8 0.239 8.1 9.79 12.53
4/2/2021 9:45:00 PM 5.96 42.728 0.239 8.09 10.31 12.51
4/2/2021 10:00:00 PM 5.93 42.674 0.239 8.08 10.17 12.5
4/2/2021 10:15:00 PM 5.91 42.638 0.239 8.08 9.81 12.48
4/2/2021 10:30:00 PM 5.89 42.602 0.239 8.07 9.74 12.47
4/2/2021 10:45:00 PM 5.87 42.566 0.239 8.07 9.61 12.46
4/2/2021 11:00:00 PM 5.86 42.548 0.239 8.06 9.68 12.45
4/2/2021 11:15:00 PM 5.86 42.548 0.239 8.06 13 12.43
4/2/2021 11:30:00 PM 5.85 42.53 0.239 8.06 9.13 12.42
4/2/2021 11:45:00 PM 5.83 42.494 0.239 8.06 9.54 12.41
4/3/2021 12:00:00 AM 5.82 42.476 0.238 8.05 9.64 12.4
4/3/2021 12:15:00 AM 5.8 42.44 0.238 8.05 9.84 12.38
4/3/2021 12:30:00 AM 5.79 42.422 0.238 8.05 9.09 12.37
4/3/2021 12:45:00 AM 5.77 42.386 0.238 8.04 9.68 12.35
4/3/2021 1:00:00 AM 5.75 42.35 0.238 8.04 9.45 12.33
4/3/2021 1:15:00 AM 5.74 42.332 0.238 8.03 9.58 12.31
4/3/2021 1:30:00 AM 5.72 42.296 0.238 8.03 9.74 12.3
4/3/2021 1:45:00 AM 5.71 42.278 0.239 8.02 9.57 12.28
4/3/2021 2:00:00 AM 5.69 42.242 0.239 8.02 9.58 12.26
4/3/2021 2:15:00 AM 5.68 42.224 0.239 8.02 9.39 12.24
4/3/2021 2:30:00 AM 5.66 42.188 0.239 8.01 9.81 12.23
4/3/2021 2:45:00 AM 5.65 42.17 0.239 8.01 9.84 12.21
4/3/2021 3:00:00 AM 5.63 42.134 0.239 8.01 9.8 12.2
4/3/2021 3:15:00 AM 5.61 42.098 0.24 8 9.42 12.18
4/3/2021 3:30:00 AM 5.59 42.062 0.24 8 9.54 12.17
4/3/2021 3:45:00 AM 5.57 42.026 0.24 8 9.31 12.16
4/3/2021 4:00:00 AM 5.55 41.99 0.24 7.99 9.25 12.15
4/3/2021 4:15:00 AM 5.53 41.954 0.24 7.99 10.18 12.14
4/3/2021 4:30:00 AM 5.51 41.918 0.24 7.99 10.57 12.13
4/3/2021 4:45:00 AM 5.49 41.882 0.24 7.99 10.13 12.12
4/3/2021 5:00:00 AM 5.46 41.828 0.24 7.99 9.48 12.11
4/3/2021 5:15:00 AM 5.43 41.774 0.24 7.98 9.25 12.1
4/3/2021 5:30:00 AM 5.4 41.72 0.241 7.98 9.72 12.09
4/3/2021 5:45:00 AM 5.38 41.684 0.241 7.98 10.19 12.1
4/3/2021 6:00:00 AM 5.34 41.612 0.241 7.98 9.91 12.09
4/3/2021 6:15:00 AM 5.31 41.558 0.241 7.97 9.43 12.08
4/3/2021 6:30:00 AM 5.28 41.504 0.241 7.97 9.65 12.08
4/3/2021 6:45:00 AM 5.25 41.45 0.242 7.97 10.3 12.08
4/3/2021 7:00:00 AM 5.21 41.378 0.242 7.97 10.73 12.08
4/3/2021 7:15:00 AM 5.18 41.324 0.243 7.97 9.83 12.08
4/3/2021 7:30:00 AM 5.15 41.27 0.243 7.97 9.54 12.09
4/3/2021 7:45:00 AM 5.13 41.234 0.243 7.97 9.28 12.11
4/3/2021 8:00:00 AM 5.12 41.216 0.243 7.98 9.94 12.14
4/3/2021 8:15:00 AM 5.12 41.216 0.243 7.98 9.66 12.18
4/3/2021 8:30:00 AM 5.13 41.234 0.243 7.99 9.51 12.23
4/3/2021 8:45:00 AM 5.15 41.27 0.243 8 9.69 12.27
4/3/2021 9:00:00 AM 5.17 41.306 0.243 8.01 9.58 12.32
4/3/2021 9:15:00 AM 5.2 41.36 0.242 8.02 9.9 12.36
4/3/2021 9:30:00 AM 5.25 41.45 0.242 8.03 10.23 12.39
4/3/2021 9:45:00 AM 5.31 41.558 0.242 8.03 10.02 12.43
4/3/2021 10:00:00 AM 5.39 41.702 0.242 8.04 9.85 12.46
4/3/2021 10:15:00 AM 5.48 41.864 0.242 8.05 9.4 12.5
4/3/2021 10:30:00 AM 5.57 42.026 0.242 8.06 9.43 12.53
4/3/2021 10:45:00 AM 5.67 42.206 0.241 8.07 9.39 12.56
4/3/2021 11:00:00 AM 5.78 42.404 0.241 8.08 9.55 12.59
4/3/2021 11:15:00 AM 5.9 42.62 0.241 8.09 9.84 12.62
4/3/2021 11:30:00 AM 6.01 42.818 0.241 8.09 9.26 12.63
4/3/2021 11:45:00 AM 6.12 43.016 0.241 8.1 9.38 12.66
4/3/2021 12:00:00 PM 6.23 43.214 0.241 8.11 8.99 12.68
4/3/2021 12:15:00 PM 6.34 43.412 0.241 8.12 9.19 12.7
4/3/2021 12:30:00 PM 6.46 43.628 0.242 8.12 9.11 12.72
4/3/2021 12:45:00 PM 6.56 43.808 0.242 8.13 9.18 12.74
4/3/2021 1:00:00 PM 6.67 44.006 0.242 8.13 8.97 12.75
4/3/2021 1:15:00 PM 6.77 44.186 0.242 8.14 9.52 12.77
4/3/2021 1:30:00 PM 6.87 44.366 0.242 8.15 9.31 12.79
4/3/2021 1:45:00 PM 6.97 44.546 0.242 8.16 9.25 12.81
4/3/2021 2:00:00 PM 7.04 44.672 0.242 8.17 9.82 12.82
4/3/2021 2:15:00 PM 7.11 44.798 0.242 8.17 9.07 12.83
4/3/2021 2:30:00 PM 7.16 44.888 0.241 8.18 9.56 12.84
4/3/2021 2:45:00 PM 7.2 44.96 0.241 8.19 10.07 12.87
4/3/2021 3:00:00 PM 7.24 45.032 0.241 8.2 9.52 12.88
4/3/2021 3:15:00 PM 7.27 45.086 0.241 8.21 9.54 12.89
4/3/2021 3:30:00 PM 7.31 45.158 0.241 8.22 9.38 12.91
4/3/2021 3:45:00 PM 7.33 45.194 0.241 8.22 9.86 12.92
4/3/2021 4:00:00 PM 7.32 45.176 0.241 8.23 9.44 12.93
4/3/2021 4:15:00 PM 7.33 45.194 0.241 8.23 9.12 12.94
4/3/2021 4:30:00 PM 7.34 45.212 0.241 8.24 9.5 12.95
4/3/2021 4:45:00 PM 7.35 45.23 0.241 8.25 9.2 12.96
4/3/2021 5:00:00 PM 7.36 45.248 0.242 8.25 9.08 12.97
4/3/2021 5:15:00 PM 7.35 45.23 0.242 8.26 9.24 12.98
4/3/2021 5:30:00 PM 7.33 45.194 0.242 8.26 10.17 12.98
4/3/2021 5:45:00 PM 7.32 45.176 0.242 8.26 9.13 12.97
4/3/2021 6:00:00 PM 7.29 45.122 0.242 8.26 9.53 12.96
4/3/2021 6:15:00 PM 7.25 45.05 0.242 8.26 9.81 12.94
4/3/2021 6:30:00 PM 7.23 45.014 0.242 8.25 9.56 12.92
4/3/2021 6:45:00 PM 7.2 44.96 0.242 8.24 9.29 12.89
4/3/2021 7:00:00 PM 7.17 44.906 0.242 8.23 9.6 12.86
4/3/2021 7:15:00 PM 7.14 44.852 0.242 8.22 9.77 12.83
4/3/2021 7:30:00 PM 7.11 44.798 0.243 8.21 9.92 12.79
4/3/2021 7:45:00 PM 7.07 44.726 0.242 8.19 9.99 12.74
4/3/2021 8:00:00 PM 7.04 44.672 0.243 8.18 10.28 12.71
4/3/2021 8:15:00 PM 7.01 44.618 0.243 8.16 10.49 12.66
4/3/2021 8:30:00 PM 6.97 44.546 0.243 8.15 10.71 12.62
4/3/2021 8:45:00 PM 6.94 44.492 0.243 8.14 10.01 12.59
4/3/2021 9:00:00 PM 6.9 44.42 0.243 8.12 10.5 12.57
4/3/2021 9:15:00 PM 6.87 44.366 0.243 8.12 10.05 12.53
4/3/2021 9:30:00 PM 6.84 44.312 0.243 8.1 11.25 12.51
4/3/2021 9:45:00 PM 6.81 44.258 0.243 8.09 10.6 12.48
4/3/2021 10:00:00 PM 6.79 44.222 0.243 8.09 10.88 12.45
4/3/2021 10:15:00 PM 6.78 44.204 0.244 8.08 10.01 12.43
4/3/2021 10:30:00 PM 6.77 44.186 0.244 8.07 11.1 12.42
4/3/2021 10:45:00 PM 6.76 44.168 0.244 8.07 12.9 12.4
4/3/2021 11:00:00 PM 6.75 44.15 0.244 8.06 10.18 12.38
4/3/2021 11:15:00 PM 6.74 44.132 0.244 8.05 12.97 12.37
4/3/2021 11:30:00 PM 6.73 44.114 0.244 8.04 10.24 12.33
4/3/2021 11:45:00 PM 6.72 44.096 0.244 8.04 12.8 12.32
4/4/2021 12:00:00 AM 6.72 44.096 0.244 8.04 10.68 12.29
4/4/2021 12:15:00 AM 6.71 44.078 0.244 8.03 10.16 12.28
4/4/2021 12:30:00 AM 6.71 44.078 0.244 8.03 9.95 12.25
4/4/2021 12:45:00 AM 6.71 44.078 0.244 8.02 10.62 12.23
4/4/2021 1:00:00 AM 6.71 44.078 0.244 8.01 11.64 12.2
4/4/2021 1:15:00 AM 6.71 44.078 0.244 8.01 10.06 12.18
4/4/2021 1:30:00 AM 6.71 44.078 0.244 8 10.43 12.15
4/4/2021 1:45:00 AM 6.72 44.096 0.244 8 10.03 12.13
4/4/2021 2:00:00 AM 6.72 44.096 0.244 7.99 9.92 12.1
4/4/2021 2:15:00 AM 6.72 44.096 0.245 7.99 9.63 12.08
4/4/2021 2:30:00 AM 6.73 44.114 0.245 7.99 10.5 12.05
4/4/2021 2:45:00 AM 6.73 44.114 0.245 7.98 10.46 12.02
4/4/2021 3:00:00 AM 6.74 44.132 0.245 7.97 9.84 12
4/4/2021 3:15:00 AM 6.74 44.132 0.246 7.97 9.8 11.97
4/4/2021 3:30:00 AM 6.74 44.132 0.246 7.97 9.56 11.95
4/4/2021 3:45:00 AM 6.75 44.15 0.247 7.96 9.77 11.92
4/4/2021 4:00:00 AM 6.76 44.168 0.247 7.96 10.4 11.9
4/4/2021 4:15:00 AM 6.76 44.168 0.247 7.95 9.9 11.88
4/4/2021 4:30:00 AM 6.77 44.186 0.247 7.95 10.14 11.85
4/4/2021 4:45:00 AM 6.77 44.186 0.247 7.94 9.62 11.83
4/4/2021 5:00:00 AM 6.77 44.186 0.247 7.94 10.21 11.81
4/4/2021 5:15:00 AM 6.77 44.186 0.247 7.94 9.72 11.79
4/4/2021 5:30:00 AM 6.77 44.186 0.247 7.94 11.17 11.77
4/4/2021 5:45:00 AM 6.78 44.204 0.247 7.94 10.51 11.76
4/4/2021 6:00:00 AM 6.77 44.186 0.247 7.93 9.8 11.74
4/4/2021 6:15:00 AM 6.77 44.186 0.247 7.93 9.66 11.73
4/4/2021 6:30:00 AM 6.76 44.168 0.247 7.93 11.2 11.71
4/4/2021 6:45:00 AM 6.75 44.15 0.248 7.93 11.11 11.7
4/4/2021 7:00:00 AM 6.74 44.132 0.248 7.93 10.26 11.69
4/4/2021 7:15:00 AM 6.72 44.096 0.248 7.92 10.21 11.68
4/4/2021 7:30:00 AM 6.71 44.078 0.248 7.93 9.6 11.68
4/4/2021 7:45:00 AM 6.71 44.078 0.248 7.93 10.51 11.7
4/4/2021 8:00:00 AM 6.71 44.078 0.249 7.93 11.08 11.72
4/4/2021 8:15:00 AM 6.72 44.096 0.249 7.94 11.1 11.76
4/4/2021 8:30:00 AM 6.74 44.132 0.25 7.95 13.44 11.81
4/4/2021 8:45:00 AM 6.77 44.186 0.25 7.96 10.63 11.86
4/4/2021 9:00:00 AM 6.82 44.276 0.25 7.98 9.63 11.91
4/4/2021 9:15:00 AM 6.87 44.366 0.251 7.99 9.53 11.96
4/4/2021 9:30:00 AM 6.94 44.492 0.251 8 9.84 12
4/4/2021 9:45:00 AM 7.02 44.636 0.252 8.02 12.94 12.05
4/4/2021 10:00:00 AM 7.11 44.798 0.252 8.03 9.78 12.09
4/4/2021 10:15:00 AM 7.21 44.978 0.252 8.05 9.95 12.13
4/4/2021 10:30:00 AM 7.31 45.158 0.253 8.06 8.88 12.17
4/4/2021 10:45:00 AM 7.43 45.374 0.253 8.07 9.04 12.2
4/4/2021 11:00:00 AM 7.55 45.59 0.253 8.09 9.22 12.24
4/4/2021 11:15:00 AM 7.69 45.842 0.254 8.1 8.87 12.27
4/4/2021 11:30:00 AM 7.82 46.076 0.254 8.11 9.28 12.3
4/4/2021 11:45:00 AM 7.95 46.31 0.254 8.13 9.24 12.33
4/4/2021 12:00:00 PM 8.08 46.544 0.254 8.14 9.27 12.35
4/4/2021 12:15:00 PM 8.21 46.778 0.255 8.15 9.29 12.37
4/4/2021 12:30:00 PM 8.35 47.03 0.255 8.16 9.08 12.39
4/4/2021 12:45:00 PM 8.46 47.228 0.256 8.17 9.25 12.41
4/4/2021 1:00:00 PM 8.59 47.462 0.256 8.18 8.81 12.43
4/4/2021 1:15:00 PM 8.7 47.66 0.257 8.19 10.03 12.44
4/4/2021 1:30:00 PM 8.81 47.858 0.257 8.2 9.07 12.45
4/4/2021 1:45:00 PM 8.93 48.074 0.257 8.21 8.79 12.46
4/4/2021 2:00:00 PM 9.06 48.308 0.258 8.22 8.87 12.47
4/4/2021 2:15:00 PM 9.16 48.488 0.258 8.23 9.6 12.49
4/4/2021 2:30:00 PM 9.27 48.686 0.258 8.24 9.94 12.49
4/4/2021 2:45:00 PM 9.37 48.866 0.258 8.25 9.04 12.49
4/4/2021 3:00:00 PM 9.43 48.974 0.258 8.26 9.28 12.49
4/4/2021 3:15:00 PM 9.47 49.046 0.258 8.27 9.2 12.49
4/4/2021 3:30:00 PM 9.53 49.154 0.258 8.27 9.42 12.49
4/4/2021 3:45:00 PM 9.58 49.244 0.258 8.28 9.41 12.48
4/4/2021 4:00:00 PM 9.65 49.37 0.258 8.29 9.44 12.47
4/4/2021 4:15:00 PM 9.69 49.442 0.257 8.29 9.28 12.49
4/4/2021 4:30:00 PM 9.72 49.496 0.257 8.3 9.22 12.48
4/4/2021 4:45:00 PM 9.73 49.514 0.257 8.31 9.59 12.48
4/4/2021 5:00:00 PM 9.75 49.55 0.257 8.32 9.67 12.48
4/4/2021 5:15:00 PM 9.75 49.55 0.257 8.32 8.94 12.48
4/4/2021 5:30:00 PM 9.75 49.55 0.257 8.32 8.97 12.47
4/4/2021 5:45:00 PM 9.74 49.532 0.257 8.33 9.18 12.46
4/4/2021 6:00:00 PM 9.72 49.496 0.257 8.33 9.17 12.44
4/4/2021 6:15:00 PM 9.69 49.442 0.258 8.32 9.2 12.41
4/4/2021 6:30:00 PM 9.66 49.388 0.258 8.32 9.04 12.37
4/4/2021 6:45:00 PM 9.63 49.334 0.258 8.31 9.58 12.34
4/4/2021 7:00:00 PM 9.6 49.28 0.258 8.31 9.57 12.31
4/4/2021 7:15:00 PM 9.57 49.226 0.258 8.3 9.08 12.27
4/4/2021 7:30:00 PM 9.53 49.154 0.258 8.29 8.86 12.22
4/4/2021 7:45:00 PM 9.5 49.1 0.258 8.28 9.1 12.18
4/4/2021 8:00:00 PM 9.45 49.01 0.259 8.26 9.21 12.13
4/4/2021 8:15:00 PM 9.41 48.938 0.259 8.25 9.16 12.08
4/4/2021 8:30:00 PM 9.37 48.866 0.259 8.23 8.99 12.02
4/4/2021 8:45:00 PM 9.32 48.776 0.259 8.22 9.91 11.98
4/4/2021 9:00:00 PM 9.27 48.686 0.259 8.2 8.93 11.93
4/4/2021 9:15:00 PM 9.23 48.614 0.259 8.19 9.06 11.89
4/4/2021 9:30:00 PM 9.18 48.524 0.259 8.17 9.13 11.85
4/4/2021 9:45:00 PM 9.13 48.434 0.259 8.16 8.83 11.82
4/4/2021 10:00:00 PM 9.09 48.362 0.259 8.15 9.26 11.78
4/4/2021 10:15:00 PM 9.04 48.272 0.259 8.14 9.47 11.75
4/4/2021 10:30:00 PM 9.01 48.218 0.259 8.13 9.4 11.73
4/4/2021 10:45:00 PM 8.97 48.146 0.259 8.12 9.55 11.7
4/4/2021 11:00:00 PM 8.94 48.092 0.259 8.11 9.65 11.67
4/4/2021 11:15:00 PM 8.91 48.038 0.26 8.1 10.1 11.66
4/4/2021 11:30:00 PM 8.88 47.984 0.26 8.1 9.38 11.63
4/4/2021 11:45:00 PM 8.85 47.93 0.26 8.09 9.06 11.62
4/5/2021 12:00:00 AM 8.82 47.876 0.26 8.08 9.5 11.59
4/5/2021 12:15:00 AM 8.79 47.822 0.26 8.08 9.32 11.58
4/5/2021 12:30:00 AM 8.75 47.75 0.26 8.07 9.35 11.56
4/5/2021 12:45:00 AM 8.72 47.696 0.26 8.07 9.27 11.55
4/5/2021 1:00:00 AM 8.68 47.624 0.26 8.06 9.63 11.53
4/5/2021 1:15:00 AM 8.65 47.57 0.26 8.06 9.78 11.51
4/5/2021 1:30:00 AM 8.62 47.516 0.26 8.06 9.57 11.5
4/5/2021 1:45:00 AM 8.59 47.462 0.26 8.05 9.65 11.49
4/5/2021 2:00:00 AM 8.56 47.408 0.26 8.04 9.96 11.46
4/5/2021 2:15:00 AM 8.54 47.372 0.26 8.04 9.58 11.44
4/5/2021 2:30:00 AM 8.52 47.336 0.26 8.03 9.28 11.42
4/5/2021 2:45:00 AM 8.5 47.3 0.26 8.03 9.71 11.41
4/5/2021 3:00:00 AM 8.5 47.3 0.26 8.02 10.6 11.38
4/5/2021 3:15:00 AM 8.48 47.264 0.26 8.02 13.11 11.36
4/5/2021 3:30:00 AM 8.48 47.264 0.26 8.01 9.78 11.34
4/5/2021 3:45:00 AM 8.46 47.228 0.261 8.01 9.65 11.31
4/5/2021 4:00:00 AM 8.46 47.228 0.261 8 11.09 11.29
4/5/2021 4:15:00 AM 8.44 47.192 0.261 7.99 9.32 11.27
4/5/2021 4:30:00 AM 8.44 47.192 0.261 7.99 9.51 11.25
4/5/2021 4:45:00 AM 8.43 47.174 0.261 7.99 9.39 11.23
4/5/2021 5:00:00 AM 8.41 47.138 0.261 7.98 9.61 11.2
4/5/2021 5:15:00 AM 8.4 47.12 0.261 7.98 9.63 11.19
4/5/2021 5:30:00 AM 8.39 47.102 0.261 7.97 9.4 11.18
4/5/2021 5:45:00 AM 8.36 47.048 0.261 7.97 9.9 11.16
4/5/2021 6:00:00 AM 8.35 47.03 0.26 7.97 9.54 11.15
4/5/2021 6:15:00 AM 8.33 46.994 0.26 7.96 9.11 11.13
4/5/2021 6:30:00 AM 8.3 46.94 0.26 7.96 9.52 11.12
4/5/2021 6:45:00 AM 8.27 46.886 0.26 7.96 9.88 11.11
4/5/2021 7:00:00 AM 8.24 46.832 0.26 7.95 8.81 11.11
4/5/2021 7:15:00 AM 8.23 46.814 0.26 7.95 8.99 11.11
4/5/2021 7:30:00 AM 8.22 46.796 0.259 7.95 9.05 11.12
4/5/2021 7:45:00 AM 8.21 46.778 0.259 7.96 9.42 11.14
4/5/2021 8:00:00 AM 8.2 46.76 0.259 7.96 9.13 11.18
4/5/2021 8:15:00 AM 8.21 46.778 0.259 7.97 8.92 11.23
4/5/2021 8:30:00 AM 8.23 46.814 0.259 7.99 9.26 11.29
4/5/2021 8:45:00 AM 8.27 46.886 0.259 8 9.04 11.36
4/5/2021 9:00:00 AM 8.3 46.94 0.258 8.02 9.15 11.41
4/5/2021 9:15:00 AM 8.35 47.03 0.259 8.03 9.17 11.49
4/5/2021 9:30:00 AM 8.41 47.138 0.258 8.05 9 11.54
4/5/2021 9:45:00 AM 8.48 47.264 0.258 8.07 8.99 11.6
4/5/2021 10:00:00 AM 8.57 47.426 0.258 8.08 10.66 11.66
4/5/2021 10:15:00 AM 8.66 47.588 0.258 8.1 9.22 11.71
4/5/2021 10:30:00 AM 8.76 47.768 0.257 8.11 9.07 11.77
4/5/2021 10:45:00 AM 8.88 47.984 0.257 8.13 8.61 11.81
4/5/2021 11:00:00 AM 9 48.2 0.257 8.14 8.77 11.85
4/5/2021 11:15:00 AM 9.12 48.416 0.256 8.16 8.76 11.9
4/5/2021 11:30:00 AM 9.25 48.65 0.256 8.17 8.73 11.94
4/5/2021 11:45:00 AM 9.37 48.866 0.256 8.19 8.96 11.97
4/5/2021 12:00:00 PM 9.48 49.064 0.255 8.2 8.95 12
4/5/2021 12:15:00 PM 9.59 49.262 0.255 8.22 8.86 12.04
4/5/2021 12:30:00 PM 9.71 49.478 0.255 8.23 9.31 12.07
4/5/2021 12:45:00 PM 9.84 49.712 0.255 8.25 8.87 12.11
4/5/2021 1:00:00 PM 9.95 49.91 0.255 8.26 9.01 12.13
4/5/2021 1:15:00 PM 10.05 50.09 0.255 8.27 8.7 12.15
4/5/2021 1:30:00 PM 10.16 50.288 0.255 8.28 9.33 12.18
4/5/2021 1:45:00 PM 10.26 50.468 0.255 8.29 8.79 12.2
4/5/2021 2:00:00 PM 10.33 50.594 0.255 8.31 9.16 12.23
4/5/2021 2:15:00 PM 10.41 50.738 0.255 8.32 9.08 12.25
4/5/2021 2:30:00 PM 10.47 50.846 0.255 8.32 9.42 12.26
4/5/2021 2:45:00 PM 10.54 50.972 0.255 8.33 8.99 12.27
4/5/2021 3:00:00 PM 10.6 51.08 0.255 8.35 9.61 12.29
4/5/2021 3:15:00 PM 10.64 51.152 0.255 8.36 9.57 12.31
4/5/2021 3:30:00 PM 10.71 51.278 0.255 8.37 8.93 12.32
4/5/2021 3:45:00 PM 10.73 51.314 0.255 8.38 9.01 12.33
4/5/2021 4:00:00 PM 10.77 51.386 0.255 8.39 9.09 12.34
4/5/2021 4:15:00 PM 10.8 51.44 0.255 8.4 9 12.35
4/5/2021 4:30:00 PM 10.81 51.458 0.254 8.41 8.42 12.36
4/5/2021 4:45:00 PM 10.82 51.476 0.254 8.42 8.94 12.36
4/5/2021 5:00:00 PM 10.83 51.494 0.254 8.42 9.25 12.37
4/5/2021 5:15:00 PM 10.83 51.494 0.254 8.43 9.06 12.37
4/5/2021 5:30:00 PM 10.82 51.476 0.254 8.44 9.37 12.38
4/5/2021 5:45:00 PM 10.81 51.458 0.254 8.45 9.12 12.38
4/5/2021 6:00:00 PM 10.8 51.44 0.254 8.45 9.14 12.36
4/5/2021 6:15:00 PM 10.78 51.404 0.254 8.45 8.75 12.36
4/5/2021 6:30:00 PM 10.75 51.35 0.254 8.45 9.18 12.34
4/5/2021 6:45:00 PM 10.72 51.296 0.254 8.45 8.7 12.32
4/5/2021 7:00:00 PM 10.67 51.206 0.255 8.44 9.04 12.29
4/5/2021 7:15:00 PM 10.64 51.152 0.255 8.43 9.03 12.24
4/5/2021 7:30:00 PM 10.59 51.062 0.255 8.42 8.94 12.19
4/5/2021 7:45:00 PM 10.54 50.972 0.255 8.4 9.33 12.13
4/5/2021 8:00:00 PM 10.48 50.864 0.255 8.38 9.17 12.07
4/5/2021 8:15:00 PM 10.43 50.774 0.255 8.36 9.52 12
4/5/2021 8:30:00 PM 10.38 50.684 0.255 8.34 9.5 11.94
4/5/2021 8:45:00 PM 10.32 50.576 0.255 8.32 9.34 11.89
4/5/2021 9:00:00 PM 10.28 50.504 0.256 8.3 8.92 11.84
4/5/2021 9:15:00 PM 10.23 50.414 0.255 8.29 9.12 11.8
4/5/2021 9:30:00 PM 10.19 50.342 0.255 8.27 9.62 11.76
4/5/2021 9:45:00 PM 10.15 50.27 0.256 8.26 9.74 11.72
4/5/2021 10:00:00 PM 10.11 50.198 0.255 8.25 10.67 11.7
4/5/2021 10:15:00 PM 10.08 50.144 0.256 8.23 9.75 11.65
4/5/2021 10:30:00 PM 10.05 50.09 0.256 8.22 9.57 11.63
4/5/2021 10:45:00 PM 10 50 0.256 8.21 9.97 11.6
4/5/2021 11:00:00 PM 9.97 49.946 0.256 8.19 10 11.58
4/5/2021 11:15:00 PM 9.93 49.874 0.256 8.19 9.14 11.55
4/5/2021 11:30:00 PM 9.89 49.802 0.256 8.18 9.34 11.53
4/5/2021 11:45:00 PM 9.85 49.73 0.256 8.17 9.71 11.51
4/6/2021 12:00:00 AM 9.8 49.64 0.257 8.16 10.22 11.48
4/6/2021 12:15:00 AM 9.77 49.586 0.257 8.15 10.05 11.47
4/6/2021 12:30:00 AM 9.73 49.514 0.257 8.14 9.7 11.44
4/6/2021 12:45:00 AM 9.68 49.424 0.257 8.13 9.44 11.42
4/6/2021 1:00:00 AM 9.64 49.352 0.257 8.13 9.42 11.4
4/6/2021 1:15:00 AM 9.6 49.28 0.257 8.12 9.71 11.38
4/6/2021 1:30:00 AM 9.56 49.208 0.257 8.11 9.07 11.36
4/6/2021 1:45:00 AM 9.52 49.136 0.257 8.11 9.57 11.35
4/6/2021 2:00:00 AM 9.48 49.064 0.257 8.1 9.59 11.32
4/6/2021 2:15:00 AM 9.44 48.992 0.257 8.09 9.71 11.3
4/6/2021 2:30:00 AM 9.4 48.92 0.257 8.08 9.72 11.28
4/6/2021 2:45:00 AM 9.36 48.848 0.257 8.07 11.05 11.26
4/6/2021 3:00:00 AM 9.32 48.776 0.257 8.07 10.3 11.24
4/6/2021 3:15:00 AM 9.29 48.722 0.258 8.06 10.42 11.22
4/6/2021 3:30:00 AM 9.26 48.668 0.258 8.05 10.09 11.2
4/6/2021 3:45:00 AM 9.22 48.596 0.258 8.05 9.5 11.17
4/6/2021 4:00:00 AM 9.2 48.56 0.258 8.04 10.4 11.16
4/6/2021 4:15:00 AM 9.17 48.506 0.258 8.03 9.71 11.14
4/6/2021 4:30:00 AM 9.14 48.452 0.258 8.02 9.72 11.12
4/6/2021 4:45:00 AM 9.1 48.38 0.258 8.02 9.99 11.1
4/6/2021 5:00:00 AM 9.07 48.326 0.259 8.01 10.03 11.08
4/6/2021 5:15:00 AM 9.03 48.254 0.259 8.01 9.62 11.06
4/6/2021 5:30:00 AM 9 48.2 0.259 8 9.71 11.06
4/6/2021 5:45:00 AM 8.96 48.128 0.259 8 9.63 11.04
4/6/2021 6:00:00 AM 8.93 48.074 0.259 7.99 10.08 11.03
4/6/2021 6:15:00 AM 8.89 48.002 0.258 7.99 9.94 11.02
4/6/2021 6:30:00 AM 8.85 47.93 0.258 7.98 10.41 11
4/6/2021 6:45:00 AM 8.81 47.858 0.258 7.98 10.05 10.99
4/6/2021 7:00:00 AM 8.77 47.786 0.258 7.97 10.6 10.99
4/6/2021 7:15:00 AM 8.74 47.732 0.257 7.97 10.52 10.99
4/6/2021 7:30:00 AM 8.71 47.678 0.257 7.97 9.93 11.01
4/6/2021 7:45:00 AM 8.69 47.642 0.257 7.98 10.11 11.04
4/6/2021 8:00:00 AM 8.67 47.606 0.257 7.98 10.24 11.08
4/6/2021 8:15:00 AM 8.67 47.606 0.256 7.99 9.55 11.14
4/6/2021 8:30:00 AM 8.68 47.624 0.256 8.01 9.47 11.2
4/6/2021 8:45:00 AM 8.7 47.66 0.256 8.02 9.85 11.27
4/6/2021 9:00:00 AM 8.73 47.714 0.256 8.04 9.88 11.34
4/6/2021 9:15:00 AM 8.77 47.786 0.256 8.05 9.96 11.41
4/6/2021 9:30:00 AM 8.82 47.876 0.256 8.07 9.52 11.47
4/6/2021 9:45:00 AM 8.89 48.002 0.256 8.08 9.57 11.53
4/6/2021 10:00:00 AM 8.97 48.146 0.255 8.1 9.31 11.6
4/6/2021 10:15:00 AM 9.07 48.326 0.255 8.12 9.22 11.65
4/6/2021 10:30:00 AM 9.17 48.506 0.255 8.14 9.41 11.71
4/6/2021 10:45:00 AM 9.29 48.722 0.254 8.15 9.73 11.76
4/6/2021 11:00:00 AM 9.41 48.938 0.254 8.17 9.67 11.81
4/6/2021 11:15:00 AM 9.54 49.172 0.254 8.19 9.21 11.86
4/6/2021 11:30:00 AM 9.67 49.406 0.254 8.21 9.12 11.91
4/6/2021 11:45:00 AM 9.8 49.64 0.253 8.22 9.46 11.94
4/6/2021 12:00:00 PM 9.93 49.874 0.253 8.24 9.74 11.99
4/6/2021 12:15:00 PM 10.06 50.108 0.253 8.26 9.33 12.01
4/6/2021 12:30:00 PM 10.18 50.324 0.253 8.27 9.34 12.06
4/6/2021 12:45:00 PM 10.3 50.54 0.253 8.29 9.55 12.08
4/6/2021 1:00:00 PM 10.41 50.738 0.253 8.3 9.52 12.11
4/6/2021 1:15:00 PM 10.52 50.936 0.252 8.31 9.17 12.13
4/6/2021 1:30:00 PM 10.62 51.116 0.253 8.33 9.02 12.15
4/6/2021 1:45:00 PM 10.74 51.332 0.253 8.34 9.39 12.18
4/6/2021 2:00:00 PM 10.84 51.512 0.253 8.35 9.14 12.2
4/6/2021 2:15:00 PM 10.93 51.674 0.253 8.37 9.22 12.22
4/6/2021 2:30:00 PM 11.02 51.836 0.253 8.38 9.26 12.22
4/6/2021 2:45:00 PM 11.1 51.98 0.253 8.39 9.77 12.23
4/6/2021 3:00:00 PM 11.18 52.124 0.252 8.4 9.4 12.24
4/6/2021 3:15:00 PM 11.26 52.268 0.252 8.4 9.19 12.26
4/6/2021 3:30:00 PM 11.33 52.394 0.252 8.42 9.44 12.28
4/6/2021 3:45:00 PM 11.38 52.484 0.252 8.43 9.47 12.27
4/6/2021 4:00:00 PM 11.42 52.556 0.252 8.43 10.11 12.27
4/6/2021 4:15:00 PM 11.45 52.61 0.252 8.44 9.65 12.28
4/6/2021 4:30:00 PM 11.48 52.664 0.252 8.45 9.26 12.27
4/6/2021 4:45:00 PM 11.51 52.718 0.251 8.46 9.3 12.27
4/6/2021 5:00:00 PM 11.51 52.718 0.252 8.46 9.36 12.27
4/6/2021 5:15:00 PM 11.52 52.736 0.251 8.47 9.37 12.26
4/6/2021 5:30:00 PM 11.51 52.718 0.251 8.47 9.5 12.25
4/6/2021 5:45:00 PM 11.5 52.7 0.251 8.47 8.95 12.24
4/6/2021 6:00:00 PM 11.48 52.664 0.251 8.47 8.87 12.23
4/6/2021 6:15:00 PM 11.46 52.628 0.252 8.47 9.24 12.19
4/6/2021 6:30:00 PM 11.44 52.592 0.252 8.47 9 12.16
4/6/2021 6:45:00 PM 11.43 52.574 0.252 8.46 8.97 12.14
4/6/2021 7:00:00 PM 11.4 52.52 0.252 8.45 9.14 12.11
4/6/2021 7:15:00 PM 11.38 52.484 0.252 8.45 12.93 12.07
4/6/2021 7:30:00 PM 11.34 52.412 0.252 8.44 9.36 12.04
4/6/2021 7:45:00 PM 11.31 52.358 0.252 8.43 9.42 11.99
4/6/2021 8:00:00 PM 11.27 52.286 0.252 8.41 8.91 11.93
4/6/2021 8:15:00 PM 11.22 52.196 0.253 8.39 9.01 11.86
4/6/2021 8:30:00 PM 11.18 52.124 0.253 8.37 9.37 11.81
4/6/2021 8:45:00 PM 11.14 52.052 0.253 8.35 9.35 11.74
4/6/2021 9:00:00 PM 11.1 51.98 0.253 8.33 9.67 11.69
4/6/2021 9:15:00 PM 11.05 51.89 0.253 8.32 9.78 11.64
4/6/2021 9:30:00 PM 11.01 51.818 0.253 8.3 9.1 11.6
4/6/2021 9:45:00 PM 10.97 51.746 0.253 8.28 9.59 11.55
4/6/2021 10:00:00 PM 10.93 51.674 0.253 8.26 9.64 11.51
4/6/2021 10:15:00 PM 10.91 51.638 0.253 8.25 9.43 11.48
4/6/2021 10:30:00 PM 10.88 51.584 0.254 8.23 9.97 11.43
4/6/2021 10:45:00 PM 10.85 51.53 0.254 8.21 9.89 11.4
4/6/2021 11:00:00 PM 10.83 51.494 0.254 8.2 9.73 11.37
4/6/2021 11:15:00 PM 10.81 51.458 0.254 8.19 9.71 11.34
4/6/2021 11:30:00 PM 10.78 51.404 0.255 8.18 9.91 11.31
4/6/2021 11:45:00 PM 10.77 51.386 0.255 8.17 10.14 11.29
4/7/2021 12:00:00 AM 10.75 51.35 0.255 8.16 9.67 11.26
4/7/2021 12:15:00 AM 10.73 51.314 0.256 8.16 9.81 11.24
4/7/2021 12:30:00 AM 10.72 51.296 0.256 8.14 9.75 11.22
4/7/2021 12:45:00 AM 10.69 51.242 0.256 8.14 9.86 11.19
4/7/2021 1:00:00 AM 10.67 51.206 0.257 8.13 9.89 11.17
4/7/2021 1:15:00 AM 10.66 51.188 0.257 8.12 10.2 11.15
4/7/2021 1:30:00 AM 10.64 51.152 0.257 8.11 9.33 11.13
4/7/2021 1:45:00 AM 10.62 51.116 0.257 8.1 9.47 11.1
4/7/2021 2:00:00 AM 10.59 51.062 0.257 8.09 9.94 11.08
4/7/2021 2:15:00 AM 10.57 51.026 0.258 8.09 10.24 11.05
4/7/2021 2:30:00 AM 10.55 50.99 0.258 8.08 10.06 11.02
4/7/2021 2:45:00 AM 10.54 50.972 0.258 8.07 9.09 11
4/7/2021 3:00:00 AM 10.53 50.954 0.257 8.06 14.81 10.98
4/7/2021 3:15:00 AM 10.51 50.918 0.258 8.05 9.54 10.95
4/7/2021 3:30:00 AM 10.5 50.9 0.259 8.04 9.43 10.92
4/7/2021 3:45:00 AM 10.49 50.882 0.259 8.04 9.21 10.9
4/7/2021 4:00:00 AM 10.48 50.864 0.259 8.03 9.53 10.87
4/7/2021 4:15:00 AM 10.47 50.846 0.26 8.02 10.73 10.85
4/7/2021 4:30:00 AM 10.47 50.846 0.26 8.01 12.03 10.82
4/7/2021 4:45:00 AM 10.46 50.828 0.26 8.01 10.38 10.79
4/7/2021 5:00:00 AM 10.46 50.828 0.261 8 9.53 10.77
4/7/2021 5:15:00 AM 10.46 50.828 0.261 7.99 9.57 10.74
4/7/2021 5:30:00 AM 10.45 50.81 0.261 7.99 9.62 10.71
4/7/2021 5:45:00 AM 10.45 50.81 0.262 7.98 9.65 10.69
4/7/2021 6:00:00 AM 10.45 50.81 0.262 7.97 9.51 10.67
4/7/2021 6:15:00 AM 10.45 50.81 0.262 7.97 10.18 10.65
4/7/2021 6:30:00 AM 10.45 50.81 0.262 7.96 10.38 10.63
4/7/2021 6:45:00 AM 10.45 50.81 0.262 7.96 9.84 10.61
4/7/2021 7:00:00 AM 10.45 50.81 0.262 7.96 9.49 10.59
4/7/2021 7:15:00 AM 10.44 50.792 0.263 7.95 9.98 10.57
4/7/2021 7:30:00 AM 10.44 50.792 0.263 7.95 9.59 10.56
4/7/2021 7:45:00 AM 10.43 50.774 0.263 7.94 9.58 10.55
4/7/2021 8:00:00 AM 10.43 50.774 0.263 7.95 9.69 10.56
4/7/2021 8:15:00 AM 10.45 50.81 0.263 7.95 9.23 10.59
4/7/2021 8:30:00 AM 10.47 50.846 0.263 7.96 9.12 10.63
4/7/2021 8:45:00 AM 10.5 50.9 0.263 7.98 10.35 10.71
4/7/2021 9:00:00 AM 10.53 50.954 0.264 7.99 9.57 10.79
4/7/2021 9:15:00 AM 10.58 51.044 0.264 8.02 9.28 10.9
4/7/2021 9:30:00 AM 10.61 51.098 0.264 8.04 9.24 10.97
4/7/2021 9:45:00 AM 10.68 51.224 0.264 8.06 8.6 11.05
4/7/2021 10:00:00 AM 10.76 51.368 0.264 8.08 8.8 11.13
4/7/2021 10:15:00 AM 10.85 51.53 0.265 8.1 8.5 11.2
4/7/2021 10:30:00 AM 10.95 51.71 0.265 8.13 8.78 11.27
4/7/2021 10:45:00 AM 11.04 51.872 0.265 8.15 8.91 11.34
4/7/2021 11:00:00 AM 11.11 51.998 0.265 8.18 8.83 11.42
4/7/2021 11:15:00 AM 11.17 52.106 0.265 8.19 9.02 11.46
4/7/2021 11:30:00 AM 11.28 52.304 0.266 8.22 8.61 11.52
4/7/2021 11:45:00 AM 11.34 52.412 0.266 8.24 8.92 11.57
4/7/2021 12:00:00 PM 11.43 52.574 0.267 8.26 8.71 11.62
4/7/2021 12:15:00 PM 11.52 52.736 0.268 8.28 8.48 11.68
4/7/2021 12:30:00 PM 11.64 52.952 0.27 8.3 8.57 11.73
4/7/2021 12:45:00 PM 11.77 53.186 0.272 8.32 8.21 11.77
4/7/2021 1:00:00 PM 11.91 53.438 0.275 8.34 8.52 11.82
4/7/2021 1:15:00 PM 12 53.6 0.278 8.35 8.51 11.85
4/7/2021 1:30:00 PM 12.08 53.744 0.283 8.37 8.29 11.89
4/7/2021 1:45:00 PM 12.14 53.852 0.288 8.38 8.37 11.92
4/7/2021 2:00:00 PM 12.16 53.888 0.294 8.39 8.05 11.92
4/7/2021 2:15:00 PM 12.17 53.906 0.301 8.4 8.47 11.93
4/7/2021 2:30:00 PM 12.26 54.068 0.309 8.41 8.46 11.95
4/7/2021 2:45:00 PM 12.38 54.284 0.316 8.43 8.36 11.98
4/7/2021 3:00:00 PM 12.52 54.536 0.326 8.43 8.3 11.98
4/7/2021 3:15:00 PM 12.68 54.824 0.336 8.44 8.21 12.03
4/7/2021 3:30:00 PM 12.81 55.058 0.345 8.46 8.14 12.04
4/7/2021 3:45:00 PM 12.93 55.274 0.354 8.47 8.1 12.05
4/7/2021 4:00:00 PM 13.05 55.49 0.365 8.47 8.45 12.06
4/7/2021 4:15:00 PM 13.13 55.634 0.373 8.48 7.89 12.05
4/7/2021 4:30:00 PM 13.21 55.778 0.383 8.49 8.13 12.04
4/7/2021 4:45:00 PM 13.27 55.886 0.394 8.5 8.82 12.04
4/7/2021 5:00:00 PM 13.32 55.976 0.432 8.5 8.07 12.03
4/7/2021 5:15:00 PM 13.36 56.048 0.416 8.5 8.04 12.02
4/7/2021 5:30:00 PM 13.38 56.084 0.424 8.51 8.13 12
4/7/2021 5:45:00 PM 13.38 56.084 0.43 8.51 8.01 11.98
4/7/2021 6:00:00 PM 13.38 56.084 0.438 8.51 8.22 11.95
4/7/2021 6:15:00 PM 13.35 56.03 0.443 8.51 7.75 11.92
4/7/2021 6:30:00 PM 13.33 55.994 0.451 8.5 7.97 11.88
4/7/2021 6:45:00 PM 13.29 55.922 0.457 8.49 8.32 11.82
4/7/2021 7:00:00 PM 13.26 55.868 0.463 8.49 8.07 11.78
4/7/2021 7:15:00 PM 13.22 55.796 0.468 8.48 8.31 11.72
4/7/2021 7:30:00 PM 13.18 55.724 0.473 8.46 8.14 11.67
4/7/2021 7:45:00 PM 13.14 55.652 0.476 8.46 8.21 11.61
4/7/2021 8:00:00 PM 13.1 55.58 0.482 8.44 8.68 11.55
4/7/2021 8:15:00 PM 13.05 55.49 0.485 8.43 8.61 11.49
4/7/2021 8:30:00 PM 13.01 55.418 0.488 8.41 8.75 11.43
4/7/2021 8:45:00 PM 12.96 55.328 0.491 8.39 9.65 11.36
4/7/2021 9:00:00 PM 12.92 55.256 0.494 8.38 9.25 11.3
4/7/2021 9:15:00 PM 12.87 55.166 0.496 8.36 9.67 11.24
4/7/2021 9:30:00 PM 12.83 55.094 0.498 8.34 8.9 11.18
4/7/2021 9:45:00 PM 12.78 55.004 0.501 8.32 9.47 11.12
4/7/2021 10:00:00 PM 12.74 54.932 0.502 8.31 9.06 11.08
4/7/2021 10:15:00 PM 12.69 54.842 0.504 8.29 8.94 11.04
4/7/2021 10:30:00 PM 12.65 54.77 0.506 8.28 9.24 10.98
4/7/2021 10:45:00 PM 12.6 54.68 0.507 8.26 8.79 10.93
4/7/2021 11:00:00 PM 12.58 54.644 0.508 8.25 8.88 10.91
4/7/2021 11:15:00 PM 12.55 54.59 0.509 8.24 9.79 10.86
4/7/2021 11:30:00 PM 12.51 54.518 0.431 8.22 5.97 10.83
4/7/2021 11:45:00 PM 12.48 54.464 0.373 8.21 11.81 10.81
4/8/2021 12:00:00 AM 12.46 54.428 0.36 8.21 20.97 10.79
4/8/2021 12:15:00 AM 12.43 54.374 0.353 8.2 48.62 10.75
4/8/2021 12:30:00 AM 12.41 54.338 0.352 8.17 17.02 10.72
4/8/2021 12:45:00 AM 12.38 54.284 0.35 8.17 122.45 10.7
4/8/2021 1:00:00 AM 12.36 54.248 0.353 8.17 33.06 10.67
4/8/2021 1:15:00 AM 12.33 54.194 0.356 8.16 45.34 10.65
4/8/2021 1:30:00 AM 12.3 54.14 0.516 8.15 345.91 10.62
4/8/2021 1:45:00 AM 12.26 54.068 0.516 8.15 12.29 10.6
4/8/2021 2:00:00 AM 12.23 54.014 0.517 8.14 10.61 10.57
4/8/2021 2:15:00 AM 12.2 53.96 0.518 8.13 9.44 10.55
4/8/2021 2:30:00 AM 12.16 53.888 0.518 8.12 9.63 10.53
4/8/2021 2:45:00 AM 12.12 53.816 0.518 8.11 9.85 10.51
4/8/2021 3:00:00 AM 12.08 53.744 0.518 8.1 14.43 10.48
4/8/2021 3:15:00 AM 12.04 53.672 0.519 8.09 9.62 10.46
4/8/2021 3:30:00 AM 12.01 53.618 0.519 8.08 10.07 10.43
4/8/2021 3:45:00 AM 11.97 53.546 0.519 8.07 10.52 10.4
4/8/2021 4:00:00 AM 11.94 53.492 0.52 8.06 10.1 10.38
4/8/2021 4:15:00 AM 11.9 53.42 0.52 8.06 8.73 10.36
4/8/2021 4:30:00 AM 11.87 53.366 0.52 8.05 9.38 10.34
4/8/2021 4:45:00 AM 11.84 53.312 0.521 8.03 8.94 10.3
4/8/2021 5:00:00 AM 11.8 53.24 0.521 8.02 9.57 10.29
4/8/2021 5:15:00 AM 11.77 53.186 0.521 8.02 9.8 10.27
4/8/2021 5:30:00 AM 11.74 53.132 0.522 8.01 8.91 10.24
4/8/2021 5:45:00 AM 11.72 53.096 0.523 8 9.19 10.22
4/8/2021 6:00:00 AM 11.68 53.024 0.523 7.99 9.59 10.2
4/8/2021 6:15:00 AM 11.66 52.988 0.524 7.99 9.63 10.18
4/8/2021 6:30:00 AM 11.63 52.934 0.524 7.98 10.16 10.16
4/8/2021 6:45:00 AM 11.6 52.88 0.524 7.97 9.44 10.15
4/8/2021 7:00:00 AM 11.57 52.826 0.525 7.97 8.8 10.14
4/8/2021 7:15:00 AM 11.56 52.808 0.525 7.97 8.73 10.14
4/8/2021 7:30:00 AM 11.54 52.772 0.526 7.97 8.63 10.15
4/8/2021 7:45:00 AM 11.54 52.772 0.526 7.97 9.03 10.18
4/8/2021 8:00:00 AM 11.53 52.754 0.526 7.98 9.52 10.23
4/8/2021 8:15:00 AM 11.55 52.79 0.526 7.99 9.05 10.29
4/8/2021 8:30:00 AM 11.57 52.826 0.526 8 8.8 10.37
4/8/2021 8:45:00 AM 11.61 52.898 0.526 8.02 8.45 10.46
4/8/2021 9:00:00 AM 11.65 52.97 0.526 8.04 8.62 10.54
4/8/2021 9:15:00 AM 11.7 53.06 0.526 8.06 8.34 10.63
4/8/2021 9:30:00 AM 11.77 53.186 0.526 8.09 8.68 10.72
4/8/2021 9:45:00 AM 11.84 53.312 0.526 8.11 8.38 10.81
4/8/2021 10:00:00 AM 11.91 53.438 0.527 8.14 8.56 10.89
4/8/2021 10:15:00 AM 12.01 53.618 0.527 8.16 8.77 10.97
4/8/2021 10:30:00 AM 12.13 53.834 0.528 8.18 8.42 11.06
4/8/2021 10:45:00 AM 12.24 54.032 0.527 8.21 8.47 11.13
4/8/2021 11:00:00 AM 12.36 54.248 0.528 8.23 8.34 11.21
4/8/2021 11:15:00 AM 12.49 54.482 0.528 8.25 8.46 11.26
4/8/2021 11:30:00 AM 12.61 54.698 0.529 8.27 8.6 11.33
4/8/2021 11:45:00 AM 12.74 54.932 0.529 8.3 9.01 11.4
4/8/2021 12:00:00 PM 12.88 55.184 0.529 8.31 8.57 11.45
4/8/2021 12:15:00 PM 13 55.4 0.53 8.34 8.51 11.52
4/8/2021 12:30:00 PM 13.12 55.616 0.53 8.36 10.09 11.56
4/8/2021 12:45:00 PM 13.25 55.85 0.53 8.37 8.71 11.61
4/8/2021 1:00:00 PM 13.36 56.048 0.531 8.39 8.89 11.65
4/8/2021 1:15:00 PM 13.47 56.246 0.53 8.4 12.31 11.69
4/8/2021 1:30:00 PM 13.59 56.462 0.531 8.42 8.67 11.73
4/8/2021 1:45:00 PM 13.69 56.642 0.532 8.43 8.69 11.76
4/8/2021 2:00:00 PM 13.79 56.822 0.532 8.45 8.49 11.78
4/8/2021 2:15:00 PM 13.89 57.002 0.532 8.46 9.16 11.82
4/8/2021 2:30:00 PM 13.99 57.182 0.533 8.47 8.85 11.84
4/8/2021 2:45:00 PM 14.07 57.326 0.533 8.48 8.3 11.85
4/8/2021 3:00:00 PM 14.16 57.488 0.534 8.49 8.51 11.87
4/8/2021 3:15:00 PM 14.24 57.632 0.534 8.51 8 11.89
4/8/2021 3:30:00 PM 14.32 57.776 0.534 8.52 8.2 11.91
4/8/2021 3:45:00 PM 14.37 57.866 0.535 8.53 9.15 11.92
4/8/2021 4:00:00 PM 14.42 57.956 0.535 8.53 8.48 11.92
4/8/2021 4:15:00 PM 14.45 58.01 0.536 8.54 8.3 11.91
4/8/2021 4:30:00 PM 14.48 58.064 0.536 8.54 7.97 11.91
4/8/2021 4:45:00 PM 14.5 58.1 0.536 8.55 8.05 11.9
4/8/2021 5:00:00 PM 14.52 58.136 0.536 8.56 8.13 11.9
4/8/2021 5:15:00 PM 14.52 58.136 0.536 8.56 8.89 11.88
4/8/2021 5:30:00 PM 14.52 58.136 0.536 8.56 8.15 11.87
4/8/2021 5:45:00 PM 14.51 58.118 0.536 8.57 8.57 11.86
4/8/2021 6:00:00 PM 14.5 58.1 0.535 8.57 9.23 11.84
4/8/2021 6:15:00 PM 14.48 58.064 0.535 8.57 8.44 11.8
4/8/2021 6:30:00 PM 14.45 58.01 0.535 8.56 8.11 11.77
4/8/2021 6:45:00 PM 14.42 57.956 0.534 8.56 8.37 11.72
4/8/2021 7:00:00 PM 14.39 57.902 0.535 8.56 7.89 11.67
4/8/2021 7:15:00 PM 14.36 57.848 0.534 8.55 8.31 11.62
4/8/2021 7:30:00 PM 14.32 57.776 0.534 8.54 8.28 11.57
4/8/2021 7:45:00 PM 14.28 57.704 0.534 8.53 8.51 11.51
4/8/2021 8:00:00 PM 14.23 57.614 0.534 8.52 8.49 11.44
4/8/2021 8:15:00 PM 14.19 57.542 0.534 8.5 8.94 11.36
4/8/2021 8:30:00 PM 14.14 57.452 0.534 8.49 9.6 11.3
4/8/2021 8:45:00 PM 14.1 57.38 0.534 8.48 9.1 11.23
4/8/2021 9:00:00 PM 14.04 57.272 0.534 8.46 9.06 11.17
4/8/2021 9:15:00 PM 13.99 57.182 0.534 8.44 9.33 11.11
4/8/2021 9:30:00 PM 13.94 57.092 0.534 8.43 9.5 11.05
4/8/2021 9:45:00 PM 13.89 57.002 0.534 8.41 8.91 10.99
4/8/2021 10:00:00 PM 13.84 56.912 0.534 8.4 9.15 10.94
4/8/2021 10:15:00 PM 13.79 56.822 0.534 8.38 9.75 10.88
4/8/2021 10:30:00 PM 13.74 56.732 0.533 8.36 9.08 10.84
4/8/2021 10:45:00 PM 13.7 56.66 0.534 8.35 8.68 10.79
4/8/2021 11:00:00 PM 13.65 56.57 0.534 8.34 8.86 10.75
4/8/2021 11:15:00 PM 13.61 56.498 0.534 8.32 9.57 10.71
4/8/2021 11:30:00 PM 13.58 56.444 0.534 8.31 8.94 10.66
4/8/2021 11:45:00 PM 13.54 56.372 0.534 8.3 8.87 10.64
4/9/2021 12:00:00 AM 13.52 56.336 0.534 8.29 9.11 10.61
4/9/2021 12:15:00 AM 13.48 56.264 0.534 8.28 9.73 10.57
4/9/2021 12:30:00 AM 13.46 56.228 0.534 8.27 9.14 10.55
4/9/2021 12:45:00 AM 13.43 56.174 0.534 8.26 9.49 10.52
4/9/2021 1:00:00 AM 13.4 56.12 0.534 8.25 9.57 10.49
4/9/2021 1:15:00 AM 13.38 56.084 0.534 8.24 8.88 10.47
4/9/2021 1:30:00 AM 13.35 56.03 0.534 8.24 9.47 10.44
4/9/2021 1:45:00 AM 13.33 55.994 0.534 8.23 9.69 10.42
4/9/2021 2:00:00 AM 13.29 55.922 0.534 8.22 9.48 10.4
4/9/2021 2:15:00 AM 13.27 55.886 0.534 8.21 9.43 10.37
4/9/2021 2:30:00 AM 13.24 55.832 0.534 8.2 8.87 10.34
4/9/2021 2:45:00 AM 13.21 55.778 0.534 8.18 9.01 10.31
4/9/2021 3:00:00 AM 13.19 55.742 0.533 8.17 9.43 10.27
4/9/2021 3:15:00 AM 13.17 55.706 0.534 8.17 9.94 10.25
4/9/2021 3:30:00 AM 13.14 55.652 0.533 8.15 9.3 10.22
4/9/2021 3:45:00 AM 13.12 55.616 0.534 8.14 8.97 10.19
4/9/2021 4:00:00 AM 13.09 55.562 0.534 8.13 9.96 10.16
4/9/2021 4:15:00 AM 13.05 55.49 0.533 8.12 9.33 10.12
4/9/2021 4:30:00 AM 13.04 55.472 0.533 8.11 9.69 10.09
4/9/2021 4:45:00 AM 13.01 55.418 0.533 8.09 9.45 10.06
4/9/2021 5:00:00 AM 13 55.4 0.534 8.08 10.4 10.03
4/9/2021 5:15:00 AM 12.97 55.346 0.534 8.07 9.54 10
4/9/2021 5:30:00 AM 12.95 55.31 0.534 8.06 10.6 9.97
4/9/2021 5:45:00 AM 12.93 55.274 0.534 8.05 9.5 9.94
4/9/2021 6:00:00 AM 12.92 55.256 0.534 8.04 10.4 9.91
4/9/2021 6:15:00 AM 12.9 55.22 0.535 8.03 9.33 9.88
4/9/2021 6:30:00 AM 12.87 55.166 0.535 8.02 9.36 9.86
4/9/2021 6:45:00 AM 12.84 55.112 0.536 8.01 9.26 9.84
4/9/2021 7:00:00 AM 12.82 55.076 0.536 8 8.91 9.82
4/9/2021 7:15:00 AM 12.8 55.04 0.537 8 8.94 9.81
4/9/2021 7:30:00 AM 12.8 55.04 0.537 8 9.02 9.83
4/9/2021 7:45:00 AM 12.81 55.058 0.538 8 8.99 9.87
4/9/2021 8:00:00 AM 12.82 55.076 0.538 8.01 8.77 9.92
4/9/2021 8:15:00 AM 12.82 55.076 0.538 8.02 9.74 9.98
4/9/2021 8:30:00 AM 12.83 55.094 0.539 8.04 8.93 10.07
4/9/2021 8:45:00 AM 12.84 55.112 0.539 8.05 8.67 10.14
4/9/2021 9:00:00 AM 12.88 55.184 0.539 8.07 8.6 10.22
4/9/2021 9:15:00 AM 12.88 55.184 0.54 8.09 8.68 10.27
4/9/2021 9:30:00 AM 12.9 55.22 0.541 8.1 8.88 10.34
4/9/2021 9:45:00 AM 12.92 55.256 0.541 8.12 8.72 10.42
4/9/2021 10:00:00 AM 12.91 55.238 0.542 8.14 8.83 10.46
4/9/2021 10:15:00 AM 12.92 55.256 0.542 8.16 8.98 10.53
4/9/2021 10:30:00 AM 12.92 55.256 0.543 8.17 8.57 10.57
4/9/2021 10:45:00 AM 12.91 55.238 0.544 8.18 8.33 10.58
4/9/2021 11:00:00 AM 12.9 55.22 0.544 8.19 8.74 10.61
4/9/2021 11:15:00 AM 12.89 55.202 0.544 8.2 8.96 10.64
4/9/2021 11:30:00 AM 12.89 55.202 0.546 8.2 8.43 10.67
4/9/2021 11:45:00 AM 12.89 55.202 0.546 8.21 8.71 10.72
4/9/2021 12:00:00 PM 12.91 55.238 0.547 8.23 8.3 10.78
4/9/2021 12:15:00 PM 12.94 55.292 0.547 8.25 8.28 10.86
4/9/2021 12:30:00 PM 12.96 55.328 0.547 8.27 8.25 10.92
4/9/2021 12:45:00 PM 12.99 55.382 0.547 8.29 8.02 11
4/9/2021 1:00:00 PM 13.03 55.454 0.548 8.31 8.19 11.07
4/9/2021 1:15:00 PM 13.1 55.58 0.548 8.33 8.22 11.13
4/9/2021 1:30:00 PM 13.23 55.814 0.548 8.35 8.5 11.22
4/9/2021 1:45:00 PM 13.29 55.922 0.548 8.37 7.5 11.28
4/9/2021 2:00:00 PM 13.48 56.264 0.548 8.4 7.66 11.36
4/9/2021 2:15:00 PM 13.66 56.588 0.548 8.42 7.76 11.43
4/9/2021 2:30:00 PM 13.8 56.84 0.548 8.44 8.48 11.5
4/9/2021 2:45:00 PM 13.9 57.02 0.549 8.46 7.99 11.54
4/9/2021 3:00:00 PM 13.99 57.182 0.548 8.47 8.14 11.57
4/9/2021 3:15:00 PM 14.08 57.344 0.549 8.49 7.94 11.61
4/9/2021 3:30:00 PM 14.17 57.506 0.549 8.5 8.21 11.66
4/9/2021 3:45:00 PM 14.21 57.578 0.55 8.52 8.04 11.67
4/9/2021 4:00:00 PM 14.22 57.596 0.55 8.52 7.72 11.68
4/9/2021 4:15:00 PM 14.22 57.596 0.55 8.53 9.24 11.7
4/9/2021 4:30:00 PM 14.19 57.542 0.551 8.53 8.67 11.69
4/9/2021 4:45:00 PM 14.18 57.524 0.551 8.53 8.04 11.68
4/9/2021 5:00:00 PM 14.16 57.488 0.551 8.54 8.09 11.66
4/9/2021 5:15:00 PM 14.14 57.452 0.552 8.53 8.16 11.64
4/9/2021 5:30:00 PM 14.13 57.434 0.552 8.54 7.95 11.65
4/9/2021 5:45:00 PM 14.12 57.416 0.552 8.54 7.83 11.65
4/9/2021 6:00:00 PM 14.08 57.344 0.552 8.53 7.98 11.64
4/9/2021 6:15:00 PM 14.04 57.272 0.553 8.54 8.24 11.62
4/9/2021 6:30:00 PM 14 57.2 0.553 8.54 7.91 11.62
4/9/2021 6:45:00 PM 13.93 57.074 0.553 8.53 8.03 11.59
4/9/2021 7:00:00 PM 13.89 57.002 0.553 8.52 8.5 11.53
4/9/2021 7:15:00 PM 13.84 56.912 0.553 8.51 8.15 11.47
4/9/2021 7:30:00 PM 13.79 56.822 0.553 8.49 9.03 11.4
4/9/2021 7:45:00 PM 13.75 56.75 0.553 8.48 8.44 11.34
4/9/2021 8:00:00 PM 13.71 56.678 0.554 8.46 8.33 11.26
4/9/2021 8:15:00 PM 13.68 56.624 0.554 8.44 10.66 11.19
4/9/2021 8:30:00 PM 13.65 56.57 0.555 8.43 9.41 11.11
4/9/2021 8:45:00 PM 13.61 56.498 0.554 8.41 9.27 11.06
4/9/2021 9:00:00 PM 13.58 56.444 0.555 8.4 9.14 11
4/9/2021 9:15:00 PM 13.56 56.408 0.555 8.38 9.26 10.96
4/9/2021 9:30:00 PM 13.54 56.372 0.555 8.37 8.49 10.91
4/9/2021 9:45:00 PM 13.52 56.336 0.555 8.36 8.58 10.86
4/9/2021 10:00:00 PM 13.49 56.282 0.555 8.35 9.2 10.82
4/9/2021 10:15:00 PM 13.47 56.246 0.556 8.34 8.78 10.78
4/9/2021 10:30:00 PM 13.46 56.228 0.555 8.33 8.49 10.75
4/9/2021 10:45:00 PM 13.44 56.192 0.555 8.32 8.79 10.71
4/9/2021 11:00:00 PM 13.43 56.174 0.556 8.31 8.31 10.68
4/9/2021 11:15:00 PM 13.42 56.156 0.556 8.3 8.5 10.65
4/9/2021 11:30:00 PM 13.41 56.138 0.556 8.29 8.56 10.62
4/9/2021 11:45:00 PM 13.4 56.12 0.556 8.29 8.86 10.58
4/10/2021 12:00:00 AM 13.39 56.102 0.556 8.28 9.52 10.55
4/10/2021 12:15:00 AM 13.37 56.066 0.556 8.27 8.62 10.53
4/10/2021 12:30:00 AM 13.36 56.048 0.555 8.26 8.54 10.5
4/10/2021 12:45:00 AM 13.34 56.012 0.555 8.25 8.36 10.47
4/10/2021 1:00:00 AM 13.32 55.976 0.556 8.24 9.21 10.44
4/10/2021 1:15:00 AM 13.3 55.94 0.555 8.24 9.09 10.43
4/10/2021 1:30:00 AM 13.29 55.922 0.555 8.23 8.76 10.39
4/10/2021 1:45:00 AM 13.27 55.886 0.555 8.21 9.1 10.36
4/10/2021 2:00:00 AM 13.25 55.85 0.555 8.2 10.45 10.33
4/10/2021 2:15:00 AM 13.23 55.814 0.555 8.19 11.25 10.29
4/10/2021 2:30:00 AM 13.22 55.796 0.556 8.19 9.28 10.29
4/10/2021 2:45:00 AM 13.2 55.76 0.556 8.18 8.92 10.25
4/10/2021 3:00:00 AM 13.18 55.724 0.556 8.17 9.17 10.24
4/10/2021 3:15:00 AM 13.17 55.706 0.556 8.15 9.54 10.2
4/10/2021 3:30:00 AM 13.15 55.67 0.556 8.14 8.9 10.17
4/10/2021 3:45:00 AM 13.13 55.634 0.556 8.13 10.23 10.16
4/10/2021 4:00:00 AM 13.12 55.616 0.556 8.12 8.88 10.12
4/10/2021 4:15:00 AM 13.11 55.598 0.556 8.11 9.82 10.09
4/10/2021 4:30:00 AM 13.1 55.58 0.556 8.1 10.09 10.07
4/10/2021 4:45:00 AM 13.09 55.562 0.556 8.09 8.96 10.04
4/10/2021 5:00:00 AM 13.08 55.544 0.557 8.07 8.68 10.01
4/10/2021 5:15:00 AM 13.07 55.526 0.557 8.07 9.8 9.99
4/10/2021 5:30:00 AM 13.06 55.508 0.557 8.06 10.6 9.97
4/10/2021 5:45:00 AM 13.04 55.472 0.557 8.05 9.11 9.93
4/10/2021 6:00:00 AM 13.03 55.454 0.557 8.03 9.47 9.9
4/10/2021 6:15:00 AM 13.02 55.436 0.557 8.02 9.56 9.87
4/10/2021 6:30:00 AM 13 55.4 0.557 8.02 9 9.86
4/10/2021 6:45:00 AM 12.98 55.364 0.557 8.01 8.44 9.83
4/10/2021 7:00:00 AM 12.97 55.346 0.558 8 10.34 9.82
4/10/2021 7:15:00 AM 12.96 55.328 0.558 8 8.56 9.82
4/10/2021 7:30:00 AM 12.96 55.328 0.558 7.99 8.12 9.81
4/10/2021 7:45:00 AM 12.95 55.31 0.558 7.99 8.51 9.82
4/10/2021 8:00:00 AM 12.95 55.31 0.558 7.99 8.43 9.84
4/10/2021 8:15:00 AM 12.95 55.31 0.558 8 8.34 9.87
4/10/2021 8:30:00 AM 12.95 55.31 0.558 8 8.11 9.92
4/10/2021 8:45:00 AM 12.95 55.31 0.558 8.01 8.62 9.96
4/10/2021 9:00:00 AM 12.96 55.328 0.559 8.02 8.07 10.02
4/10/2021 9:15:00 AM 12.97 55.346 0.558 8.03 8.11 10.08
4/10/2021 9:30:00 AM 12.99 55.382 0.558 8.05 8.3 10.16
4/10/2021 9:45:00 AM 13.01 55.418 0.558 8.07 8.35 10.24
4/10/2021 10:00:00 AM 13.05 55.49 0.558 8.09 8.02 10.33
4/10/2021 10:15:00 AM 13.13 55.634 0.558 8.11 8.13 10.43
4/10/2021 10:30:00 AM 13.21 55.778 0.558 8.14 8 10.55
4/10/2021 10:45:00 AM 13.3 55.94 0.558 8.16 8.05 10.64
4/10/2021 11:00:00 AM 13.42 56.156 0.558 8.19 7.96 10.74
4/10/2021 11:15:00 AM 13.56 56.408 0.558 8.22 8.46 10.83
4/10/2021 11:30:00 AM 13.7 56.66 0.558 8.25 7.73 10.91
4/10/2021 11:45:00 AM 13.84 56.912 0.558 8.28 8.17 11
4/10/2021 12:00:00 PM 13.96 57.128 0.557 8.29 7.94 11.07
4/10/2021 12:15:00 PM 14.11 57.398 0.557 8.32 8.03 11.16
4/10/2021 12:30:00 PM 14.23 57.614 0.556 8.35 8.01 11.22
4/10/2021 12:45:00 PM 14.33 57.794 0.556 8.37 8.11 11.28
4/10/2021 1:00:00 PM 14.44 57.992 0.556 8.39 8.39 11.33
4/10/2021 1:15:00 PM 14.55 58.19 0.556 8.41 7.67 11.39
4/10/2021 1:30:00 PM 14.65 58.37 0.555 8.43 8.48 11.45
4/10/2021 1:45:00 PM 14.74 58.532 0.555 8.44 7.76 11.49
4/10/2021 2:00:00 PM 14.83 58.694 0.554 8.47 7.44 11.55
4/10/2021 2:15:00 PM 14.92 58.856 0.554 8.48 7.85 11.59
4/10/2021 2:30:00 PM 15 59 0.553 8.5 7.98 11.65
4/10/2021 2:45:00 PM 15.06 59.108 0.553 8.52 7.72 11.67
4/10/2021 3:00:00 PM 15.12 59.216 0.552 8.53 7.96 11.7
4/10/2021 3:15:00 PM 15.17 59.306 0.552 8.54 8.59 11.73
4/10/2021 3:30:00 PM 15.21 59.378 0.551 8.55 8.73 11.74
4/10/2021 3:45:00 PM 15.26 59.468 0.551 8.57 8.61 11.76
4/10/2021 4:00:00 PM 15.3 59.54 0.55 8.58 8.34 11.79
4/10/2021 4:15:00 PM 15.32 59.576 0.55 8.58 7.64 11.8
4/10/2021 4:30:00 PM 15.35 59.63 0.549 8.59 8.26 11.81
4/10/2021 4:45:00 PM 15.37 59.666 0.549 8.6 8.15 11.82
4/10/2021 5:00:00 PM 15.38 59.684 0.549 8.61 12.42 11.82
4/10/2021 5:15:00 PM 15.38 59.684 0.548 8.61 10.08 11.82
4/10/2021 5:30:00 PM 15.38 59.684 0.548 8.62 8.69 11.82
4/10/2021 5:45:00 PM 15.36 59.648 0.547 8.62 8.67 11.81
4/10/2021 6:00:00 PM 15.34 59.612 0.547 8.62 8.15 11.78
4/10/2021 6:15:00 PM 15.32 59.576 0.546 8.63 9.27 11.76
4/10/2021 6:30:00 PM 15.29 59.522 0.546 8.62 8.98 11.71
4/10/2021 6:45:00 PM 15.26 59.468 0.545 8.61 9.78 11.67
4/10/2021 7:00:00 PM 15.22 59.396 0.544 8.61 8.87 11.64
4/10/2021 7:15:00 PM 15.18 59.324 0.544 8.6 14.05 11.57
4/10/2021 7:30:00 PM 15.13 59.234 0.542 8.59 2801 11.49
4/10/2021 7:45:00 PM 15.08 59.144 0.543 8.58 12.17 11.41
4/10/2021 8:00:00 PM 15.03 59.054 0.543 8.57 9.48 11.33
4/10/2021 8:15:00 PM 14.98 58.964 0.542 8.55 10.95 11.26
4/10/2021 8:30:00 PM 14.93 58.874 0.541 8.54 9.98 11.19
4/10/2021 8:45:00 PM 14.88 58.784 0.541 8.52 8.96 11.1
4/10/2021 9:00:00 PM 14.83 58.694 0.54 8.51 10.23 11.04
4/10/2021 9:15:00 PM 14.78 58.604 0.54 8.5 8.28 10.97
4/10/2021 9:30:00 PM 14.74 58.532 0.539 8.49 8.38 10.93
4/10/2021 9:45:00 PM 14.69 58.442 0.539 8.48 8.6 10.87
4/10/2021 10:00:00 PM 14.65 58.37 0.539 8.46 8.92 10.81
4/10/2021 10:15:00 PM 14.61 58.298 0.538 8.45 8.36 10.77
4/10/2021 10:30:00 PM 14.57 58.226 0.538 8.44 8.71 10.72
4/10/2021 10:45:00 PM 14.54 58.172 0.537 8.44 9.01 10.68
4/10/2021 11:00:00 PM 14.5 58.1 0.537 8.43 8.64 10.63
4/10/2021 11:15:00 PM 14.47 58.046 0.537 8.42 8.68 10.6
4/10/2021 11:30:00 PM 14.44 57.992 0.536 8.41 9.04 10.55
4/10/2021 11:45:00 PM 14.41 57.938 0.536 8.4 8.61 10.51
4/11/2021 12:00:00 AM 14.38 57.884 0.536 8.39 9.22 10.49
4/11/2021 12:15:00 AM 14.36 57.848 0.535 8.39 9.05 10.44
4/11/2021 12:30:00 AM 14.33 57.794 0.535 8.38 8.57 10.41
4/11/2021 12:45:00 AM 14.31 57.758 0.535 8.36 9.62 10.37
4/11/2021 1:00:00 AM 14.29 57.722 0.534 8.35 8.65 10.34
4/11/2021 1:15:00 AM 14.26 57.668 0.534 8.34 8.96 10.31
4/11/2021 1:30:00 AM 14.24 57.632 0.533 8.33 8.75 10.28
4/11/2021 1:45:00 AM 14.22 57.596 0.532 8.33 8.5 10.26
4/11/2021 2:00:00 AM 14.2 57.56 0.531 8.31 8.3 10.21
4/11/2021 2:15:00 AM 14.19 57.542 0.529 8.31 8.88 10.18
4/11/2021 2:30:00 AM 14.17 57.506 0.527 8.29 8.28 10.15
4/11/2021 2:45:00 AM 14.15 57.47 0.524 8.27 8.24 10.1
4/11/2021 3:00:00 AM 14.14 57.452 0.521 8.26 8.48 10.06
4/11/2021 3:15:00 AM 14.13 57.434 0.517 8.25 8.82 10.04
4/11/2021 3:30:00 AM 14.11 57.398 0.513 8.24 8.75 10
4/11/2021 3:45:00 AM 14.11 57.398 0.508 8.22 8.62 9.96
4/11/2021 4:00:00 AM 14.09 57.362 0.504 8.21 8.34 9.93
4/11/2021 4:15:00 AM 14.09 57.362 0.497 8.2 8.89 9.89
4/11/2021 4:30:00 AM 14.08 57.344 0.49 8.18 10.22 9.85
4/11/2021 4:45:00 AM 14.08 57.344 0.484 8.17 8.79 9.77
4/11/2021 5:00:00 AM 14.07 57.326 0.477 8.16 8.51 9.78
4/11/2021 5:15:00 AM 14.06 57.308 0.47 8.14 8.56 9.73
4/11/2021 5:30:00 AM 14.05 57.29 0.463 8.12 8.41 9.69
4/11/2021 5:45:00 AM 14.06 57.308 0.453 8.12 9.06 9.67
4/11/2021 6:00:00 AM 14.05 57.29 0.446 8.1 8.7 9.63
4/11/2021 6:15:00 AM 14.04 57.272 0.439 8.09 8.63 9.58
4/11/2021 6:30:00 AM 14.04 57.272 0.431 8.07 8.76 9.54
4/11/2021 6:45:00 AM 14.03 57.254 0.423 8.06 8.5 9.53
4/11/2021 7:00:00 AM 14.03 57.254 0.416 8.05 8.1 9.49
4/11/2021 7:15:00 AM 14.03 57.254 0.408 8.05 9.35 9.47
4/11/2021 7:30:00 AM 14.03 57.254 0.41 8.03 8.74 9.45
4/11/2021 7:45:00 AM 14.04 57.272 0.39 8.03 7.91 9.42
4/11/2021 8:00:00 AM 14.03 57.254 0.384 8.02 8.34 9.42
4/11/2021 8:15:00 AM 14.03 57.254 0.378 8.01 8.06 9.39
4/11/2021 8:30:00 AM 14.04 57.272 0.372 8.01 8.92 9.41
4/11/2021 8:45:00 AM 14.04 57.272 0.366 8.01 8.07 9.42
4/11/2021 9:00:00 AM 14.05 57.29 0.361 8.01 8.16 9.42
4/11/2021 9:15:00 AM 14.05 57.29 0.355 8.01 8.01 9.44
4/11/2021 9:30:00 AM 14.06 57.308 0.351 8.01 7.78 9.45
4/11/2021 9:45:00 AM 14.05 57.29 0.347 8.01 8.25 9.47
4/11/2021 10:00:00 AM 14.06 57.308 0.342 8.02 7.7 9.51
4/11/2021 10:15:00 AM 14.06 57.308 0.338 8.03 9.35 9.54
4/11/2021 10:30:00 AM 14.06 57.308 0.335 8.04 8.89 9.58
4/11/2021 10:45:00 AM 14.07 57.326 0.332 8.04 9.2 9.62
4/11/2021 11:00:00 AM 14.08 57.344 0.329 8.06 8.45 9.66
4/11/2021 11:15:00 AM 14.1 57.38 0.326 8.07 7.59 9.72
4/11/2021 11:30:00 AM 14.11 57.398 0.324 8.08 7.65 9.77
4/11/2021 11:45:00 AM 14.12 57.416 0.322 8.09 7.62 9.86
4/11/2021 12:00:00 PM 14.16 57.488 0.32 8.12 7.97 9.96
4/11/2021 12:15:00 PM 14.19 57.542 0.318 8.14 7.83 10.03
4/11/2021 12:30:00 PM 14.24 57.632 0.316 8.17 8 10.16
4/11/2021 12:45:00 PM 14.27 57.686 0.314 8.19 8.11 10.19
4/11/2021 1:00:00 PM 14.27 57.686 0.313 8.2 9.69 10.24
4/11/2021 1:15:00 PM 14.3 57.74 0.312 8.22 7.87 10.31
4/11/2021 1:30:00 PM 14.31 57.758 0.311 8.23 7.59 10.35
4/11/2021 1:45:00 PM 14.32 57.776 0.31 8.24 8.51 10.36
4/11/2021 2:00:00 PM 14.34 57.812 0.308 8.25 7.7 10.41
4/11/2021 2:15:00 PM 14.36 57.848 0.308 8.26 8.18 10.45
4/11/2021 2:30:00 PM 14.4 57.92 0.307 8.28 9.46 10.5
4/11/2021 2:45:00 PM 14.44 57.992 0.306 8.3 8.22 10.56
4/11/2021 3:00:00 PM 14.45 58.01 0.305 8.31 8.06 10.62
4/11/2021 3:15:00 PM 14.45 58.01 0.305 8.32 7.84 10.65
4/11/2021 3:30:00 PM 14.47 58.046 0.304 8.33 8.73 10.67
4/11/2021 3:45:00 PM 14.46 58.028 0.303 8.33 8.87 10.69
4/11/2021 4:00:00 PM 14.46 58.028 0.303 8.33 9.74 10.68
4/11/2021 4:15:00 PM 14.45 58.01 0.302 8.33 8.59 10.66
4/11/2021 4:30:00 PM 14.42 57.956 0.302 8.32 8.55 10.66
4/11/2021 4:45:00 PM 14.41 57.938 0.302 8.32 9.01 10.64
4/11/2021 5:00:00 PM 14.41 57.938 0.301 8.32 8.48 10.64
4/11/2021 5:15:00 PM 14.38 57.884 0.302 8.31 9 10.61
4/11/2021 5:30:00 PM 14.29 57.722 0.302 8.28 8.66 10.57
4/11/2021 5:45:00 PM 14.19 57.542 0.303 8.25 9.79 10.53
4/11/2021 6:00:00 PM 14.11 57.398 0.304 8.24 11.8 10.53
4/11/2021 6:15:00 PM 14.05 57.29 0.305 8.22 13.16 10.5
4/11/2021 6:30:00 PM 13.98 57.164 0.305 8.2 15.5 10.48
4/11/2021 6:45:00 PM 13.91 57.038 0.306 8.18 18.9 10.44
4/11/2021 7:00:00 PM 13.8 56.84 0.307 8.16 31.61 10.42
4/11/2021 7:15:00 PM 13.75 56.75 0.307 8.14 52.9 10.41
4/11/2021 7:30:00 PM 13.7 56.66 0.306 8.13 75.33 10.38
4/11/2021 7:45:00 PM 13.68 56.624 0.304 8.12 75.3 10.36
4/11/2021 8:00:00 PM 13.63 56.534 0.303 8.1 65.98 10.34
4/11/2021 8:15:00 PM 13.54 56.372 0.302 8.09 84.34 10.33
4/11/2021 8:30:00 PM 13.45 56.21 0.3 8.07 124.8 10.31
4/11/2021 8:45:00 PM 13.39 56.102 0.297 8.05 147.88 10.33
4/11/2021 9:00:00 PM 13.4 56.12 0.294 8.05 151.39 10.31
4/11/2021 9:15:00 PM 13.38 56.084 0.293 8.05 122.82 10.3
4/11/2021 9:30:00 PM 13.37 56.066 0.292 8.04 101.79 10.28
4/11/2021 9:45:00 PM 13.32 55.976 0.292 8.04 97.03 10.26
4/11/2021 10:00:00 PM 13.33 55.994 0.292 8.03 71.17 10.25
4/11/2021 10:15:00 PM 13.32 55.976 0.292 8.03 71.87 10.23
4/11/2021 10:30:00 PM 13.31 55.958 0.293 8.03 43.15 10.21
4/11/2021 10:45:00 PM 13.32 55.976 0.293 8.04 42.32 10.2
4/11/2021 11:00:00 PM 13.31 55.958 0.294 8.04 41.34 10.19
4/11/2021 11:15:00 PM 13.34 56.012 0.294 8.04 46.46 10.19
4/11/2021 11:30:00 PM 13.33 55.994 0.294 8.05 37.42 10.17
4/11/2021 11:45:00 PM 13.32 55.976 0.294 8.05 31.42 10.17
4/12/2021 12:00:00 AM 13.36 56.048 0.294 8.06 27.42 10.16
4/12/2021 12:15:00 AM 13.38 56.084 0.294 8.07 24.51 10.16
4/12/2021 12:30:00 AM 13.37 56.066 0.294 8.06 22.4 10.14
4/12/2021 12:45:00 AM 13.4 56.12 0.294 8.07 25.09 10.13
4/12/2021 1:00:00 AM 13.44 56.192 0.295 8.08 18.4 10.11
4/12/2021 1:15:00 AM 13.46 56.228 0.295 8.08 18.13 10.1
4/12/2021 1:30:00 AM 13.46 56.228 0.296 8.07 18.89 10.08
4/12/2021 1:45:00 AM 13.46 56.228 0.297 8.06 64.15 10.05
4/12/2021 2:00:00 AM 13.47 56.246 0.298 8.05 16.68 10.02
4/12/2021 2:15:00 AM 13.45 56.21 0.298 8.04 21.86 9.99
4/12/2021 2:30:00 AM 13.44 56.192 0.297 8.02 20.46 9.96
4/12/2021 2:45:00 AM 13.42 56.156 0.295 8 20.7 9.93
4/12/2021 3:00:00 AM 13.39 56.102 0.293 7.99 25.5 9.91
4/12/2021 3:15:00 AM 13.35 56.03 0.291 7.97 30.96 9.89
4/12/2021 3:30:00 AM 13.3 55.94 0.289 7.96 30.91 9.88
4/12/2021 3:45:00 AM 13.25 55.85 0.288 7.94 38.9 9.86
4/12/2021 4:00:00 AM 13.23 55.814 0.287 7.93 45.8 9.85
4/12/2021 4:15:00 AM 13.2 55.76 0.287 7.93 37.39 9.85
4/12/2021 4:30:00 AM 13.17 55.706 0.286 7.92 38.52 9.84
4/12/2021 4:45:00 AM 13.14 55.652 0.286 7.92 42.34 9.83
4/12/2021 5:00:00 AM 13.11 55.598 0.286 7.91 37.63 9.83
4/12/2021 5:15:00 AM 13.07 55.526 0.286 7.91 41.41 9.83
4/12/2021 5:30:00 AM 13.04 55.472 0.285 7.91 33.66 9.83
4/12/2021 5:45:00 AM 13 55.4 0.285 7.91 38.75 9.83
4/12/2021 6:00:00 AM 12.95 55.31 0.284 7.9 31.5 9.83
4/12/2021 6:15:00 AM 12.91 55.238 0.284 7.9 32.24 9.83
4/12/2021 6:30:00 AM 12.86 55.148 0.282 7.89 37.7 9.83
4/12/2021 6:45:00 AM 12.8 55.04 0.281 7.89 34.2 9.84
4/12/2021 7:00:00 AM 12.73 54.914 0.279 7.87 27.33 9.84
4/12/2021 7:15:00 AM 12.66 54.788 0.101 7.86 29.86 9.85
4/12/2021 7:30:00 AM 12.59 54.662 0.275 7.85 27.71 9.85
4/12/2021 7:45:00 AM 12.52 54.536 0.273 7.84 27.32 9.85
4/12/2021 8:00:00 AM 12.45 54.41 0.272 7.83 29.64 9.86
4/12/2021 8:15:00 AM 12.39 54.302 0.27 7.82 27.46 9.87
4/12/2021 8:30:00 AM 12.32 54.176 0.268 7.82 27.48 9.88
4/12/2021 8:45:00 AM 12.25 54.05 0.266 7.81 26.83 9.89
4/12/2021 9:00:00 AM 12.18 53.924 0.265 7.8 29.03 9.9
4/12/2021 9:15:00 AM 12.12 53.816 0.263 7.8 32.45 9.91
4/12/2021 9:30:00 AM 12.07 53.726 0.262 7.79 25.99 9.93
4/12/2021 9:45:00 AM 12.02 53.636 0.261 7.79 25.29 9.93
4/12/2021 10:00:00 AM 11.97 53.546 0.259 7.79 26.64 9.95
4/12/2021 10:15:00 AM 11.93 53.474 0.258 7.78 28.81 9.96
4/12/2021 10:30:00 AM 11.88 53.384 0.256 7.79 30.18 9.97
4/12/2021 10:45:00 AM 11.83 53.294 0.254 7.78 23.65 9.99
4/12/2021 11:00:00 AM 11.78 53.204 0.252 7.78 26.85 10
4/12/2021 11:15:00 AM 11.72 53.096 0.249 7.77 27.66 10.02
4/12/2021 11:30:00 AM 11.68 53.024 0.246 7.77 27.09 10.04
4/12/2021 11:45:00 AM 11.63 52.934 0.244 7.76 27.07 10.06
4/12/2021 12:00:00 PM 11.6 52.88 0.24 7.76 26.29 10.08
4/12/2021 12:15:00 PM 11.57 52.826 0.238 7.76 29.74 10.11
4/12/2021 12:30:00 PM 11.56 52.808 0.235 7.76 27.87 10.14
4/12/2021 12:45:00 PM 11.56 52.808 0.233 7.75 32.49 10.16
4/12/2021 1:00:00 PM 11.56 52.808 0.231 7.75 33.45 10.18
4/12/2021 1:15:00 PM 11.55 52.79 0.229 7.75 33.18 10.2
4/12/2021 1:30:00 PM 11.54 52.772 0.228 7.75 36.16 10.21
4/12/2021 1:45:00 PM 11.54 52.772 0.226 7.75 39.96 10.22
4/12/2021 2:00:00 PM 11.53 52.754 0.226 7.75 41.63 10.23
4/12/2021 2:15:00 PM 11.54 52.772 0.225 7.74 30.16 10.24
4/12/2021 2:30:00 PM 11.54 52.772 0.225 7.75 36.62 10.25
4/12/2021 2:45:00 PM 11.55 52.79 0.225 7.75 33.81 10.27
4/12/2021 3:00:00 PM 11.57 52.826 0.225 7.76 28.81 10.29
4/12/2021 3:15:00 PM 11.59 52.862 0.226 7.77 30.16 10.32
4/12/2021 3:30:00 PM 11.61 52.898 0.226 7.77 40.2 10.34
4/12/2021 3:45:00 PM 11.62 52.916 0.227 7.78 32.89 10.36
4/12/2021 4:00:00 PM 11.62 52.916 0.227 7.79 30.04 10.38
4/12/2021 4:15:00 PM 11.6 52.88 0.228 7.79 29.28 10.39
4/12/2021 4:30:00 PM 11.6 52.88 0.228 7.79 23.87 10.41
4/12/2021 4:45:00 PM 11.6 52.88 0.228 7.81 28.35 10.43
4/12/2021 5:00:00 PM 11.58 52.844 0.229 7.81 23.99 10.45
4/12/2021 5:15:00 PM 11.56 52.808 0.23 7.82 25.7 10.47
4/12/2021 5:30:00 PM 11.53 52.754 0.23 7.82 19.83 10.48
4/12/2021 5:45:00 PM 11.5 52.7 0.231 7.83 22.99 10.49
4/12/2021 6:00:00 PM 11.46 52.628 0.231 7.83 21.84 10.49
4/12/2021 6:15:00 PM 11.44 52.592 0.232 7.83 21.79 10.5
4/12/2021 6:30:00 PM 11.4 52.52 0.233 7.84 21.76 10.51
4/12/2021 6:45:00 PM 11.38 52.484 0.233 7.85 23.14 10.53
4/12/2021 7:00:00 PM 11.34 52.412 0.234 7.85 20.36 10.54
4/12/2021 7:15:00 PM 11.32 52.376 0.235 7.86 20.8 10.55
4/12/2021 7:30:00 PM 11.29 52.322 0.236 7.85 18.1 10.55
4/12/2021 7:45:00 PM 11.26 52.268 0.237 7.86 21.6 10.56
4/12/2021 8:00:00 PM 11.24 52.232 0.238 7.86 17.7 10.57
4/12/2021 8:15:00 PM 11.22 52.196 0.239 7.87 20.61 10.58
4/12/2021 8:30:00 PM 11.2 52.16 0.24 7.87 19.04 10.58
4/12/2021 8:45:00 PM 11.18 52.124 0.24 7.88 21.64 10.59
4/12/2021 9:00:00 PM 11.16 52.088 0.241 7.88 18.59 10.6
4/12/2021 9:15:00 PM 11.14 52.052 0.241 7.89 22.78 10.6
4/12/2021 9:30:00 PM 11.13 52.034 0.241 7.89 18.81 10.61
4/12/2021 9:45:00 PM 11.11 51.998 0.242 7.89 20.53 10.62
4/12/2021 10:00:00 PM 11.09 51.962 0.242 7.89 26.06 10.63
4/12/2021 10:15:00 PM 11.07 51.926 0.243 7.89 16.25 10.63
4/12/2021 10:30:00 PM 11.06 51.908 0.245 7.89 18.57 10.64
4/12/2021 10:45:00 PM 11.03 51.854 0.248 7.89 20.99 10.64
4/12/2021 11:00:00 PM 11.02 51.836 0.253 7.89 22.89 10.64
4/12/2021 11:15:00 PM 11 51.8 0.257 7.89 21.29 10.64
4/12/2021 11:30:00 PM 10.97 51.746 0.264 7.88 19.39 10.64
4/12/2021 11:45:00 PM 10.95 51.71 0.27 7.88 18.36 10.64
4/13/2021 12:00:00 AM 10.92 51.656 0.276 7.88 18.17 10.65
4/13/2021 12:15:00 AM 10.89 51.602 0.281 7.87 18.62 10.65
4/13/2021 12:30:00 AM 10.85 51.53 0.285 7.87 20.58 10.65
4/13/2021 12:45:00 AM 10.81 51.458 0.289 7.86 19.74 10.66
4/13/2021 1:00:00 AM 10.77 51.386 0.291 7.86 19.48 10.67
4/13/2021 1:15:00 AM 10.73 51.314 0.292 7.86 17.88 10.66
4/13/2021 1:30:00 AM 10.69 51.242 0.293 7.85 17.64 10.67
4/13/2021 1:45:00 AM 10.65 51.17 0.294 7.85 20.13 10.67
4/13/2021 2:00:00 AM 10.62 51.116 0.294 7.84 15.55 10.67
4/13/2021 2:15:00 AM 10.59 51.062 0.294 7.83 20.53 10.67
4/13/2021 2:30:00 AM 10.56 51.008 0.293 7.83 20.93 10.67
4/13/2021 2:45:00 AM 10.54 50.972 0.293 7.82 21.74 10.67
4/13/2021 3:00:00 AM 10.52 50.936 0.292 7.82 17.5 10.67
4/13/2021 3:15:00 AM 10.51 50.918 0.292 7.82 22.24 10.66
4/13/2021 3:30:00 AM 10.49 50.882 0.292 7.81 18.01 10.65
4/13/2021 3:45:00 AM 10.49 50.882 0.291 7.81 15.68 10.64
4/13/2021 4:00:00 AM 10.48 50.864 0.291 7.8 18.15 10.63
4/13/2021 4:15:00 AM 10.47 50.846 0.291 7.8 16.42 10.63
4/13/2021 4:30:00 AM 10.46 50.828 0.291 7.79 18.75 10.62
4/13/2021 4:45:00 AM 10.46 50.828 0.291 7.79 17.55 10.61
4/13/2021 5:00:00 AM 10.45 50.81 0.292 7.78 16.68 10.6
4/13/2021 5:15:00 AM 10.44 50.792 0.291 7.78 35.43 10.6
4/13/2021 5:30:00 AM 10.44 50.792 0.292 7.77 16.46 10.6
4/13/2021 5:45:00 AM 10.43 50.774 0.291 7.77 16.86 10.59
4/13/2021 6:00:00 AM 10.42 50.756 0.291 7.77 26.97 10.58
4/13/2021 6:15:00 AM 10.41 50.738 0.291 7.77 13.49 10.59
4/13/2021 6:30:00 AM 10.39 50.702 0.29 7.76 19.74 10.58
4/13/2021 6:45:00 AM 10.37 50.666 0.29 7.76 20.56 10.58
4/13/2021 7:00:00 AM 10.35 50.63 0.289 7.76 436.89 10.58
4/13/2021 7:15:00 AM 10.34 50.612 0.29 7.76 15.66 10.59
4/13/2021 7:30:00 AM 10.33 50.594 0.29 7.76 17.43 10.6
4/13/2021 7:45:00 AM 10.32 50.576 0.289 7.76 19.89 10.61
4/13/2021 8:00:00 AM 10.32 50.576 0.289 7.76 12.76 10.62
4/13/2021 8:15:00 AM 10.32 50.576 0.289 7.77 18.8 10.64
4/13/2021 8:30:00 AM 10.32 50.576 0.288 7.77 14.4 10.65
4/13/2021 8:45:00 AM 10.32 50.576 0.288 7.77 15.19 10.66
4/13/2021 9:00:00 AM 10.32 50.576 0.288 7.78 14.91 10.68
4/13/2021 9:15:00 AM 10.34 50.612 0.288 7.78 18.31 10.7
4/13/2021 9:30:00 AM 10.34 50.612 0.288 7.78 14.77 10.72
4/13/2021 9:45:00 AM 10.35 50.63 0.289 7.78 13.85 10.75
4/13/2021 10:00:00 AM 10.37 50.666 0.289 7.79 16.92 10.77
4/13/2021 10:15:00 AM 10.4 50.72 0.289 7.8 13.68 10.8
4/13/2021 10:30:00 AM 10.43 50.774 0.289 7.81 15.39 10.83
4/13/2021 10:45:00 AM 10.47 50.846 0.289 7.81 13.49 10.86
4/13/2021 11:00:00 AM 10.51 50.918 0.289 7.82 13.66 10.89
4/13/2021 11:15:00 AM 10.53 50.954 0.289 7.83 12.36 10.92
4/13/2021 11:30:00 AM 10.54 50.972 0.289 7.83 13.24 10.94
4/13/2021 11:45:00 AM 10.57 51.026 0.289 7.84 15 10.97
4/13/2021 12:00:00 PM 10.61 51.098 0.289 7.85 11.83 10.99
4/13/2021 12:15:00 PM 10.66 51.188 0.289 7.86 13.08 11.02
4/13/2021 12:30:00 PM 10.73 51.314 0.289 7.87 20.61 11.05
4/13/2021 12:45:00 PM 10.81 51.458 0.289 7.87 13.09 11.09
4/13/2021 1:00:00 PM 10.93 51.674 0.289 7.89 13.16 11.12
4/13/2021 1:15:00 PM 11.01 51.818 0.289 7.9 11.28 11.16
4/13/2021 1:30:00 PM 11.06 51.908 0.29 7.91 11.14 11.18
4/13/2021 1:45:00 PM 11.1 51.98 0.29 7.91 11.65 11.2
4/13/2021 2:00:00 PM 11.18 52.124 0.29 7.93 12.39 11.23
4/13/2021 2:15:00 PM 11.21 52.178 0.29 7.93 14.39 11.25
4/13/2021 2:30:00 PM 11.26 52.268 0.29 7.93 12.98 11.27
4/13/2021 2:45:00 PM 11.26 52.268 0.29 7.94 12.64 11.27
4/13/2021 3:00:00 PM 11.35 52.43 0.29 7.94 15.22 11.3
4/13/2021 3:15:00 PM 11.46 52.628 0.29 7.96 13.18 11.32
4/13/2021 3:30:00 PM 11.56 52.808 0.29 7.96 76.01 11.34
4/13/2021 3:45:00 PM 11.66 52.988 0.29 7.97 15.29 11.35
4/13/2021 4:00:00 PM 11.73 53.114 0.29 7.98 13.97 11.38
4/13/2021 4:15:00 PM 11.8 53.24 0.29 7.99 14.48 11.39
4/13/2021 4:30:00 PM 11.84 53.312 0.29 8 11.93 11.4
4/13/2021 4:45:00 PM 11.83 53.294 0.291 8 12.29 11.41
4/13/2021 5:00:00 PM 11.8 53.24 0.291 8.01 14.51 11.42
4/13/2021 5:15:00 PM 11.76 53.168 0.291 8.01 14.43 11.43
4/13/2021 5:30:00 PM 11.72 53.096 0.291 8.01 12.51 11.43
4/13/2021 5:45:00 PM 11.68 53.024 0.29 8.02 11.54 11.44
4/13/2021 6:00:00 PM 11.64 52.952 0.29 8.02 13.73 11.44
4/13/2021 6:15:00 PM 11.61 52.898 0.29 8.02 15.25 11.43
4/13/2021 6:30:00 PM 11.59 52.862 0.29 8.03 13.92 11.44
4/13/2021 6:45:00 PM 11.57 52.826 0.29 8.02 14.19 11.42
4/13/2021 7:00:00 PM 11.57 52.826 0.29 8.01 13.88 11.41
4/13/2021 7:15:00 PM 11.59 52.862 0.29 8.02 11.95 11.4
4/13/2021 7:30:00 PM 11.6 52.88 0.29 8.01 12.76 11.38
4/13/2021 7:45:00 PM 11.61 52.898 0.29 8.01 10.11 11.37
4/13/2021 8:00:00 PM 11.61 52.898 0.29 8 12.09 11.35
4/13/2021 8:15:00 PM 11.6 52.88 0.291 8 11.98 11.33
4/13/2021 8:30:00 PM 11.58 52.844 0.291 8 12.64 11.3
4/13/2021 8:45:00 PM 11.58 52.844 0.291 7.99 11.31 11.28
4/13/2021 9:00:00 PM 11.56 52.808 0.291 7.99 26.81 11.26
4/13/2021 9:15:00 PM 11.54 52.772 0.291 7.98 11.35 11.24
4/13/2021 9:30:00 PM 11.52 52.736 0.291 7.97 12.98 11.21
4/13/2021 9:45:00 PM 11.5 52.7 0.292 7.97 13.04 11.19
4/13/2021 10:00:00 PM 11.49 52.682 0.293 7.97 14.84 11.18
4/13/2021 10:15:00 PM 11.48 52.664 0.293 7.96 16.05 11.15
4/13/2021 10:30:00 PM 11.47 52.646 0.294 7.96 10.5 11.12
4/13/2021 10:45:00 PM 11.46 52.628 0.295 7.95 15.15 11.1
4/13/2021 11:00:00 PM 11.45 52.61 0.296 7.95 12.89 11.08
4/13/2021 11:15:00 PM 11.43 52.574 0.298 7.94 14.03 11.06
4/13/2021 11:30:00 PM 11.42 52.556 0.299 7.94 10.66 11.04
4/13/2021 11:45:00 PM 11.4 52.52 0.3 7.94 12.11 11.01
4/14/2021 12:00:00 AM 11.39 52.502 0.302 7.93 11.97 10.98
4/14/2021 12:15:00 AM 11.38 52.484 0.304 7.93 13.99 10.97
4/14/2021 12:30:00 AM 11.37 52.466 0.306 7.92 11.64 10.95
4/14/2021 12:45:00 AM 11.35 52.43 0.307 7.92 11.98 10.92
4/14/2021 1:00:00 AM 11.35 52.43 0.31 7.92 12.55 10.9
4/14/2021 1:15:00 AM 11.34 52.412 0.311 7.91 13.79 10.88
4/14/2021 1:30:00 AM 11.33 52.394 0.313 7.91 11.61 10.86
4/14/2021 1:45:00 AM 11.32 52.376 0.315 7.9 14.6 10.84
4/14/2021 2:00:00 AM 11.3 52.34 0.316 7.9 12.85 10.82
4/14/2021 2:15:00 AM 11.3 52.34 0.317 7.91 15.45 10.8
4/14/2021 2:30:00 AM 11.29 52.322 0.318 7.9 14.58 10.79
4/14/2021 2:45:00 AM 11.28 52.304 0.319 7.9 16.22 10.77
4/14/2021 3:00:00 AM 11.27 52.286 0.32 7.9 14.57 10.75
4/14/2021 3:15:00 AM 11.26 52.268 0.321 7.89 12.71 10.73
4/14/2021 3:30:00 AM 11.26 52.268 0.322 7.89 12.69 10.71
4/14/2021 3:45:00 AM 11.24 52.232 0.322 7.88 13.06 10.69
4/14/2021 4:00:00 AM 11.22 52.196 0.322 7.88 12.73 10.68
4/14/2021 4:15:00 AM 11.21 52.178 0.322 7.88 14.98 10.66
4/14/2021 4:30:00 AM 11.2 52.16 0.322 7.88 19.75 10.65
4/14/2021 4:45:00 AM 11.18 52.124 0.322 7.87 13.67 10.63
4/14/2021 5:00:00 AM 11.17 52.106 0.322 7.87 12.36 10.62
4/14/2021 5:15:00 AM 11.16 52.088 0.321 7.87 15.19 10.6
4/14/2021 5:30:00 AM 11.15 52.07 0.32 7.86 13.08 10.59
4/14/2021 5:45:00 AM 11.13 52.034 0.32 7.86 14.53 10.57
4/14/2021 6:00:00 AM 11.11 51.998 0.319 7.86 14.64 10.56
4/14/2021 6:15:00 AM 11.09 51.962 0.318 7.85 13.12 10.55
4/14/2021 6:30:00 AM 11.07 51.926 0.317 7.85 14.25 10.53
4/14/2021 6:45:00 AM 11.05 51.89 0.316 7.84 12.48 10.53
4/14/2021 7:00:00 AM 11.03 51.854 0.315 7.84 9.83 10.52
4/14/2021 7:15:00 AM 11.02 51.836 0.314 7.83 13.29 10.51
4/14/2021 7:30:00 AM 11 51.8 0.313 7.83 14.32 10.52
4/14/2021 7:45:00 AM 10.99 51.782 0.311 7.83 14.48 10.52
4/14/2021 8:00:00 AM 11 51.8 0.31 7.84 14.21 10.54
4/14/2021 8:15:00 AM 11 51.8 0.309 7.84 13.15 10.55
4/14/2021 8:30:00 AM 11 51.8 0.308 7.84 14.03 10.57
4/14/2021 8:45:00 AM 11.02 51.836 0.307 7.85 14.28 10.59
4/14/2021 9:00:00 AM 11.04 51.872 0.306 7.85 12.8 10.62
4/14/2021 9:15:00 AM 11.09 51.962 0.306 7.85 12.77 10.66
4/14/2021 9:30:00 AM 11.15 52.07 0.305 7.87 13.93 10.7
4/14/2021 9:45:00 AM 11.22 52.196 0.304 7.88 13.88 10.74
4/14/2021 10:00:00 AM 11.32 52.376 0.304 7.88 12.04 10.79
4/14/2021 10:15:00 AM 11.4 52.52 0.303 7.89 13.55 10.82
4/14/2021 10:30:00 AM 11.45 52.61 0.303 7.9 12.41 10.86
4/14/2021 10:45:00 AM 11.54 52.772 0.302 7.91 21.18 10.9
4/14/2021 11:00:00 AM 11.58 52.844 0.302 7.92 13.1 10.93
4/14/2021 11:15:00 AM 11.68 53.024 0.302 7.94 12.19 10.97
4/14/2021 11:30:00 AM 11.73 53.114 0.302 7.94 12.58 10.98
4/14/2021 11:45:00 AM 11.74 53.132 0.302 7.95 13.66 11.01
4/14/2021 12:00:00 PM 11.74 53.132 0.301 7.96 12.69 11.02
4/14/2021 12:15:00 PM 11.86 53.348 0.301 7.97 12.82 11.07
4/14/2021 12:30:00 PM 11.97 53.546 0.301 7.98 12.58 11.1
4/14/2021 12:45:00 PM 12.12 53.816 0.301 8 12.3 11.15
4/14/2021 1:00:00 PM 12.19 53.942 0.301 8.01 12.48 11.18
4/14/2021 1:15:00 PM 12.18 53.924 0.3 8.02 12.27 11.19
4/14/2021 1:30:00 PM 12.15 53.87 0.3 8.02 13.27 11.2
4/14/2021 1:45:00 PM 12.17 53.906 0.301 8.03 11.51 11.24
4/14/2021 2:00:00 PM 12.3 54.14 0.3 8.05 12.77 11.28
4/14/2021 2:15:00 PM 12.47 54.446 0.301 8.07 11.71 11.33
4/14/2021 2:30:00 PM 12.57 54.626 0.301 8.08 11.99 11.37
4/14/2021 2:45:00 PM 12.62 54.716 0.301 8.09 13.57 11.37
4/14/2021 3:00:00 PM 12.72 54.896 0.301 8.11 13.43 11.41
4/14/2021 3:15:00 PM 12.78 55.004 0.301 8.12 12.46 11.43
4/14/2021 3:30:00 PM 12.81 55.058 0.301 8.14 11.89 11.45
4/14/2021 3:45:00 PM 12.85 55.13 0.301 8.15 11.39 11.48
4/14/2021 4:00:00 PM 12.88 55.184 0.302 8.16 12.3 11.5
4/14/2021 4:15:00 PM 12.92 55.256 0.302 8.17 12.36 11.51
4/14/2021 4:30:00 PM 12.97 55.346 0.302 8.19 12.91 11.53
4/14/2021 4:45:00 PM 12.99 55.382 0.303 8.19 13.1 11.53
4/14/2021 5:00:00 PM 13 55.4 0.303 8.2 14 11.54
4/14/2021 5:15:00 PM 12.97 55.346 0.303 8.21 13.17 11.54
4/14/2021 5:30:00 PM 12.93 55.274 0.304 8.21 12.13 11.54
4/14/2021 5:45:00 PM 12.89 55.202 0.304 8.21 12.02 11.54
4/14/2021 6:00:00 PM 12.84 55.112 0.304 8.21 12.88 11.52
4/14/2021 6:15:00 PM 12.79 55.022 0.305 8.21 12.6 11.5
4/14/2021 6:30:00 PM 12.73 54.914 0.305 8.2 12.53 11.48
4/14/2021 6:45:00 PM 12.68 54.824 0.306 8.2 11.94 11.46
4/14/2021 7:00:00 PM 12.63 54.734 0.306 8.19 12 11.43
4/14/2021 7:15:00 PM 12.6 54.68 0.307 8.18 13.15 11.39
4/14/2021 7:30:00 PM 12.56 54.608 0.307 8.17 12.3 11.36
4/14/2021 7:45:00 PM 12.54 54.572 0.307 8.16 12.58 11.33
4/14/2021 8:00:00 PM 12.52 54.536 0.308 8.15 13.78 11.28
4/14/2021 8:15:00 PM 12.5 54.5 0.309 8.14 14.07 11.25
4/14/2021 8:30:00 PM 12.49 54.482 0.309 8.13 13.47 11.21
4/14/2021 8:45:00 PM 12.47 54.446 0.31 8.12 13.64 11.17
4/14/2021 9:00:00 PM 12.46 54.428 0.311 8.12 15.07 11.16
4/14/2021 9:15:00 PM 12.45 54.41 0.312 8.11 13.87 11.12
4/14/2021 9:30:00 PM 12.43 54.374 0.313 8.09 13.67 11.08
4/14/2021 9:45:00 PM 12.42 54.356 0.314 8.09 12.37 11.06
4/14/2021 10:00:00 PM 12.41 54.338 0.314 8.08 11.99 11.04
4/14/2021 10:15:00 PM 12.4 54.32 0.315 8.08 13.92 11.02
4/14/2021 10:30:00 PM 12.38 54.284 0.316 8.06 13.1 10.98
4/14/2021 10:45:00 PM 12.37 54.266 0.317 8.06 12.71 10.95
4/14/2021 11:00:00 PM 12.35 54.23 0.318 8.06 13.72 10.91
4/14/2021 11:15:00 PM 12.33 54.194 0.319 8.04 13.12 10.88
4/14/2021 11:30:00 PM 12.32 54.176 0.32 8.04 15.16 10.86
4/14/2021 11:45:00 PM 12.31 54.158 0.321 8.03 13.76 10.83
4/15/2021 12:00:00 AM 12.31 54.158 0.322 8.02 14.85 10.8
4/15/2021 12:15:00 AM 12.3 54.14 0.323 8.01 11.7 10.76
4/15/2021 12:30:00 AM 12.3 54.14 0.324 8.01 12.68 10.74
4/15/2021 12:45:00 AM 12.29 54.122 0.324 8 13.94 10.71
4/15/2021 1:00:00 AM 12.28 54.104 0.324 7.99 13.06 10.67
4/15/2021 1:15:00 AM 12.28 54.104 0.324 7.99 12.91 10.64
4/15/2021 1:30:00 AM 12.27 54.086 0.322 7.98 19.88 10.61
4/15/2021 1:45:00 AM 12.28 54.104 0.32 7.97 13.31 10.59
4/15/2021 2:00:00 AM 12.28 54.104 0.318 7.97 12.82 10.55
4/15/2021 2:15:00 AM 12.29 54.122 0.314 7.96 10.99 10.53
4/15/2021 2:30:00 AM 12.29 54.122 0.31 7.96 27.06 10.5
4/15/2021 2:45:00 AM 12.3 54.14 0.305 7.96 15.02 10.48
4/15/2021 3:00:00 AM 12.29 54.122 0.299 7.96 14.16 10.45
4/15/2021 3:15:00 AM 12.28 54.104 0.294 7.95 11.57 10.44
4/15/2021 3:30:00 AM 12.27 54.086 0.289 7.94 14.06 10.41
4/15/2021 3:45:00 AM 12.25 54.05 0.284 7.94 12.31 10.39
4/15/2021 4:00:00 AM 12.23 54.014 0.28 7.94 13.64 10.37
4/15/2021 4:15:00 AM 12.21 53.978 0.276 7.93 12.19 10.35
4/15/2021 4:30:00 AM 12.19 53.942 0.271 7.92 12.88 10.34
4/15/2021 4:45:00 AM 12.17 53.906 0.268 7.93 12.92 10.32
4/15/2021 5:00:00 AM 12.14 53.852 0.265 7.92 13.67 10.29
4/15/2021 5:15:00 AM 12.12 53.816 0.262 7.92 14 10.28
4/15/2021 5:30:00 AM 12.09 53.762 0.26 7.91 13.86 10.26
4/15/2021 5:45:00 AM 12.06 53.708 0.258 7.9 13.91 10.24
4/15/2021 6:00:00 AM 12.03 53.654 0.257 7.9 14.46 10.22
4/15/2021 6:15:00 AM 12.01 53.618 0.256 7.89 17.96 10.21
4/15/2021 6:30:00 AM 11.98 53.564 0.255 7.89 14.35 10.18
4/15/2021 6:45:00 AM 11.96 53.528 0.254 7.88 13.61 10.18
4/15/2021 7:00:00 AM 11.94 53.492 0.253 7.88 10.85 10.16
4/15/2021 7:15:00 AM 11.91 53.438 0.253 7.87 13.13 10.14
4/15/2021 7:30:00 AM 11.89 53.402 0.253 7.87 13.22 10.14
4/15/2021 7:45:00 AM 11.87 53.366 0.252 7.87 13.19 10.13
4/15/2021 8:00:00 AM 11.85 53.33 0.252 7.86 14.49 10.14
4/15/2021 8:15:00 AM 11.83 53.294 0.252 7.87 13.84 10.15
4/15/2021 8:30:00 AM 11.82 53.276 0.251 7.87 13.35 10.17
4/15/2021 8:45:00 AM 11.81 53.258 0.251 7.87 13.23 10.22
4/15/2021 9:00:00 AM 11.79 53.222 0.251 7.88 12.12 10.23
4/15/2021 9:15:00 AM 11.76 53.168 0.251 7.88 11.44 10.25
4/15/2021 9:30:00 AM 11.74 53.132 0.251 7.88 12.16 10.27
4/15/2021 9:45:00 AM 11.71 53.078 0.251 7.88 13.87 10.27
4/15/2021 10:00:00 AM 11.68 53.024 0.251 7.88 12.14 10.28
4/15/2021 10:15:00 AM 11.67 53.006 0.25 7.88 11.78 10.3
4/15/2021 10:30:00 AM 11.65 52.97 0.25 7.89 12.37 10.31
4/15/2021 10:45:00 AM 11.64 52.952 0.25 7.89 11.85 10.33
4/15/2021 11:00:00 AM 11.62 52.916 0.25 7.89 11.34 10.35
4/15/2021 11:15:00 AM 11.61 52.898 0.25 7.9 11.9 10.37
4/15/2021 11:30:00 AM 11.59 52.862 0.25 7.9 11.9 10.38
4/15/2021 11:45:00 AM 11.57 52.826 0.25 7.9 13.08 10.41
4/15/2021 12:00:00 PM 11.55 52.79 0.25 7.91 11.25 10.44
4/15/2021 12:15:00 PM 11.54 52.772 0.251 7.92 11.48 10.47
4/15/2021 12:30:00 PM 11.54 52.772 0.25 7.93 15.23 10.53
4/15/2021 12:45:00 PM 11.54 52.772 0.251 7.94 11.33 10.58
4/15/2021 1:00:00 PM 11.57 52.826 0.251 7.95 11.66 10.64
4/15/2021 1:15:00 PM 11.59 52.862 0.25 7.96 10.73 10.69
4/15/2021 1:30:00 PM 11.61 52.898 0.25 7.98 12.24 10.73
4/15/2021 1:45:00 PM 11.63 52.934 0.25 7.99 12.29 10.79
4/15/2021 2:00:00 PM 11.62 52.916 0.25 8 11.83 10.83
4/15/2021 2:15:00 PM 11.59 52.862 0.25 8.01 11.33 10.83
4/15/2021 2:30:00 PM 11.55 52.79 0.25 8.01 12 10.84
4/15/2021 2:45:00 PM 11.51 52.718 0.25 8.01 11.32 10.84
4/15/2021 3:00:00 PM 11.49 52.682 0.25 8.01 11.42 10.85
4/15/2021 3:15:00 PM 11.48 52.664 0.25 8.01 12.04 10.89
4/15/2021 3:30:00 PM 11.47 52.646 0.25 8.02 10.51 10.93
4/15/2021 3:45:00 PM 11.44 52.592 0.25 8.03 11.52 10.96
4/15/2021 4:00:00 PM 11.4 52.52 0.25 8.04 11.52 10.98
4/15/2021 4:15:00 PM 11.36 52.448 0.25 8.04 11.26 10.98
4/15/2021 4:30:00 PM 11.32 52.376 0.25 8.04 10.82 10.97
4/15/2021 4:45:00 PM 11.28 52.304 0.25 8.04 12.08 10.99
4/15/2021 5:00:00 PM 11.24 52.232 0.25 8.04 11.31 10.99
4/15/2021 5:15:00 PM 11.19 52.142 0.251 8.04 11.1 10.99
4/15/2021 5:30:00 PM 11.14 52.052 0.251 8.04 11.07 10.99
4/15/2021 5:45:00 PM 11.1 51.98 0.251 8.03 11.3 10.99
4/15/2021 6:00:00 PM 11.05 51.89 0.251 8.03 11.15 10.99
4/15/2021 6:15:00 PM 11.01 51.818 0.251 8.03 12.69 11
4/15/2021 6:30:00 PM 10.97 51.746 0.251 8.03 11.88 10.99
4/15/2021 6:45:00 PM 10.93 51.674 0.251 8.03 11.18 11
4/15/2021 7:00:00 PM 10.88 51.584 0.251 8.02 12.15 11.01
4/15/2021 7:15:00 PM 10.83 51.494 0.251 8.02 11.8 11.01
4/15/2021 7:30:00 PM 10.78 51.404 0.251 8.03 10.88 11.02
4/15/2021 7:45:00 PM 10.73 51.314 0.251 8.02 12.1 11.02
4/15/2021 8:00:00 PM 10.67 51.206 0.251 8.02 10.82 11.01
4/15/2021 8:15:00 PM 10.61 51.098 0.251 8.01 11.25 10.99
4/15/2021 8:30:00 PM 10.57 51.026 0.251 8.01 11.07 10.99
4/15/2021 8:45:00 PM 10.51 50.918 0.251 8 15.61 10.98
4/15/2021 9:00:00 PM 10.46 50.828 0.252 8 11.99 10.97
4/15/2021 9:15:00 PM 10.4 50.72 0.252 7.99 12.91 10.97
4/15/2021 9:30:00 PM 10.35 50.63 0.253 7.99 12.5 10.95
4/15/2021 9:45:00 PM 10.28 50.504 0.253 7.98 12.17 10.95
4/15/2021 10:00:00 PM 10.22 50.396 0.254 7.98 12.82 10.94
4/15/2021 10:15:00 PM 10.17 50.306 0.254 7.97 12.34 10.94
4/15/2021 10:30:00 PM 10.12 50.216 0.254 7.97 12.03 10.94
4/15/2021 10:45:00 PM 10.08 50.144 0.254 7.96 12.27 10.93
4/15/2021 11:00:00 PM 10.04 50.072 0.254 7.96 12.79 10.93
4/15/2021 11:15:00 PM 9.99 49.982 0.254 7.96 13.58 10.93
4/15/2021 11:30:00 PM 9.95 49.91 0.254 7.95 12.97 10.92
4/15/2021 11:45:00 PM 9.91 49.838 0.254 7.95 12.82 10.94
4/16/2021 12:00:00 AM 9.87 49.766 0.254 7.95 12.32 10.94
4/16/2021 12:15:00 AM 9.83 49.694 0.253 7.95 12.64 10.93
4/16/2021 12:30:00 AM 9.79 49.622 0.253 7.94 11.9 10.93
4/16/2021 12:45:00 AM 9.75 49.55 0.253 7.94 12.08 10.93
4/16/2021 1:00:00 AM 9.72 49.496 0.253 7.93 13.56 10.92
4/16/2021 1:15:00 AM 9.68 49.424 0.253 7.94 12.27 10.92
4/16/2021 1:30:00 AM 9.65 49.37 0.253 7.93 11.78 10.92
4/16/2021 1:45:00 AM 9.62 49.316 0.253 7.93 12.62 10.92
4/16/2021 2:00:00 AM 9.59 49.262 0.253 7.93 12.03 10.91
4/16/2021 2:15:00 AM 9.56 49.208 0.253 7.92 12.79 10.92
4/16/2021 2:30:00 AM 9.54 49.172 0.253 7.92 11.85 10.92
4/16/2021 2:45:00 AM 9.51 49.118 0.253 7.92 11.26 10.92
4/16/2021 3:00:00 AM 9.49 49.082 0.253 7.92 12.39 10.91
4/16/2021 3:15:00 AM 9.46 49.028 0.253 7.92 13.38 10.91
4/16/2021 3:30:00 AM 9.44 48.992 0.253 7.91 13.23 10.91
4/16/2021 3:45:00 AM 9.42 48.956 0.253 7.9 11.26 10.9
4/16/2021 4:00:00 AM 9.39 48.902 0.252 7.91 11.7 10.9
4/16/2021 4:15:00 AM 9.37 48.866 0.252 7.9 11.38 10.91
4/16/2021 4:30:00 AM 9.34 48.812 0.252 7.9 12.63 10.9
4/16/2021 4:45:00 AM 9.31 48.758 0.252 7.9 12.43 10.9
4/16/2021 5:00:00 AM 9.29 48.722 0.251 7.9 12.18 10.9
4/16/2021 5:15:00 AM 9.26 48.668 0.251 7.89 13.3 10.9
4/16/2021 5:30:00 AM 9.23 48.614 0.251 7.9 12.23 10.9
4/16/2021 5:45:00 AM 9.2 48.56 0.251 7.89 12.95 10.9
4/16/2021 6:00:00 AM 9.18 48.524 0.251 7.89 12.46 10.9
4/16/2021 6:15:00 AM 9.15 48.47 0.25 7.89 13 10.89
4/16/2021 6:30:00 AM 9.12 48.416 0.25 7.89 13.65 10.89
4/16/2021 6:45:00 AM 9.09 48.362 0.25 7.88 12.59 10.89
4/16/2021 7:00:00 AM 9.06 48.308 0.25 7.88 12.28 10.89
4/16/2021 7:15:00 AM 9.03 48.254 0.25 7.88 13.22 10.89
4/16/2021 7:30:00 AM 9.01 48.218 0.251 7.88 11.55 10.9
4/16/2021 7:45:00 AM 8.98 48.164 0.251 7.88 11.7 10.91
4/16/2021 8:00:00 AM 8.96 48.128 0.25 7.88 10.81 10.92
4/16/2021 8:15:00 AM 8.94 48.092 0.25 7.88 12.35 10.93
4/16/2021 8:30:00 AM 8.92 48.056 0.25 7.88 11.44 10.95
4/16/2021 8:45:00 AM 8.9 48.02 0.25 7.88 10.67 10.97
4/16/2021 9:00:00 AM 8.88 47.984 0.25 7.88 11.23 10.99
4/16/2021 9:15:00 AM 8.86 47.948 0.25 7.89 11.23 11.02
4/16/2021 9:30:00 AM 8.87 47.966 0.249</